<?xml version="1.0" encoding="UTF-8" standalone="no" ?>
<gpx xmlns="http://www.topografix.com/GPX/1/1" xmlns:xsi="http://www.w3.org/2001/XMLSchema-instance" xsi:schemaLocation="http://www.topografix.com/GPX/1/1 http://www.topografix.com/GPX/1/1/gpx.xsd" version="1.1" creator="VisuGPX - https://www.visugpx.com">
  <metadata>
    <name>VTT Turriers Crête des  Melezes/retour par le Col</name>
    <desc><![CDATA[De Turriers :
Petite route  direction Bayons , qui passe au Col des Sagnes , jusqu\'à piste de la combe qui part  à gauche après les  tourniquets long faux plat jusqu\'au Km 17 puis montée parfois soutenue jusqu\'à crête des Melezes  au Km 23   superbes vues ) prendre à gauche la descente  la piste un peu caillouteuse jusqu\'au hameau du Col puis à gauche piste qui parfois ravinée descend dans des schistes amusants jusqu\'à petite route qui par la gauche  ramène tranquillement à Turriers]]></desc>
  </metadata>
  <trk>
    <name><![CDATA[ACTIVE LOG 002]]></name>
    <trkseg>
      <trkpt lat="44.39803" lon="6.17149">
        <ele>957.6105957</ele>
        <time>2015-07-14T05:36:52Z</time>
      </trkpt>
      <trkpt lat="44.39805" lon="6.17137">
        <ele>957.1298828</ele>
        <time>2015-07-14T05:36:58Z</time>
      </trkpt>
      <trkpt lat="44.39805" lon="6.17139">
        <ele>958.0913086</ele>
        <time>2015-07-14T05:37:09Z</time>
      </trkpt>
      <trkpt lat="44.39808" lon="6.17134">
        <ele>962.4169922</ele>
        <time>2015-07-14T05:37:16Z</time>
      </trkpt>
      <trkpt lat="44.39807" lon="6.17134">
        <ele>965.7817383</ele>
        <time>2015-07-14T05:37:18Z</time>
      </trkpt>
      <trkpt lat="44.39806" lon="6.17134">
        <ele>967.7041016</ele>
        <time>2015-07-14T05:37:19Z</time>
      </trkpt>
      <trkpt lat="44.39804" lon="6.17132">
        <ele>972.9916992</ele>
        <time>2015-07-14T05:37:22Z</time>
      </trkpt>
      <trkpt lat="44.39803" lon="6.17131">
        <ele>976.3562012</ele>
        <time>2015-07-14T05:37:24Z</time>
      </trkpt>
      <trkpt lat="44.39802" lon="6.17131">
        <ele>979.7207031</ele>
        <time>2015-07-14T05:37:26Z</time>
      </trkpt>
      <trkpt lat="44.398" lon="6.1713">
        <ele>983.565918</ele>
        <time>2015-07-14T05:37:29Z</time>
      </trkpt>
      <trkpt lat="44.39799" lon="6.17129">
        <ele>986.9304199</ele>
        <time>2015-07-14T05:37:32Z</time>
      </trkpt>
      <trkpt lat="44.39797" lon="6.17128">
        <ele>990.2954102</ele>
        <time>2015-07-14T05:37:35Z</time>
      </trkpt>
      <trkpt lat="44.39794" lon="6.17125">
        <ele>994.140625</ele>
        <time>2015-07-14T05:37:39Z</time>
      </trkpt>
      <trkpt lat="44.39794" lon="6.17125">
        <ele>997.0244141</ele>
        <time>2015-07-14T05:37:42Z</time>
      </trkpt>
      <trkpt lat="44.39794" lon="6.17124">
        <ele>1000.3891602</ele>
        <time>2015-07-14T05:37:47Z</time>
      </trkpt>
      <trkpt lat="44.39791" lon="6.17124">
        <ele>1003.7536621</ele>
        <time>2015-07-14T05:37:52Z</time>
      </trkpt>
      <trkpt lat="44.39789" lon="6.17125">
        <ele>1006.6376953</ele>
        <time>2015-07-14T05:37:57Z</time>
      </trkpt>
      <trkpt lat="44.3979" lon="6.17124">
        <ele>1009.5217285</ele>
        <time>2015-07-14T05:38:03Z</time>
      </trkpt>
      <trkpt lat="44.39788" lon="6.17121">
        <ele>1010.963623</ele>
        <time>2015-07-14T05:38:07Z</time>
      </trkpt>
      <trkpt lat="44.39788" lon="6.17118">
        <ele>1013.8474121</ele>
        <time>2015-07-14T05:38:16Z</time>
      </trkpt>
      <trkpt lat="44.39788" lon="6.17115">
        <ele>1015.2895508</ele>
        <time>2015-07-14T05:38:18Z</time>
      </trkpt>
      <trkpt lat="44.39792" lon="6.17106">
        <ele>1016.2507324</ele>
        <time>2015-07-14T05:38:23Z</time>
      </trkpt>
      <trkpt lat="44.39804" lon="6.17079">
        <ele>1019.6154785</ele>
        <time>2015-07-14T05:38:35Z</time>
      </trkpt>
      <trkpt lat="44.39812" lon="6.17048">
        <ele>1022.4995117</ele>
        <time>2015-07-14T05:38:49Z</time>
      </trkpt>
      <trkpt lat="44.39812" lon="6.17041">
        <ele>1022.9802246</ele>
        <time>2015-07-14T05:38:52Z</time>
      </trkpt>
      <trkpt lat="44.39801" lon="6.17034">
        <ele>1022.9802246</ele>
        <time>2015-07-14T05:38:57Z</time>
      </trkpt>
      <trkpt lat="44.39753" lon="6.17023">
        <ele>1021.5380859</ele>
        <time>2015-07-14T05:39:07Z</time>
      </trkpt>
      <trkpt lat="44.39698" lon="6.1699">
        <ele>1018.6540527</ele>
        <time>2015-07-14T05:39:15Z</time>
      </trkpt>
      <trkpt lat="44.39668" lon="6.16988">
        <ele>1017.2121582</ele>
        <time>2015-07-14T05:39:19Z</time>
      </trkpt>
      <trkpt lat="44.39651" lon="6.16992">
        <ele>1014.328125</ele>
        <time>2015-07-14T05:39:21Z</time>
      </trkpt>
      <trkpt lat="44.39616" lon="6.16988">
        <ele>1013.8474121</ele>
        <time>2015-07-14T05:39:25Z</time>
      </trkpt>
      <trkpt lat="44.39594" lon="6.1699">
        <ele>1011.9250488</ele>
        <time>2015-07-14T05:39:28Z</time>
      </trkpt>
      <trkpt lat="44.39523" lon="6.17018">
        <ele>1011.4443359</ele>
        <time>2015-07-14T05:39:42Z</time>
      </trkpt>
      <trkpt lat="44.39493" lon="6.17033">
        <ele>1012.4055176</ele>
        <time>2015-07-14T05:39:56Z</time>
      </trkpt>
      <trkpt lat="44.39464" lon="6.17054">
        <ele>1013.8474121</ele>
        <time>2015-07-14T05:40:14Z</time>
      </trkpt>
      <trkpt lat="44.39446" lon="6.17068">
        <ele>1015.2895508</ele>
        <time>2015-07-14T05:40:32Z</time>
      </trkpt>
      <trkpt lat="44.39415" lon="6.17094">
        <ele>1018.1733398</ele>
        <time>2015-07-14T05:41:01Z</time>
      </trkpt>
      <trkpt lat="44.39386" lon="6.17114">
        <ele>1021.5380859</ele>
        <time>2015-07-14T05:41:28Z</time>
      </trkpt>
      <trkpt lat="44.39372" lon="6.17105">
        <ele>1022.9802246</ele>
        <time>2015-07-14T05:41:45Z</time>
      </trkpt>
      <trkpt lat="44.39374" lon="6.17108">
        <ele>1022.9802246</ele>
        <time>2015-07-14T05:41:56Z</time>
      </trkpt>
      <trkpt lat="44.39374" lon="6.17105">
        <ele>1022.4995117</ele>
        <time>2015-07-14T05:45:16Z</time>
      </trkpt>
      <trkpt lat="44.39368" lon="6.17094">
        <ele>1023.4609375</ele>
        <time>2015-07-14T05:45:28Z</time>
      </trkpt>
      <trkpt lat="44.39356" lon="6.17051">
        <ele>1026.8254395</ele>
        <time>2015-07-14T05:45:52Z</time>
      </trkpt>
      <trkpt lat="44.39333" lon="6.17015">
        <ele>1029.7092285</ele>
        <time>2015-07-14T05:46:21Z</time>
      </trkpt>
      <trkpt lat="44.39327" lon="6.17002">
        <ele>1030.6706543</ele>
        <time>2015-07-14T05:46:31Z</time>
      </trkpt>
      <trkpt lat="44.39327" lon="6.16974">
        <ele>1033.0737305</ele>
        <time>2015-07-14T05:46:48Z</time>
      </trkpt>
      <trkpt lat="44.39341" lon="6.16924">
        <ele>1034.996582</ele>
        <time>2015-07-14T05:47:18Z</time>
      </trkpt>
      <trkpt lat="44.39349" lon="6.16867">
        <ele>1036.4387207</ele>
        <time>2015-07-14T05:47:48Z</time>
      </trkpt>
      <trkpt lat="44.39347" lon="6.16823">
        <ele>1038.842041</ele>
        <time>2015-07-14T05:48:12Z</time>
      </trkpt>
      <trkpt lat="44.39351" lon="6.16786">
        <ele>1041.7258301</ele>
        <time>2015-07-14T05:48:34Z</time>
      </trkpt>
      <trkpt lat="44.3935" lon="6.16768">
        <ele>1043.1677246</ele>
        <time>2015-07-14T05:48:43Z</time>
      </trkpt>
      <trkpt lat="44.39331" lon="6.16734">
        <ele>1046.0517578</ele>
        <time>2015-07-14T05:49:07Z</time>
      </trkpt>
      <trkpt lat="44.39305" lon="6.16697">
        <ele>1048.9355469</ele>
        <time>2015-07-14T05:49:37Z</time>
      </trkpt>
      <trkpt lat="44.39274" lon="6.16685">
        <ele>1052.300293</ele>
        <time>2015-07-14T05:50:02Z</time>
      </trkpt>
      <trkpt lat="44.39259" lon="6.1666">
        <ele>1054.7036133</ele>
        <time>2015-07-14T05:50:24Z</time>
      </trkpt>
      <trkpt lat="44.39258" lon="6.16612">
        <ele>1058.0683594</ele>
        <time>2015-07-14T05:50:51Z</time>
      </trkpt>
      <trkpt lat="44.39261" lon="6.16567">
        <ele>1060.4714355</ele>
        <time>2015-07-14T05:51:15Z</time>
      </trkpt>
      <trkpt lat="44.39279" lon="6.16523">
        <ele>1062.8747559</ele>
        <time>2015-07-14T05:51:43Z</time>
      </trkpt>
      <trkpt lat="44.39287" lon="6.16498">
        <ele>1064.3166504</ele>
        <time>2015-07-14T05:51:58Z</time>
      </trkpt>
      <trkpt lat="44.39268" lon="6.16492">
        <ele>1066.2392578</ele>
        <time>2015-07-14T05:52:15Z</time>
      </trkpt>
      <trkpt lat="44.39247" lon="6.16514">
        <ele>1068.1621094</ele>
        <time>2015-07-14T05:52:35Z</time>
      </trkpt>
      <trkpt lat="44.39218" lon="6.16543">
        <ele>1070.0847168</ele>
        <time>2015-07-14T05:53:03Z</time>
      </trkpt>
      <trkpt lat="44.39185" lon="6.16554">
        <ele>1073.4494629</ele>
        <time>2015-07-14T05:53:31Z</time>
      </trkpt>
      <trkpt lat="44.39174" lon="6.16515">
        <ele>1076.333252</ele>
        <time>2015-07-14T05:53:55Z</time>
      </trkpt>
      <trkpt lat="44.39168" lon="6.16465">
        <ele>1078.7365723</ele>
        <time>2015-07-14T05:54:23Z</time>
      </trkpt>
      <trkpt lat="44.39149" lon="6.16448">
        <ele>1081.1398926</ele>
        <time>2015-07-14T05:54:42Z</time>
      </trkpt>
      <trkpt lat="44.39117" lon="6.16446">
        <ele>1084.0239258</ele>
        <time>2015-07-14T05:55:07Z</time>
      </trkpt>
      <trkpt lat="44.39083" lon="6.16426">
        <ele>1085.4658203</ele>
        <time>2015-07-14T05:55:33Z</time>
      </trkpt>
      <trkpt lat="44.39041" lon="6.16397">
        <ele>1086.4272461</ele>
        <time>2015-07-14T05:56:01Z</time>
      </trkpt>
      <trkpt lat="44.38999" lon="6.16377">
        <ele>1086.9077148</ele>
        <time>2015-07-14T05:56:27Z</time>
      </trkpt>
      <trkpt lat="44.38966" lon="6.16364">
        <ele>1088.3498535</ele>
        <time>2015-07-14T05:56:49Z</time>
      </trkpt>
      <trkpt lat="44.38934" lon="6.1635">
        <ele>1090.7529297</ele>
        <time>2015-07-14T05:57:12Z</time>
      </trkpt>
      <trkpt lat="44.38893" lon="6.16341">
        <ele>1093.15625</ele>
        <time>2015-07-14T05:57:41Z</time>
      </trkpt>
      <trkpt lat="44.38861" lon="6.16328">
        <ele>1095.0788574</ele>
        <time>2015-07-14T05:58:05Z</time>
      </trkpt>
      <trkpt lat="44.3883" lon="6.16301">
        <ele>1097.0014648</ele>
        <time>2015-07-14T05:58:30Z</time>
      </trkpt>
      <trkpt lat="44.388" lon="6.16273">
        <ele>1099.4047852</ele>
        <time>2015-07-14T05:58:56Z</time>
      </trkpt>
      <trkpt lat="44.38765" lon="6.16254">
        <ele>1102.2888184</ele>
        <time>2015-07-14T05:59:22Z</time>
      </trkpt>
      <trkpt lat="44.38736" lon="6.1625">
        <ele>1105.1728516</ele>
        <time>2015-07-14T05:59:45Z</time>
      </trkpt>
      <trkpt lat="44.38704" lon="6.16256">
        <ele>1108.0568848</ele>
        <time>2015-07-14T06:00:10Z</time>
      </trkpt>
      <trkpt lat="44.38666" lon="6.16242">
        <ele>1110.4599609</ele>
        <time>2015-07-14T06:00:37Z</time>
      </trkpt>
      <trkpt lat="44.38637" lon="6.16219">
        <ele>1112.3825684</ele>
        <time>2015-07-14T06:00:59Z</time>
      </trkpt>
      <trkpt lat="44.38602" lon="6.16212">
        <ele>1114.7858887</ele>
        <time>2015-07-14T06:01:23Z</time>
      </trkpt>
      <trkpt lat="44.38566" lon="6.16222">
        <ele>1114.7858887</ele>
        <time>2015-07-14T06:01:43Z</time>
      </trkpt>
      <trkpt lat="44.38527" lon="6.16226">
        <ele>1114.7858887</ele>
        <time>2015-07-14T06:02:02Z</time>
      </trkpt>
      <trkpt lat="44.38486" lon="6.1623">
        <ele>1114.7858887</ele>
        <time>2015-07-14T06:02:21Z</time>
      </trkpt>
      <trkpt lat="44.38444" lon="6.1623">
        <ele>1115.2666016</ele>
        <time>2015-07-14T06:02:46Z</time>
      </trkpt>
      <trkpt lat="44.38412" lon="6.16242">
        <ele>1116.7087402</ele>
        <time>2015-07-14T06:03:09Z</time>
      </trkpt>
      <trkpt lat="44.38382" lon="6.16244">
        <ele>1118.1506348</ele>
        <time>2015-07-14T06:03:29Z</time>
      </trkpt>
      <trkpt lat="44.38348" lon="6.16264">
        <ele>1121.034668</ele>
        <time>2015-07-14T06:03:57Z</time>
      </trkpt>
      <trkpt lat="44.38323" lon="6.1629">
        <ele>1123.918457</ele>
        <time>2015-07-14T06:04:21Z</time>
      </trkpt>
      <trkpt lat="44.38309" lon="6.16306">
        <ele>1125.3603516</ele>
        <time>2015-07-14T06:04:36Z</time>
      </trkpt>
      <trkpt lat="44.38285" lon="6.16344">
        <ele>1128.7250977</ele>
        <time>2015-07-14T06:05:05Z</time>
      </trkpt>
      <trkpt lat="44.3826" lon="6.16375">
        <ele>1131.128418</ele>
        <time>2015-07-14T06:05:32Z</time>
      </trkpt>
      <trkpt lat="44.38232" lon="6.16393">
        <ele>1133.5317383</ele>
        <time>2015-07-14T06:05:56Z</time>
      </trkpt>
      <trkpt lat="44.38202" lon="6.16411">
        <ele>1135.4543457</ele>
        <time>2015-07-14T06:06:20Z</time>
      </trkpt>
      <trkpt lat="44.38178" lon="6.16424">
        <ele>1137.857666</ele>
        <time>2015-07-14T06:06:40Z</time>
      </trkpt>
      <trkpt lat="44.38152" lon="6.1645">
        <ele>1138.8190918</ele>
        <time>2015-07-14T06:07:04Z</time>
      </trkpt>
      <trkpt lat="44.3812" lon="6.16449">
        <ele>1140.2609863</ele>
        <time>2015-07-14T06:07:26Z</time>
      </trkpt>
      <trkpt lat="44.38119" lon="6.16448">
        <ele>1140.2609863</ele>
        <time>2015-07-14T06:07:27Z</time>
      </trkpt>
      <trkpt lat="44.38083" lon="6.16432">
        <ele>1142.1835938</ele>
        <time>2015-07-14T06:07:51Z</time>
      </trkpt>
      <trkpt lat="44.38052" lon="6.16421">
        <ele>1142.6643066</ele>
        <time>2015-07-14T06:08:12Z</time>
      </trkpt>
      <trkpt lat="44.38024" lon="6.164">
        <ele>1143.6254883</ele>
        <time>2015-07-14T06:08:35Z</time>
      </trkpt>
      <trkpt lat="44.37995" lon="6.16372">
        <ele>1145.5480957</ele>
        <time>2015-07-14T06:08:59Z</time>
      </trkpt>
      <trkpt lat="44.37984" lon="6.16342">
        <ele>1146.9899902</ele>
        <time>2015-07-14T06:09:17Z</time>
      </trkpt>
      <trkpt lat="44.37984" lon="6.16338">
        <ele>1146.9899902</ele>
        <time>2015-07-14T06:09:19Z</time>
      </trkpt>
      <trkpt lat="44.37995" lon="6.16296">
        <ele>1149.8742676</ele>
        <time>2015-07-14T06:09:43Z</time>
      </trkpt>
      <trkpt lat="44.37995" lon="6.16293">
        <ele>1150.3549805</ele>
        <time>2015-07-14T06:09:45Z</time>
      </trkpt>
      <trkpt lat="44.37994" lon="6.16281">
        <ele>1151.3161621</ele>
        <time>2015-07-14T06:09:52Z</time>
      </trkpt>
      <trkpt lat="44.37971" lon="6.16273">
        <ele>1154.2001953</ele>
        <time>2015-07-14T06:10:13Z</time>
      </trkpt>
      <trkpt lat="44.37959" lon="6.16283">
        <ele>1155.161377</ele>
        <time>2015-07-14T06:10:24Z</time>
      </trkpt>
      <trkpt lat="44.37936" lon="6.16304">
        <ele>1158.0454102</ele>
        <time>2015-07-14T06:10:49Z</time>
      </trkpt>
      <trkpt lat="44.37907" lon="6.16306">
        <ele>1160.9291992</ele>
        <time>2015-07-14T06:11:13Z</time>
      </trkpt>
      <trkpt lat="44.37877" lon="6.16306">
        <ele>1162.8518066</ele>
        <time>2015-07-14T06:11:36Z</time>
      </trkpt>
      <trkpt lat="44.37843" lon="6.16307">
        <ele>1165.736084</ele>
        <time>2015-07-14T06:12:01Z</time>
      </trkpt>
      <trkpt lat="44.37809" lon="6.1631">
        <ele>1167.6584473</ele>
        <time>2015-07-14T06:12:27Z</time>
      </trkpt>
      <trkpt lat="44.37776" lon="6.16311">
        <ele>1170.5424805</ele>
        <time>2015-07-14T06:12:52Z</time>
      </trkpt>
      <trkpt lat="44.37747" lon="6.16316">
        <ele>1172.4650879</ele>
        <time>2015-07-14T06:13:14Z</time>
      </trkpt>
      <trkpt lat="44.37712" lon="6.16311">
        <ele>1174.3876953</ele>
        <time>2015-07-14T06:13:39Z</time>
      </trkpt>
      <trkpt lat="44.37678" lon="6.1631">
        <ele>1176.7910156</ele>
        <time>2015-07-14T06:14:05Z</time>
      </trkpt>
      <trkpt lat="44.37661" lon="6.1632">
        <ele>1178.2329102</ele>
        <time>2015-07-14T06:14:19Z</time>
      </trkpt>
      <trkpt lat="44.37624" lon="6.16328">
        <ele>1180.6364746</ele>
        <time>2015-07-14T06:14:47Z</time>
      </trkpt>
      <trkpt lat="44.37617" lon="6.1633">
        <ele>1181.1171875</ele>
        <time>2015-07-14T06:14:52Z</time>
      </trkpt>
      <trkpt lat="44.37612" lon="6.16334">
        <ele>1181.5976563</ele>
        <time>2015-07-14T06:14:56Z</time>
      </trkpt>
      <trkpt lat="44.37572" lon="6.16361">
        <ele>1184.0009766</ele>
        <time>2015-07-14T06:15:26Z</time>
      </trkpt>
      <trkpt lat="44.37546" lon="6.16374">
        <ele>1185.4428711</ele>
        <time>2015-07-14T06:15:45Z</time>
      </trkpt>
      <trkpt lat="44.37522" lon="6.16392">
        <ele>1187.3654785</ele>
        <time>2015-07-14T06:16:04Z</time>
      </trkpt>
      <trkpt lat="44.37487" lon="6.1641">
        <ele>1188.8076172</ele>
        <time>2015-07-14T06:16:28Z</time>
      </trkpt>
      <trkpt lat="44.37462" lon="6.1642">
        <ele>1188.8076172</ele>
        <time>2015-07-14T06:16:43Z</time>
      </trkpt>
      <trkpt lat="44.37422" lon="6.16434">
        <ele>1188.3269043</ele>
        <time>2015-07-14T06:16:57Z</time>
      </trkpt>
      <trkpt lat="44.37349" lon="6.16467">
        <ele>1186.8847656</ele>
        <time>2015-07-14T06:17:10Z</time>
      </trkpt>
      <trkpt lat="44.37323" lon="6.16479">
        <ele>1185.923584</ele>
        <time>2015-07-14T06:17:15Z</time>
      </trkpt>
      <trkpt lat="44.37252" lon="6.16511">
        <ele>1184.9624023</ele>
        <time>2015-07-14T06:17:30Z</time>
      </trkpt>
      <trkpt lat="44.37184" lon="6.16574">
        <ele>1182.0783691</ele>
        <time>2015-07-14T06:17:42Z</time>
      </trkpt>
      <trkpt lat="44.37125" lon="6.16618">
        <ele>1179.6748047</ele>
        <time>2015-07-14T06:17:52Z</time>
      </trkpt>
      <trkpt lat="44.37113" lon="6.16665">
        <ele>1178.713623</ele>
        <time>2015-07-14T06:17:58Z</time>
      </trkpt>
      <trkpt lat="44.37119" lon="6.16702">
        <ele>1177.2717285</ele>
        <time>2015-07-14T06:18:02Z</time>
      </trkpt>
      <trkpt lat="44.37102" lon="6.16743">
        <ele>1173.9069824</ele>
        <time>2015-07-14T06:18:10Z</time>
      </trkpt>
      <trkpt lat="44.37096" lon="6.16743">
        <ele>1173.9069824</ele>
        <time>2015-07-14T06:18:11Z</time>
      </trkpt>
      <trkpt lat="44.37084" lon="6.1674">
        <ele>1173.4265137</ele>
        <time>2015-07-14T06:18:13Z</time>
      </trkpt>
      <trkpt lat="44.37061" lon="6.16745">
        <ele>1171.984375</ele>
        <time>2015-07-14T06:18:16Z</time>
      </trkpt>
      <trkpt lat="44.37006" lon="6.16773">
        <ele>1167.1779785</ele>
        <time>2015-07-14T06:18:22Z</time>
      </trkpt>
      <trkpt lat="44.36998" lon="6.16777">
        <ele>1167.1779785</ele>
        <time>2015-07-14T06:18:23Z</time>
      </trkpt>
      <trkpt lat="44.36964" lon="6.16795">
        <ele>1165.736084</ele>
        <time>2015-07-14T06:18:27Z</time>
      </trkpt>
      <trkpt lat="44.36942" lon="6.16815">
        <ele>1163.8129883</ele>
        <time>2015-07-14T06:18:30Z</time>
      </trkpt>
      <trkpt lat="44.36919" lon="6.16848">
        <ele>1161.890625</ele>
        <time>2015-07-14T06:18:34Z</time>
      </trkpt>
      <trkpt lat="44.36912" lon="6.16856">
        <ele>1160.9291992</ele>
        <time>2015-07-14T06:18:35Z</time>
      </trkpt>
      <trkpt lat="44.36899" lon="6.1687">
        <ele>1159.9677734</ele>
        <time>2015-07-14T06:18:37Z</time>
      </trkpt>
      <trkpt lat="44.36867" lon="6.16892">
        <ele>1158.0454102</ele>
        <time>2015-07-14T06:18:43Z</time>
      </trkpt>
      <trkpt lat="44.36821" lon="6.16915">
        <ele>1154.6806641</ele>
        <time>2015-07-14T06:18:52Z</time>
      </trkpt>
      <trkpt lat="44.36814" lon="6.16918">
        <ele>1154.6806641</ele>
        <time>2015-07-14T06:18:53Z</time>
      </trkpt>
      <trkpt lat="44.36762" lon="6.16941">
        <ele>1151.796875</ele>
        <time>2015-07-14T06:19:00Z</time>
      </trkpt>
      <trkpt lat="44.36731" lon="6.16953">
        <ele>1150.3549805</ele>
        <time>2015-07-14T06:19:04Z</time>
      </trkpt>
      <trkpt lat="44.36708" lon="6.16959">
        <ele>1148.4321289</ele>
        <time>2015-07-14T06:19:07Z</time>
      </trkpt>
      <trkpt lat="44.3668" lon="6.16977">
        <ele>1146.9899902</ele>
        <time>2015-07-14T06:19:11Z</time>
      </trkpt>
      <trkpt lat="44.3666" lon="6.17001">
        <ele>1145.5480957</ele>
        <time>2015-07-14T06:19:14Z</time>
      </trkpt>
      <trkpt lat="44.36649" lon="6.17016">
        <ele>1144.1062012</ele>
        <time>2015-07-14T06:19:16Z</time>
      </trkpt>
      <trkpt lat="44.36613" lon="6.17043">
        <ele>1142.1835938</ele>
        <time>2015-07-14T06:19:21Z</time>
      </trkpt>
      <trkpt lat="44.36559" lon="6.17071">
        <ele>1137.3769531</ele>
        <time>2015-07-14T06:19:27Z</time>
      </trkpt>
      <trkpt lat="44.3655" lon="6.17076">
        <ele>1137.3769531</ele>
        <time>2015-07-14T06:19:28Z</time>
      </trkpt>
      <trkpt lat="44.36533" lon="6.17086">
        <ele>1136.4157715</ele>
        <time>2015-07-14T06:19:30Z</time>
      </trkpt>
      <trkpt lat="44.36514" lon="6.17092">
        <ele>1134.973877</ele>
        <time>2015-07-14T06:19:32Z</time>
      </trkpt>
      <trkpt lat="44.36486" lon="6.171">
        <ele>1131.6088867</ele>
        <time>2015-07-14T06:19:35Z</time>
      </trkpt>
      <trkpt lat="44.3645" lon="6.17105">
        <ele>1129.6862793</ele>
        <time>2015-07-14T06:19:39Z</time>
      </trkpt>
      <trkpt lat="44.36395" lon="6.17095">
        <ele>1126.8024902</ele>
        <time>2015-07-14T06:19:45Z</time>
      </trkpt>
      <trkpt lat="44.36353" lon="6.17083">
        <ele>1124.8798828</ele>
        <time>2015-07-14T06:19:50Z</time>
      </trkpt>
      <trkpt lat="44.36311" lon="6.17078">
        <ele>1121.9958496</ele>
        <time>2015-07-14T06:19:55Z</time>
      </trkpt>
      <trkpt lat="44.36289" lon="6.17066">
        <ele>1119.5927734</ele>
        <time>2015-07-14T06:19:58Z</time>
      </trkpt>
      <trkpt lat="44.36282" lon="6.1706">
        <ele>1119.1120605</ele>
        <time>2015-07-14T06:19:59Z</time>
      </trkpt>
      <trkpt lat="44.3625" lon="6.17025">
        <ele>1115.2666016</ele>
        <time>2015-07-14T06:20:04Z</time>
      </trkpt>
      <trkpt lat="44.36244" lon="6.17017">
        <ele>1115.2666016</ele>
        <time>2015-07-14T06:20:05Z</time>
      </trkpt>
      <trkpt lat="44.36239" lon="6.17009">
        <ele>1114.7858887</ele>
        <time>2015-07-14T06:20:06Z</time>
      </trkpt>
      <trkpt lat="44.36218" lon="6.16989">
        <ele>1113.3439941</ele>
        <time>2015-07-14T06:20:09Z</time>
      </trkpt>
      <trkpt lat="44.36195" lon="6.16978">
        <ele>1111.4213867</ele>
        <time>2015-07-14T06:20:12Z</time>
      </trkpt>
      <trkpt lat="44.3618" lon="6.16976">
        <ele>1109.4987793</ele>
        <time>2015-07-14T06:20:14Z</time>
      </trkpt>
      <trkpt lat="44.36157" lon="6.16973">
        <ele>1107.5761719</ele>
        <time>2015-07-14T06:20:17Z</time>
      </trkpt>
      <trkpt lat="44.36127" lon="6.16957">
        <ele>1105.1728516</ele>
        <time>2015-07-14T06:20:21Z</time>
      </trkpt>
      <trkpt lat="44.36096" lon="6.16949">
        <ele>1103.730957</ele>
        <time>2015-07-14T06:20:25Z</time>
      </trkpt>
      <trkpt lat="44.36074" lon="6.16938">
        <ele>1100.3664551</ele>
        <time>2015-07-14T06:20:28Z</time>
      </trkpt>
      <trkpt lat="44.36059" lon="6.16931">
        <ele>1099.4047852</ele>
        <time>2015-07-14T06:20:30Z</time>
      </trkpt>
      <trkpt lat="44.36046" lon="6.16928">
        <ele>1097.9628906</ele>
        <time>2015-07-14T06:20:32Z</time>
      </trkpt>
      <trkpt lat="44.36039" lon="6.16925">
        <ele>1096.0402832</ele>
        <time>2015-07-14T06:20:33Z</time>
      </trkpt>
      <trkpt lat="44.36024" lon="6.16916">
        <ele>1095.5595703</ele>
        <time>2015-07-14T06:20:35Z</time>
      </trkpt>
      <trkpt lat="44.36008" lon="6.16904">
        <ele>1094.1176758</ele>
        <time>2015-07-14T06:20:37Z</time>
      </trkpt>
      <trkpt lat="44.35967" lon="6.16885">
        <ele>1090.2724609</ele>
        <time>2015-07-14T06:20:42Z</time>
      </trkpt>
      <trkpt lat="44.35942" lon="6.1687">
        <ele>1088.8305664</ele>
        <time>2015-07-14T06:20:46Z</time>
      </trkpt>
      <trkpt lat="44.35924" lon="6.16866">
        <ele>1085.9465332</ele>
        <time>2015-07-14T06:20:49Z</time>
      </trkpt>
      <trkpt lat="44.35912" lon="6.16872">
        <ele>1084.9853516</ele>
        <time>2015-07-14T06:20:51Z</time>
      </trkpt>
      <trkpt lat="44.359" lon="6.1688">
        <ele>1084.0239258</ele>
        <time>2015-07-14T06:20:53Z</time>
      </trkpt>
      <trkpt lat="44.35887" lon="6.16894">
        <ele>1081.1398926</ele>
        <time>2015-07-14T06:20:56Z</time>
      </trkpt>
      <trkpt lat="44.35881" lon="6.169">
        <ele>1080.1784668</ele>
        <time>2015-07-14T06:20:58Z</time>
      </trkpt>
      <trkpt lat="44.35872" lon="6.16874">
        <ele>1078.2558594</ele>
        <time>2015-07-14T06:21:04Z</time>
      </trkpt>
      <trkpt lat="44.35874" lon="6.1685">
        <ele>1077.7751465</ele>
        <time>2015-07-14T06:21:07Z</time>
      </trkpt>
      <trkpt lat="44.35874" lon="6.16836">
        <ele>1076.333252</ele>
        <time>2015-07-14T06:21:09Z</time>
      </trkpt>
      <trkpt lat="44.35862" lon="6.1682">
        <ele>1075.8525391</ele>
        <time>2015-07-14T06:21:12Z</time>
      </trkpt>
      <trkpt lat="44.35843" lon="6.16785">
        <ele>1072.0073242</ele>
        <time>2015-07-14T06:21:18Z</time>
      </trkpt>
      <trkpt lat="44.35842" lon="6.16749">
        <ele>1070.0847168</ele>
        <time>2015-07-14T06:21:23Z</time>
      </trkpt>
      <trkpt lat="44.35844" lon="6.16731">
        <ele>1068.6428223</ele>
        <time>2015-07-14T06:21:25Z</time>
      </trkpt>
      <trkpt lat="44.3584" lon="6.16697">
        <ele>1066.7199707</ele>
        <time>2015-07-14T06:21:29Z</time>
      </trkpt>
      <trkpt lat="44.35821" lon="6.16671">
        <ele>1064.7973633</ele>
        <time>2015-07-14T06:21:33Z</time>
      </trkpt>
      <trkpt lat="44.35809" lon="6.16665">
        <ele>1063.8359375</ele>
        <time>2015-07-14T06:21:35Z</time>
      </trkpt>
      <trkpt lat="44.35799" lon="6.16661">
        <ele>1062.394043</ele>
        <time>2015-07-14T06:21:37Z</time>
      </trkpt>
      <trkpt lat="44.35791" lon="6.16658">
        <ele>1060.9521484</ele>
        <time>2015-07-14T06:21:39Z</time>
      </trkpt>
      <trkpt lat="44.35788" lon="6.16656">
        <ele>1059.9907227</ele>
        <time>2015-07-14T06:21:40Z</time>
      </trkpt>
      <trkpt lat="44.35785" lon="6.16665">
        <ele>1058.5488281</ele>
        <time>2015-07-14T06:21:45Z</time>
      </trkpt>
      <trkpt lat="44.35799" lon="6.16671">
        <ele>1057.5876465</ele>
        <time>2015-07-14T06:21:48Z</time>
      </trkpt>
      <trkpt lat="44.35826" lon="6.16707">
        <ele>1055.1843262</ele>
        <time>2015-07-14T06:21:53Z</time>
      </trkpt>
      <trkpt lat="44.35829" lon="6.16726">
        <ele>1054.7036133</ele>
        <time>2015-07-14T06:21:55Z</time>
      </trkpt>
      <trkpt lat="44.35829" lon="6.16744">
        <ele>1054.2231445</ele>
        <time>2015-07-14T06:21:57Z</time>
      </trkpt>
      <trkpt lat="44.35831" lon="6.16764">
        <ele>1053.2617188</ele>
        <time>2015-07-14T06:22:00Z</time>
      </trkpt>
      <trkpt lat="44.35833" lon="6.16772">
        <ele>1050.8581543</ele>
        <time>2015-07-14T06:22:02Z</time>
      </trkpt>
      <trkpt lat="44.3582" lon="6.16759">
        <ele>1048.9355469</ele>
        <time>2015-07-14T06:22:09Z</time>
      </trkpt>
      <trkpt lat="44.35813" lon="6.16726">
        <ele>1047.0129395</ele>
        <time>2015-07-14T06:22:13Z</time>
      </trkpt>
      <trkpt lat="44.358" lon="6.16698">
        <ele>1045.090332</ele>
        <time>2015-07-14T06:22:17Z</time>
      </trkpt>
      <trkpt lat="44.35796" lon="6.16694">
        <ele>1044.1291504</ele>
        <time>2015-07-14T06:22:18Z</time>
      </trkpt>
      <trkpt lat="44.35781" lon="6.16679">
        <ele>1043.1677246</ele>
        <time>2015-07-14T06:22:23Z</time>
      </trkpt>
      <trkpt lat="44.35776" lon="6.16686">
        <ele>1041.7258301</ele>
        <time>2015-07-14T06:22:26Z</time>
      </trkpt>
      <trkpt lat="44.35786" lon="6.167">
        <ele>1040.7644043</ele>
        <time>2015-07-14T06:22:29Z</time>
      </trkpt>
      <trkpt lat="44.35799" lon="6.16723">
        <ele>1038.842041</ele>
        <time>2015-07-14T06:22:32Z</time>
      </trkpt>
      <trkpt lat="44.35804" lon="6.16758">
        <ele>1037.3999023</ele>
        <time>2015-07-14T06:22:37Z</time>
      </trkpt>
      <trkpt lat="44.35801" lon="6.16765">
        <ele>1035.4770508</ele>
        <time>2015-07-14T06:22:40Z</time>
      </trkpt>
      <trkpt lat="44.35793" lon="6.16746">
        <ele>1034.5158691</ele>
        <time>2015-07-14T06:22:45Z</time>
      </trkpt>
      <trkpt lat="44.35769" lon="6.16709">
        <ele>1033.0737305</ele>
        <time>2015-07-14T06:22:51Z</time>
      </trkpt>
      <trkpt lat="44.35753" lon="6.16701">
        <ele>1031.1513672</ele>
        <time>2015-07-14T06:22:54Z</time>
      </trkpt>
      <trkpt lat="44.35741" lon="6.167">
        <ele>1031.1513672</ele>
        <time>2015-07-14T06:22:56Z</time>
      </trkpt>
      <trkpt lat="44.35729" lon="6.16698">
        <ele>1029.2285156</ele>
        <time>2015-07-14T06:22:58Z</time>
      </trkpt>
      <trkpt lat="44.35711" lon="6.16687">
        <ele>1027.3061523</ele>
        <time>2015-07-14T06:23:01Z</time>
      </trkpt>
      <trkpt lat="44.35705" lon="6.16684">
        <ele>1026.3447266</ele>
        <time>2015-07-14T06:23:02Z</time>
      </trkpt>
      <trkpt lat="44.3567" lon="6.16703">
        <ele>1024.4221191</ele>
        <time>2015-07-14T06:23:07Z</time>
      </trkpt>
      <trkpt lat="44.35641" lon="6.16732">
        <ele>1021.0576172</ele>
        <time>2015-07-14T06:23:11Z</time>
      </trkpt>
      <trkpt lat="44.35629" lon="6.16743">
        <ele>1018.1733398</ele>
        <time>2015-07-14T06:23:13Z</time>
      </trkpt>
      <trkpt lat="44.35613" lon="6.16751">
        <ele>1014.8088379</ele>
        <time>2015-07-14T06:23:16Z</time>
      </trkpt>
      <trkpt lat="44.35607" lon="6.16751">
        <ele>1014.8088379</ele>
        <time>2015-07-14T06:23:17Z</time>
      </trkpt>
      <trkpt lat="44.35601" lon="6.16751">
        <ele>1014.8088379</ele>
        <time>2015-07-14T06:23:18Z</time>
      </trkpt>
      <trkpt lat="44.35558" lon="6.16762">
        <ele>1012.8862305</ele>
        <time>2015-07-14T06:23:24Z</time>
      </trkpt>
      <trkpt lat="44.35511" lon="6.16773">
        <ele>1009.5217285</ele>
        <time>2015-07-14T06:23:29Z</time>
      </trkpt>
      <trkpt lat="44.35494" lon="6.16776">
        <ele>1007.1184082</ele>
        <time>2015-07-14T06:23:31Z</time>
      </trkpt>
      <trkpt lat="44.35486" lon="6.16777">
        <ele>1006.1569824</ele>
        <time>2015-07-14T06:23:32Z</time>
      </trkpt>
      <trkpt lat="44.35464" lon="6.16775">
        <ele>1004.7150879</ele>
        <time>2015-07-14T06:23:35Z</time>
      </trkpt>
      <trkpt lat="44.35453" lon="6.16773">
        <ele>1002.3115234</ele>
        <time>2015-07-14T06:23:37Z</time>
      </trkpt>
      <trkpt lat="44.35441" lon="6.16779">
        <ele>1000.8696289</ele>
        <time>2015-07-14T06:23:40Z</time>
      </trkpt>
      <trkpt lat="44.35451" lon="6.16797">
        <ele>998.9470215</ele>
        <time>2015-07-14T06:23:46Z</time>
      </trkpt>
      <trkpt lat="44.35467" lon="6.16835">
        <ele>996.0632324</ele>
        <time>2015-07-14T06:23:54Z</time>
      </trkpt>
      <trkpt lat="44.35457" lon="6.16847">
        <ele>995.1018066</ele>
        <time>2015-07-14T06:23:56Z</time>
      </trkpt>
      <trkpt lat="44.35419" lon="6.16876">
        <ele>993.1791992</ele>
        <time>2015-07-14T06:24:01Z</time>
      </trkpt>
      <trkpt lat="44.35382" lon="6.16902">
        <ele>990.7758789</ele>
        <time>2015-07-14T06:24:05Z</time>
      </trkpt>
      <trkpt lat="44.35351" lon="6.16917">
        <ele>987.4111328</ele>
        <time>2015-07-14T06:24:08Z</time>
      </trkpt>
      <trkpt lat="44.35331" lon="6.16924">
        <ele>985.9692383</ele>
        <time>2015-07-14T06:24:10Z</time>
      </trkpt>
      <trkpt lat="44.3531" lon="6.16931">
        <ele>984.0466309</ele>
        <time>2015-07-14T06:24:12Z</time>
      </trkpt>
      <trkpt lat="44.35277" lon="6.1694">
        <ele>982.1240234</ele>
        <time>2015-07-14T06:24:15Z</time>
      </trkpt>
      <trkpt lat="44.35257" lon="6.16947">
        <ele>979.2399902</ele>
        <time>2015-07-14T06:24:17Z</time>
      </trkpt>
      <trkpt lat="44.35239" lon="6.16957">
        <ele>977.7980957</ele>
        <time>2015-07-14T06:24:19Z</time>
      </trkpt>
      <trkpt lat="44.35213" lon="6.16982">
        <ele>975.3947754</ele>
        <time>2015-07-14T06:24:22Z</time>
      </trkpt>
      <trkpt lat="44.35195" lon="6.17">
        <ele>973.9528809</ele>
        <time>2015-07-14T06:24:24Z</time>
      </trkpt>
      <trkpt lat="44.35178" lon="6.17016">
        <ele>972.5109863</ele>
        <time>2015-07-14T06:24:26Z</time>
      </trkpt>
      <trkpt lat="44.35151" lon="6.17038">
        <ele>969.6269531</ele>
        <time>2015-07-14T06:24:29Z</time>
      </trkpt>
      <trkpt lat="44.35078" lon="6.17087">
        <ele>966.262207</ele>
        <time>2015-07-14T06:24:36Z</time>
      </trkpt>
      <trkpt lat="44.35056" lon="6.17101">
        <ele>964.8203125</ele>
        <time>2015-07-14T06:24:38Z</time>
      </trkpt>
      <trkpt lat="44.35011" lon="6.17134">
        <ele>962.4169922</ele>
        <time>2015-07-14T06:24:42Z</time>
      </trkpt>
      <trkpt lat="44.34989" lon="6.17151">
        <ele>959.0524902</ele>
        <time>2015-07-14T06:24:44Z</time>
      </trkpt>
      <trkpt lat="44.34977" lon="6.17159">
        <ele>959.0524902</ele>
        <time>2015-07-14T06:24:45Z</time>
      </trkpt>
      <trkpt lat="44.34956" lon="6.17171">
        <ele>957.1298828</ele>
        <time>2015-07-14T06:24:47Z</time>
      </trkpt>
      <trkpt lat="44.34911" lon="6.17191">
        <ele>953.7651367</ele>
        <time>2015-07-14T06:24:51Z</time>
      </trkpt>
      <trkpt lat="44.349" lon="6.17196">
        <ele>953.7651367</ele>
        <time>2015-07-14T06:24:52Z</time>
      </trkpt>
      <trkpt lat="44.34889" lon="6.172">
        <ele>951.3618164</ele>
        <time>2015-07-14T06:24:53Z</time>
      </trkpt>
      <trkpt lat="44.3482" lon="6.17208">
        <ele>948.4777832</ele>
        <time>2015-07-14T06:24:59Z</time>
      </trkpt>
      <trkpt lat="44.34795" lon="6.17213">
        <ele>946.5554199</ele>
        <time>2015-07-14T06:25:01Z</time>
      </trkpt>
      <trkpt lat="44.3477" lon="6.17221">
        <ele>945.1132813</ele>
        <time>2015-07-14T06:25:03Z</time>
      </trkpt>
      <trkpt lat="44.34731" lon="6.17232">
        <ele>942.7102051</ele>
        <time>2015-07-14T06:25:06Z</time>
      </trkpt>
      <trkpt lat="44.34681" lon="6.17251">
        <ele>940.3068848</ele>
        <time>2015-07-14T06:25:10Z</time>
      </trkpt>
      <trkpt lat="44.34659" lon="6.17264">
        <ele>937.4226074</ele>
        <time>2015-07-14T06:25:12Z</time>
      </trkpt>
      <trkpt lat="44.34627" lon="6.17287">
        <ele>935.9807129</ele>
        <time>2015-07-14T06:25:15Z</time>
      </trkpt>
      <trkpt lat="44.34605" lon="6.17303">
        <ele>934.5388184</ele>
        <time>2015-07-14T06:25:17Z</time>
      </trkpt>
      <trkpt lat="44.34573" lon="6.17326">
        <ele>931.1743164</ele>
        <time>2015-07-14T06:25:20Z</time>
      </trkpt>
      <trkpt lat="44.34556" lon="6.17338">
        <ele>930.2128906</ele>
        <time>2015-07-14T06:25:22Z</time>
      </trkpt>
      <trkpt lat="44.3454" lon="6.17348">
        <ele>928.2902832</ele>
        <time>2015-07-14T06:25:24Z</time>
      </trkpt>
      <trkpt lat="44.34534" lon="6.17352">
        <ele>926.8483887</ele>
        <time>2015-07-14T06:25:25Z</time>
      </trkpt>
      <trkpt lat="44.34505" lon="6.17352">
        <ele>925.40625</ele>
        <time>2015-07-14T06:25:29Z</time>
      </trkpt>
      <trkpt lat="44.34498" lon="6.17348">
        <ele>925.40625</ele>
        <time>2015-07-14T06:25:30Z</time>
      </trkpt>
      <trkpt lat="44.34484" lon="6.17342">
        <ele>925.40625</ele>
        <time>2015-07-14T06:25:32Z</time>
      </trkpt>
      <trkpt lat="44.3445" lon="6.17347">
        <ele>923.9641113</ele>
        <time>2015-07-14T06:25:36Z</time>
      </trkpt>
      <trkpt lat="44.34423" lon="6.17358">
        <ele>922.5222168</ele>
        <time>2015-07-14T06:25:39Z</time>
      </trkpt>
      <trkpt lat="44.34383" lon="6.17362">
        <ele>919.6384277</ele>
        <time>2015-07-14T06:25:43Z</time>
      </trkpt>
      <trkpt lat="44.34309" lon="6.17356">
        <ele>916.7543945</ele>
        <time>2015-07-14T06:25:50Z</time>
      </trkpt>
      <trkpt lat="44.343" lon="6.17355">
        <ele>914.8317871</ele>
        <time>2015-07-14T06:25:51Z</time>
      </trkpt>
      <trkpt lat="44.34245" lon="6.17369">
        <ele>912.4284668</ele>
        <time>2015-07-14T06:25:57Z</time>
      </trkpt>
      <trkpt lat="44.34228" lon="6.17376">
        <ele>910.5058594</ele>
        <time>2015-07-14T06:25:59Z</time>
      </trkpt>
      <trkpt lat="44.34212" lon="6.17382">
        <ele>909.5446777</ele>
        <time>2015-07-14T06:26:01Z</time>
      </trkpt>
      <trkpt lat="44.34198" lon="6.17387">
        <ele>907.1411133</ele>
        <time>2015-07-14T06:26:03Z</time>
      </trkpt>
      <trkpt lat="44.34182" lon="6.1739">
        <ele>904.737793</ele>
        <time>2015-07-14T06:26:06Z</time>
      </trkpt>
      <trkpt lat="44.34165" lon="6.1742">
        <ele>903.2958984</ele>
        <time>2015-07-14T06:26:14Z</time>
      </trkpt>
      <trkpt lat="44.34164" lon="6.17446">
        <ele>901.8540039</ele>
        <time>2015-07-14T06:26:24Z</time>
      </trkpt>
      <trkpt lat="44.34164" lon="6.17446">
        <ele>902.8151855</ele>
        <time>2015-07-14T06:27:07Z</time>
      </trkpt>
      <trkpt lat="44.34164" lon="6.17446">
        <ele>896.5668945</ele>
        <time>2015-07-14T06:27:12Z</time>
      </trkpt>
      <trkpt lat="44.34164" lon="6.17446">
        <ele>896.5668945</ele>
        <time>2015-07-14T06:27:13Z</time>
      </trkpt>
      <trkpt lat="44.34164" lon="6.17446">
        <ele>904.2573242</ele>
        <time>2015-07-14T06:27:14Z</time>
      </trkpt>
      <trkpt lat="44.34164" lon="6.17446">
        <ele>904.2573242</ele>
        <time>2015-07-14T06:27:15Z</time>
      </trkpt>
      <trkpt lat="44.34164" lon="6.17446">
        <ele>900.8925781</ele>
        <time>2015-07-14T06:27:17Z</time>
      </trkpt>
      <trkpt lat="44.34164" lon="6.17446">
        <ele>900.8925781</ele>
        <time>2015-07-14T06:27:18Z</time>
      </trkpt>
      <trkpt lat="44.34164" lon="6.17447">
        <ele>901.373291</ele>
        <time>2015-07-14T06:27:48Z</time>
      </trkpt>
      <trkpt lat="44.34166" lon="6.17448">
        <ele>900.8925781</ele>
        <time>2015-07-14T06:28:46Z</time>
      </trkpt>
      <trkpt lat="44.34166" lon="6.17449">
        <ele>900.4121094</ele>
        <time>2015-07-14T06:29:00Z</time>
      </trkpt>
      <trkpt lat="44.34165" lon="6.17459">
        <ele>900.8925781</ele>
        <time>2015-07-14T06:29:04Z</time>
      </trkpt>
      <trkpt lat="44.34161" lon="6.17503">
        <ele>901.373291</ele>
        <time>2015-07-14T06:29:13Z</time>
      </trkpt>
      <trkpt lat="44.34133" lon="6.17549">
        <ele>900.4121094</ele>
        <time>2015-07-14T06:29:23Z</time>
      </trkpt>
      <trkpt lat="44.34125" lon="6.17596">
        <ele>898.4892578</ele>
        <time>2015-07-14T06:29:29Z</time>
      </trkpt>
      <trkpt lat="44.34133" lon="6.17621">
        <ele>897.5280762</ele>
        <time>2015-07-14T06:29:33Z</time>
      </trkpt>
      <trkpt lat="44.34154" lon="6.17691">
        <ele>898.4892578</ele>
        <time>2015-07-14T06:29:49Z</time>
      </trkpt>
      <trkpt lat="44.34196" lon="6.17762">
        <ele>899.9313965</ele>
        <time>2015-07-14T06:30:13Z</time>
      </trkpt>
      <trkpt lat="44.34222" lon="6.17827">
        <ele>901.373291</ele>
        <time>2015-07-14T06:30:37Z</time>
      </trkpt>
      <trkpt lat="44.34248" lon="6.17898">
        <ele>902.8151855</ele>
        <time>2015-07-14T06:31:02Z</time>
      </trkpt>
      <trkpt lat="44.34274" lon="6.17971">
        <ele>904.2573242</ele>
        <time>2015-07-14T06:31:27Z</time>
      </trkpt>
      <trkpt lat="44.34297" lon="6.1803">
        <ele>905.2185059</ele>
        <time>2015-07-14T06:31:47Z</time>
      </trkpt>
      <trkpt lat="44.34317" lon="6.18091">
        <ele>906.1796875</ele>
        <time>2015-07-14T06:32:09Z</time>
      </trkpt>
      <trkpt lat="44.3434" lon="6.18151">
        <ele>908.1027832</ele>
        <time>2015-07-14T06:32:33Z</time>
      </trkpt>
      <trkpt lat="44.34361" lon="6.18208">
        <ele>909.0639648</ele>
        <time>2015-07-14T06:32:56Z</time>
      </trkpt>
      <trkpt lat="44.34384" lon="6.18265">
        <ele>910.5058594</ele>
        <time>2015-07-14T06:33:17Z</time>
      </trkpt>
      <trkpt lat="44.34418" lon="6.18321">
        <ele>911.947998</ele>
        <time>2015-07-14T06:33:41Z</time>
      </trkpt>
      <trkpt lat="44.34451" lon="6.18378">
        <ele>912.4284668</ele>
        <time>2015-07-14T06:34:03Z</time>
      </trkpt>
      <trkpt lat="44.34484" lon="6.18438">
        <ele>913.3898926</ele>
        <time>2015-07-14T06:34:28Z</time>
      </trkpt>
      <trkpt lat="44.34516" lon="6.18477">
        <ele>915.3125</ele>
        <time>2015-07-14T06:34:51Z</time>
      </trkpt>
      <trkpt lat="44.34548" lon="6.18515">
        <ele>917.7155762</ele>
        <time>2015-07-14T06:35:17Z</time>
      </trkpt>
      <trkpt lat="44.34571" lon="6.18542">
        <ele>920.1188965</ele>
        <time>2015-07-14T06:35:38Z</time>
      </trkpt>
      <trkpt lat="44.34575" lon="6.18546">
        <ele>920.1188965</ele>
        <time>2015-07-14T06:35:42Z</time>
      </trkpt>
      <trkpt lat="44.34599" lon="6.18552">
        <ele>922.0415039</ele>
        <time>2015-07-14T06:36:00Z</time>
      </trkpt>
      <trkpt lat="44.34629" lon="6.18532">
        <ele>921.0803223</ele>
        <time>2015-07-14T06:36:13Z</time>
      </trkpt>
      <trkpt lat="44.34637" lon="6.1853">
        <ele>921.0803223</ele>
        <time>2015-07-14T06:36:15Z</time>
      </trkpt>
      <trkpt lat="44.34678" lon="6.1854">
        <ele>920.5996094</ele>
        <time>2015-07-14T06:36:26Z</time>
      </trkpt>
      <trkpt lat="44.34703" lon="6.18573">
        <ele>922.0415039</ele>
        <time>2015-07-14T06:36:42Z</time>
      </trkpt>
      <trkpt lat="44.34731" lon="6.18597">
        <ele>922.5222168</ele>
        <time>2015-07-14T06:36:57Z</time>
      </trkpt>
      <trkpt lat="44.3476" lon="6.18631">
        <ele>922.5222168</ele>
        <time>2015-07-14T06:37:12Z</time>
      </trkpt>
      <trkpt lat="44.34793" lon="6.18636">
        <ele>923.0029297</ele>
        <time>2015-07-14T06:37:26Z</time>
      </trkpt>
      <trkpt lat="44.34823" lon="6.18635">
        <ele>923.9641113</ele>
        <time>2015-07-14T06:37:40Z</time>
      </trkpt>
      <trkpt lat="44.34847" lon="6.1865">
        <ele>924.9257813</ele>
        <time>2015-07-14T06:37:54Z</time>
      </trkpt>
      <trkpt lat="44.34861" lon="6.18695">
        <ele>925.8869629</ele>
        <time>2015-07-14T06:38:11Z</time>
      </trkpt>
      <trkpt lat="44.34862" lon="6.18737">
        <ele>927.8095703</ele>
        <time>2015-07-14T06:38:27Z</time>
      </trkpt>
      <trkpt lat="44.34859" lon="6.18776">
        <ele>928.7709961</ele>
        <time>2015-07-14T06:38:43Z</time>
      </trkpt>
      <trkpt lat="44.34848" lon="6.1882">
        <ele>929.7321777</ele>
        <time>2015-07-14T06:39:00Z</time>
      </trkpt>
      <trkpt lat="44.34844" lon="6.18836">
        <ele>930.2128906</ele>
        <time>2015-07-14T06:39:08Z</time>
      </trkpt>
      <trkpt lat="44.34849" lon="6.1887">
        <ele>931.6547852</ele>
        <time>2015-07-14T06:39:25Z</time>
      </trkpt>
      <trkpt lat="44.34877" lon="6.1887">
        <ele>932.6162109</ele>
        <time>2015-07-14T06:39:41Z</time>
      </trkpt>
      <trkpt lat="44.34902" lon="6.18885">
        <ele>934.0581055</ele>
        <time>2015-07-14T06:39:56Z</time>
      </trkpt>
      <trkpt lat="44.34909" lon="6.18934">
        <ele>935.5</ele>
        <time>2015-07-14T06:40:17Z</time>
      </trkpt>
      <trkpt lat="44.34909" lon="6.18978">
        <ele>936.4614258</ele>
        <time>2015-07-14T06:40:35Z</time>
      </trkpt>
      <trkpt lat="44.34915" lon="6.19027">
        <ele>937.4226074</ele>
        <time>2015-07-14T06:40:55Z</time>
      </trkpt>
      <trkpt lat="44.34913" lon="6.19068">
        <ele>938.3840332</ele>
        <time>2015-07-14T06:41:13Z</time>
      </trkpt>
      <trkpt lat="44.34908" lon="6.19102">
        <ele>940.3068848</ele>
        <time>2015-07-14T06:41:31Z</time>
      </trkpt>
      <trkpt lat="44.34925" lon="6.19136">
        <ele>941.2680664</ele>
        <time>2015-07-14T06:41:50Z</time>
      </trkpt>
      <trkpt lat="44.34938" lon="6.19146">
        <ele>942.2294922</ele>
        <time>2015-07-14T06:41:59Z</time>
      </trkpt>
      <trkpt lat="44.34963" lon="6.19167">
        <ele>943.6713867</ele>
        <time>2015-07-14T06:42:18Z</time>
      </trkpt>
      <trkpt lat="44.34987" lon="6.19206">
        <ele>945.1132813</ele>
        <time>2015-07-14T06:42:39Z</time>
      </trkpt>
      <trkpt lat="44.35003" lon="6.19256">
        <ele>945.1132813</ele>
        <time>2015-07-14T06:42:58Z</time>
      </trkpt>
      <trkpt lat="44.34985" lon="6.19301">
        <ele>945.1132813</ele>
        <time>2015-07-14T06:43:15Z</time>
      </trkpt>
      <trkpt lat="44.34963" lon="6.19329">
        <ele>946.5554199</ele>
        <time>2015-07-14T06:43:29Z</time>
      </trkpt>
      <trkpt lat="44.34941" lon="6.19362">
        <ele>947.0358887</ele>
        <time>2015-07-14T06:43:45Z</time>
      </trkpt>
      <trkpt lat="44.34938" lon="6.19379">
        <ele>947.5166016</ele>
        <time>2015-07-14T06:43:51Z</time>
      </trkpt>
      <trkpt lat="44.3494" lon="6.19392">
        <ele>947.9973145</ele>
        <time>2015-07-14T06:43:56Z</time>
      </trkpt>
      <trkpt lat="44.34973" lon="6.19432">
        <ele>948.4777832</ele>
        <time>2015-07-14T06:44:16Z</time>
      </trkpt>
      <trkpt lat="44.35" lon="6.19467">
        <ele>948.9584961</ele>
        <time>2015-07-14T06:44:33Z</time>
      </trkpt>
      <trkpt lat="44.35006" lon="6.19488">
        <ele>948.9584961</ele>
        <time>2015-07-14T06:44:41Z</time>
      </trkpt>
      <trkpt lat="44.34995" lon="6.19536">
        <ele>950.4006348</ele>
        <time>2015-07-14T06:45:00Z</time>
      </trkpt>
      <trkpt lat="44.34976" lon="6.19583">
        <ele>952.8037109</ele>
        <time>2015-07-14T06:45:23Z</time>
      </trkpt>
      <trkpt lat="44.34977" lon="6.19615">
        <ele>953.2844238</ele>
        <time>2015-07-14T06:45:37Z</time>
      </trkpt>
      <trkpt lat="44.34995" lon="6.19652">
        <ele>953.7651367</ele>
        <time>2015-07-14T06:45:53Z</time>
      </trkpt>
      <trkpt lat="44.35004" lon="6.19688">
        <ele>954.2458496</ele>
        <time>2015-07-14T06:46:08Z</time>
      </trkpt>
      <trkpt lat="44.35008" lon="6.19721">
        <ele>955.2070313</ele>
        <time>2015-07-14T06:46:21Z</time>
      </trkpt>
      <trkpt lat="44.35008" lon="6.19728">
        <ele>955.6877441</ele>
        <time>2015-07-14T06:46:24Z</time>
      </trkpt>
      <trkpt lat="44.35009" lon="6.19747">
        <ele>955.6877441</ele>
        <time>2015-07-14T06:46:31Z</time>
      </trkpt>
      <trkpt lat="44.35013" lon="6.19766">
        <ele>956.168457</ele>
        <time>2015-07-14T06:46:39Z</time>
      </trkpt>
      <trkpt lat="44.35023" lon="6.19803">
        <ele>957.1298828</ele>
        <time>2015-07-14T06:46:53Z</time>
      </trkpt>
      <trkpt lat="44.35037" lon="6.1984">
        <ele>958.0913086</ele>
        <time>2015-07-14T06:47:09Z</time>
      </trkpt>
      <trkpt lat="44.35037" lon="6.19842">
        <ele>958.0913086</ele>
        <time>2015-07-14T06:47:10Z</time>
      </trkpt>
      <trkpt lat="44.35053" lon="6.19898">
        <ele>960.9750977</ele>
        <time>2015-07-14T06:47:34Z</time>
      </trkpt>
      <trkpt lat="44.35066" lon="6.19958">
        <ele>961.4558105</ele>
        <time>2015-07-14T06:47:58Z</time>
      </trkpt>
      <trkpt lat="44.35076" lon="6.20016">
        <ele>961.4558105</ele>
        <time>2015-07-14T06:48:19Z</time>
      </trkpt>
      <trkpt lat="44.35064" lon="6.20063">
        <ele>961.9365234</ele>
        <time>2015-07-14T06:48:36Z</time>
      </trkpt>
      <trkpt lat="44.35038" lon="6.20119">
        <ele>963.378418</ele>
        <time>2015-07-14T06:49:01Z</time>
      </trkpt>
      <trkpt lat="44.35032" lon="6.20124">
        <ele>963.378418</ele>
        <time>2015-07-14T06:49:06Z</time>
      </trkpt>
      <trkpt lat="44.3502" lon="6.20164">
        <ele>965.3010254</ele>
        <time>2015-07-14T06:49:23Z</time>
      </trkpt>
      <trkpt lat="44.3501" lon="6.20228">
        <ele>966.7429199</ele>
        <time>2015-07-14T06:49:48Z</time>
      </trkpt>
      <trkpt lat="44.35008" lon="6.20273">
        <ele>968.1848145</ele>
        <time>2015-07-14T06:50:06Z</time>
      </trkpt>
      <trkpt lat="44.34999" lon="6.2032">
        <ele>969.6269531</ele>
        <time>2015-07-14T06:50:26Z</time>
      </trkpt>
      <trkpt lat="44.35001" lon="6.20367">
        <ele>970.1074219</ele>
        <time>2015-07-14T06:50:43Z</time>
      </trkpt>
      <trkpt lat="44.34996" lon="6.20406">
        <ele>971.0688477</ele>
        <time>2015-07-14T06:50:59Z</time>
      </trkpt>
      <trkpt lat="44.34975" lon="6.20438">
        <ele>973.4724121</ele>
        <time>2015-07-14T06:51:20Z</time>
      </trkpt>
      <trkpt lat="44.34968" lon="6.20443">
        <ele>973.4724121</ele>
        <time>2015-07-14T06:51:25Z</time>
      </trkpt>
      <trkpt lat="44.34947" lon="6.20454">
        <ele>974.9143066</ele>
        <time>2015-07-14T06:51:42Z</time>
      </trkpt>
      <trkpt lat="44.34942" lon="6.20459">
        <ele>975.3947754</ele>
        <time>2015-07-14T06:51:47Z</time>
      </trkpt>
      <trkpt lat="44.3493" lon="6.20464">
        <ele>975.8754883</ele>
        <time>2015-07-14T06:51:56Z</time>
      </trkpt>
      <trkpt lat="44.34892" lon="6.20481">
        <ele>977.7980957</ele>
        <time>2015-07-14T06:52:17Z</time>
      </trkpt>
      <trkpt lat="44.34859" lon="6.20493">
        <ele>978.7595215</ele>
        <time>2015-07-14T06:52:33Z</time>
      </trkpt>
      <trkpt lat="44.34847" lon="6.20497">
        <ele>978.7595215</ele>
        <time>2015-07-14T06:52:38Z</time>
      </trkpt>
      <trkpt lat="44.34841" lon="6.20517">
        <ele>979.2399902</ele>
        <time>2015-07-14T06:52:46Z</time>
      </trkpt>
      <trkpt lat="44.348" lon="6.20522">
        <ele>980.6821289</ele>
        <time>2015-07-14T06:53:03Z</time>
      </trkpt>
      <trkpt lat="44.34769" lon="6.20523">
        <ele>981.6433105</ele>
        <time>2015-07-14T06:53:17Z</time>
      </trkpt>
      <trkpt lat="44.34742" lon="6.20528">
        <ele>982.1240234</ele>
        <time>2015-07-14T06:53:32Z</time>
      </trkpt>
      <trkpt lat="44.34694" lon="6.20531">
        <ele>984.0466309</ele>
        <time>2015-07-14T06:53:50Z</time>
      </trkpt>
      <trkpt lat="44.34655" lon="6.20536">
        <ele>984.5273438</ele>
        <time>2015-07-14T06:54:05Z</time>
      </trkpt>
      <trkpt lat="44.34608" lon="6.20538">
        <ele>985.9692383</ele>
        <time>2015-07-14T06:54:23Z</time>
      </trkpt>
      <trkpt lat="44.34574" lon="6.20549">
        <ele>987.8918457</ele>
        <time>2015-07-14T06:54:40Z</time>
      </trkpt>
      <trkpt lat="44.34537" lon="6.20566">
        <ele>989.3339844</ele>
        <time>2015-07-14T06:55:02Z</time>
      </trkpt>
      <trkpt lat="44.34513" lon="6.20577">
        <ele>989.8146973</ele>
        <time>2015-07-14T06:55:17Z</time>
      </trkpt>
      <trkpt lat="44.34497" lon="6.20586">
        <ele>990.7758789</ele>
        <time>2015-07-14T06:55:30Z</time>
      </trkpt>
      <trkpt lat="44.3449" lon="6.20593">
        <ele>992.2180176</ele>
        <time>2015-07-14T06:55:43Z</time>
      </trkpt>
      <trkpt lat="44.34486" lon="6.20596">
        <ele>993.1791992</ele>
        <time>2015-07-14T06:55:49Z</time>
      </trkpt>
      <trkpt lat="44.3448" lon="6.20604">
        <ele>994.140625</ele>
        <time>2015-07-14T06:55:55Z</time>
      </trkpt>
      <trkpt lat="44.3448" lon="6.20629">
        <ele>994.140625</ele>
        <time>2015-07-14T06:56:06Z</time>
      </trkpt>
      <trkpt lat="44.34451" lon="6.20634">
        <ele>995.5825195</ele>
        <time>2015-07-14T06:56:24Z</time>
      </trkpt>
      <trkpt lat="44.34442" lon="6.20637">
        <ele>996.5439453</ele>
        <time>2015-07-14T06:56:37Z</time>
      </trkpt>
      <trkpt lat="44.34438" lon="6.20636">
        <ele>996.5439453</ele>
        <time>2015-07-14T06:56:49Z</time>
      </trkpt>
      <trkpt lat="44.34439" lon="6.20645">
        <ele>997.9858398</ele>
        <time>2015-07-14T06:57:06Z</time>
      </trkpt>
      <trkpt lat="44.3443" lon="6.20647">
        <ele>998.4663086</ele>
        <time>2015-07-14T06:57:19Z</time>
      </trkpt>
      <trkpt lat="44.3442" lon="6.20662">
        <ele>999.4277344</ele>
        <time>2015-07-14T06:57:42Z</time>
      </trkpt>
      <trkpt lat="44.34418" lon="6.20664">
        <ele>999.4277344</ele>
        <time>2015-07-14T06:57:44Z</time>
      </trkpt>
      <trkpt lat="44.34401" lon="6.20677">
        <ele>999.9084473</ele>
        <time>2015-07-14T06:57:53Z</time>
      </trkpt>
      <trkpt lat="44.34374" lon="6.2069">
        <ele>1000.3891602</ele>
        <time>2015-07-14T06:58:04Z</time>
      </trkpt>
      <trkpt lat="44.34352" lon="6.20702">
        <ele>1000.8696289</ele>
        <time>2015-07-14T06:58:17Z</time>
      </trkpt>
      <trkpt lat="44.34352" lon="6.20709">
        <ele>1000.8696289</ele>
        <time>2015-07-14T06:58:21Z</time>
      </trkpt>
      <trkpt lat="44.34332" lon="6.20722">
        <ele>1001.8310547</ele>
        <time>2015-07-14T06:58:37Z</time>
      </trkpt>
      <trkpt lat="44.34325" lon="6.20722">
        <ele>1002.3115234</ele>
        <time>2015-07-14T06:58:42Z</time>
      </trkpt>
      <trkpt lat="44.34311" lon="6.20725">
        <ele>1002.3115234</ele>
        <time>2015-07-14T06:58:53Z</time>
      </trkpt>
      <trkpt lat="44.34308" lon="6.20732">
        <ele>1002.7922363</ele>
        <time>2015-07-14T06:59:00Z</time>
      </trkpt>
      <trkpt lat="44.34302" lon="6.20735">
        <ele>1002.7922363</ele>
        <time>2015-07-14T06:59:06Z</time>
      </trkpt>
      <trkpt lat="44.34296" lon="6.20739">
        <ele>1002.7922363</ele>
        <time>2015-07-14T06:59:11Z</time>
      </trkpt>
      <trkpt lat="44.34283" lon="6.20748">
        <ele>1003.2729492</ele>
        <time>2015-07-14T06:59:18Z</time>
      </trkpt>
      <trkpt lat="44.34271" lon="6.20781">
        <ele>1004.2346191</ele>
        <time>2015-07-14T06:59:38Z</time>
      </trkpt>
      <trkpt lat="44.34266" lon="6.20818">
        <ele>1004.7150879</ele>
        <time>2015-07-14T06:59:56Z</time>
      </trkpt>
      <trkpt lat="44.34265" lon="6.20834">
        <ele>1005.6765137</ele>
        <time>2015-07-14T07:00:04Z</time>
      </trkpt>
      <trkpt lat="44.34262" lon="6.20845">
        <ele>1006.6376953</ele>
        <time>2015-07-14T07:00:09Z</time>
      </trkpt>
      <trkpt lat="44.34261" lon="6.20899">
        <ele>1008.079834</ele>
        <time>2015-07-14T07:00:35Z</time>
      </trkpt>
      <trkpt lat="44.34252" lon="6.20948">
        <ele>1008.079834</ele>
        <time>2015-07-14T07:00:51Z</time>
      </trkpt>
      <trkpt lat="44.34249" lon="6.20953">
        <ele>1008.079834</ele>
        <time>2015-07-14T07:00:54Z</time>
      </trkpt>
      <trkpt lat="44.3425" lon="6.21015">
        <ele>1008.079834</ele>
        <time>2015-07-14T07:01:14Z</time>
      </trkpt>
      <trkpt lat="44.34261" lon="6.21085">
        <ele>1008.079834</ele>
        <time>2015-07-14T07:01:32Z</time>
      </trkpt>
      <trkpt lat="44.34227" lon="6.21112">
        <ele>1008.079834</ele>
        <time>2015-07-14T07:01:50Z</time>
      </trkpt>
      <trkpt lat="44.34218" lon="6.21136">
        <ele>1008.5603027</ele>
        <time>2015-07-14T07:02:03Z</time>
      </trkpt>
      <trkpt lat="44.34222" lon="6.21146">
        <ele>1008.5603027</ele>
        <time>2015-07-14T07:02:38Z</time>
      </trkpt>
      <trkpt lat="44.34219" lon="6.21153">
        <ele>1008.5603027</ele>
        <time>2015-07-14T07:02:42Z</time>
      </trkpt>
      <trkpt lat="44.34188" lon="6.21192">
        <ele>1009.5217285</ele>
        <time>2015-07-14T07:03:04Z</time>
      </trkpt>
      <trkpt lat="44.34184" lon="6.21225">
        <ele>1010.4829102</ele>
        <time>2015-07-14T07:03:17Z</time>
      </trkpt>
      <trkpt lat="44.34194" lon="6.21246">
        <ele>1010.963623</ele>
        <time>2015-07-14T07:03:26Z</time>
      </trkpt>
      <trkpt lat="44.34191" lon="6.21292">
        <ele>1011.9250488</ele>
        <time>2015-07-14T07:03:41Z</time>
      </trkpt>
      <trkpt lat="44.34189" lon="6.21305">
        <ele>1011.9250488</ele>
        <time>2015-07-14T07:03:46Z</time>
      </trkpt>
      <trkpt lat="44.34173" lon="6.2133">
        <ele>1013.3669434</ele>
        <time>2015-07-14T07:04:00Z</time>
      </trkpt>
      <trkpt lat="44.34172" lon="6.21334">
        <ele>1013.3669434</ele>
        <time>2015-07-14T07:04:02Z</time>
      </trkpt>
      <trkpt lat="44.34163" lon="6.21351">
        <ele>1013.8474121</ele>
        <time>2015-07-14T07:04:10Z</time>
      </trkpt>
      <trkpt lat="44.34152" lon="6.21367">
        <ele>1014.8088379</ele>
        <time>2015-07-14T07:04:21Z</time>
      </trkpt>
      <trkpt lat="44.3415" lon="6.21371">
        <ele>1015.2895508</ele>
        <time>2015-07-14T07:04:23Z</time>
      </trkpt>
      <trkpt lat="44.34144" lon="6.21383">
        <ele>1016.7314453</ele>
        <time>2015-07-14T07:04:31Z</time>
      </trkpt>
      <trkpt lat="44.34141" lon="6.2139">
        <ele>1016.2507324</ele>
        <time>2015-07-14T07:04:35Z</time>
      </trkpt>
      <trkpt lat="44.34133" lon="6.21428">
        <ele>1018.1733398</ele>
        <time>2015-07-14T07:04:51Z</time>
      </trkpt>
      <trkpt lat="44.34141" lon="6.21475">
        <ele>1018.1733398</ele>
        <time>2015-07-14T07:05:08Z</time>
      </trkpt>
      <trkpt lat="44.34149" lon="6.21493">
        <ele>1018.6540527</ele>
        <time>2015-07-14T07:05:16Z</time>
      </trkpt>
      <trkpt lat="44.34153" lon="6.21515">
        <ele>1019.1347656</ele>
        <time>2015-07-14T07:05:24Z</time>
      </trkpt>
      <trkpt lat="44.34144" lon="6.21544">
        <ele>1019.6154785</ele>
        <time>2015-07-14T07:05:36Z</time>
      </trkpt>
      <trkpt lat="44.34119" lon="6.21581">
        <ele>1020.5769043</ele>
        <time>2015-07-14T07:05:54Z</time>
      </trkpt>
      <trkpt lat="44.34104" lon="6.21622">
        <ele>1021.5380859</ele>
        <time>2015-07-14T07:06:12Z</time>
      </trkpt>
      <trkpt lat="44.3411" lon="6.2164">
        <ele>1021.5380859</ele>
        <time>2015-07-14T07:06:20Z</time>
      </trkpt>
      <trkpt lat="44.34113" lon="6.21647">
        <ele>1022.0187988</ele>
        <time>2015-07-14T07:06:23Z</time>
      </trkpt>
      <trkpt lat="44.34122" lon="6.21673">
        <ele>1022.4995117</ele>
        <time>2015-07-14T07:06:32Z</time>
      </trkpt>
      <trkpt lat="44.34133" lon="6.21722">
        <ele>1022.9802246</ele>
        <time>2015-07-14T07:06:49Z</time>
      </trkpt>
      <trkpt lat="44.34157" lon="6.21764">
        <ele>1024.4221191</ele>
        <time>2015-07-14T07:07:07Z</time>
      </trkpt>
      <trkpt lat="44.34157" lon="6.21767">
        <ele>1024.4221191</ele>
        <time>2015-07-14T07:07:08Z</time>
      </trkpt>
      <trkpt lat="44.34158" lon="6.21779">
        <ele>1024.4221191</ele>
        <time>2015-07-14T07:07:12Z</time>
      </trkpt>
      <trkpt lat="44.34176" lon="6.21831">
        <ele>1025.3833008</ele>
        <time>2015-07-14T07:07:30Z</time>
      </trkpt>
      <trkpt lat="44.34181" lon="6.21881">
        <ele>1025.8640137</ele>
        <time>2015-07-14T07:07:47Z</time>
      </trkpt>
      <trkpt lat="44.3418" lon="6.21926">
        <ele>1027.3061523</ele>
        <time>2015-07-14T07:08:03Z</time>
      </trkpt>
      <trkpt lat="44.34181" lon="6.21967">
        <ele>1028.267334</ele>
        <time>2015-07-14T07:08:20Z</time>
      </trkpt>
      <trkpt lat="44.34184" lon="6.22028">
        <ele>1028.7480469</ele>
        <time>2015-07-14T07:08:39Z</time>
      </trkpt>
      <trkpt lat="44.34184" lon="6.22082">
        <ele>1029.7092285</ele>
        <time>2015-07-14T07:08:58Z</time>
      </trkpt>
      <trkpt lat="44.34181" lon="6.22132">
        <ele>1031.6318359</ele>
        <time>2015-07-14T07:09:15Z</time>
      </trkpt>
      <trkpt lat="44.34165" lon="6.2217">
        <ele>1032.1125488</ele>
        <time>2015-07-14T07:09:29Z</time>
      </trkpt>
      <trkpt lat="44.34138" lon="6.22199">
        <ele>1032.5932617</ele>
        <time>2015-07-14T07:09:43Z</time>
      </trkpt>
      <trkpt lat="44.34113" lon="6.22238">
        <ele>1034.0351563</ele>
        <time>2015-07-14T07:10:00Z</time>
      </trkpt>
      <trkpt lat="44.34089" lon="6.22279">
        <ele>1034.0351563</ele>
        <time>2015-07-14T07:10:16Z</time>
      </trkpt>
      <trkpt lat="44.34065" lon="6.22318">
        <ele>1035.4770508</ele>
        <time>2015-07-14T07:10:33Z</time>
      </trkpt>
      <trkpt lat="44.34054" lon="6.22365">
        <ele>1035.4770508</ele>
        <time>2015-07-14T07:10:48Z</time>
      </trkpt>
      <trkpt lat="44.34054" lon="6.22368">
        <ele>1035.4770508</ele>
        <time>2015-07-14T07:10:49Z</time>
      </trkpt>
      <trkpt lat="44.34054" lon="6.22376">
        <ele>1035.9577637</ele>
        <time>2015-07-14T07:10:52Z</time>
      </trkpt>
      <trkpt lat="44.34052" lon="6.2239">
        <ele>1036.4387207</ele>
        <time>2015-07-14T07:10:57Z</time>
      </trkpt>
      <trkpt lat="44.34051" lon="6.22405">
        <ele>1036.9191895</ele>
        <time>2015-07-14T07:11:02Z</time>
      </trkpt>
      <trkpt lat="44.3404" lon="6.22453">
        <ele>1037.8806152</ele>
        <time>2015-07-14T07:11:20Z</time>
      </trkpt>
      <trkpt lat="44.34031" lon="6.22505">
        <ele>1039.8032227</ele>
        <time>2015-07-14T07:11:42Z</time>
      </trkpt>
      <trkpt lat="44.34011" lon="6.22534">
        <ele>1040.2839355</ele>
        <time>2015-07-14T07:11:57Z</time>
      </trkpt>
      <trkpt lat="44.33979" lon="6.22553">
        <ele>1041.2451172</ele>
        <time>2015-07-14T07:12:16Z</time>
      </trkpt>
      <trkpt lat="44.33948" lon="6.22551">
        <ele>1041.7258301</ele>
        <time>2015-07-14T07:12:31Z</time>
      </trkpt>
      <trkpt lat="44.33919" lon="6.2255">
        <ele>1043.1677246</ele>
        <time>2015-07-14T07:12:47Z</time>
      </trkpt>
      <trkpt lat="44.33894" lon="6.22564">
        <ele>1044.1291504</ele>
        <time>2015-07-14T07:13:02Z</time>
      </trkpt>
      <trkpt lat="44.33877" lon="6.22588">
        <ele>1045.090332</ele>
        <time>2015-07-14T07:13:14Z</time>
      </trkpt>
      <trkpt lat="44.33875" lon="6.22633">
        <ele>1046.5324707</ele>
        <time>2015-07-14T07:13:31Z</time>
      </trkpt>
      <trkpt lat="44.33873" lon="6.22692">
        <ele>1047.4936523</ele>
        <time>2015-07-14T07:13:52Z</time>
      </trkpt>
      <trkpt lat="44.33868" lon="6.22731">
        <ele>1048.9355469</ele>
        <time>2015-07-14T07:14:07Z</time>
      </trkpt>
      <trkpt lat="44.33854" lon="6.22767">
        <ele>1049.4162598</ele>
        <time>2015-07-14T07:14:22Z</time>
      </trkpt>
      <trkpt lat="44.33837" lon="6.22812">
        <ele>1049.8969727</ele>
        <time>2015-07-14T07:14:38Z</time>
      </trkpt>
      <trkpt lat="44.33817" lon="6.22864">
        <ele>1049.8969727</ele>
        <time>2015-07-14T07:14:55Z</time>
      </trkpt>
      <trkpt lat="44.33813" lon="6.22878">
        <ele>1050.3776855</ele>
        <time>2015-07-14T07:15:00Z</time>
      </trkpt>
      <trkpt lat="44.33805" lon="6.22918">
        <ele>1051.8195801</ele>
        <time>2015-07-14T07:15:15Z</time>
      </trkpt>
      <trkpt lat="44.33803" lon="6.22926">
        <ele>1051.8195801</ele>
        <time>2015-07-14T07:15:18Z</time>
      </trkpt>
      <trkpt lat="44.33803" lon="6.22938">
        <ele>1052.300293</ele>
        <time>2015-07-14T07:15:22Z</time>
      </trkpt>
      <trkpt lat="44.33806" lon="6.22955">
        <ele>1052.7810059</ele>
        <time>2015-07-14T07:15:28Z</time>
      </trkpt>
      <trkpt lat="44.33822" lon="6.22996">
        <ele>1053.2617188</ele>
        <time>2015-07-14T07:15:44Z</time>
      </trkpt>
      <trkpt lat="44.33859" lon="6.23021">
        <ele>1054.7036133</ele>
        <time>2015-07-14T07:16:04Z</time>
      </trkpt>
      <trkpt lat="44.3386" lon="6.2302">
        <ele>1054.7036133</ele>
        <time>2015-07-14T07:16:05Z</time>
      </trkpt>
      <trkpt lat="44.33902" lon="6.23005">
        <ele>1055.1843262</ele>
        <time>2015-07-14T07:16:26Z</time>
      </trkpt>
      <trkpt lat="44.3393" lon="6.23025">
        <ele>1056.6262207</ele>
        <time>2015-07-14T07:16:42Z</time>
      </trkpt>
      <trkpt lat="44.33943" lon="6.23053">
        <ele>1057.5876465</ele>
        <time>2015-07-14T07:16:55Z</time>
      </trkpt>
      <trkpt lat="44.33956" lon="6.23094">
        <ele>1059.029541</ele>
        <time>2015-07-14T07:17:13Z</time>
      </trkpt>
      <trkpt lat="44.33952" lon="6.23101">
        <ele>1058.5488281</ele>
        <time>2015-07-14T07:17:26Z</time>
      </trkpt>
      <trkpt lat="44.33955" lon="6.23106">
        <ele>1059.029541</ele>
        <time>2015-07-14T07:17:38Z</time>
      </trkpt>
      <trkpt lat="44.33949" lon="6.23152">
        <ele>1059.029541</ele>
        <time>2015-07-14T07:17:54Z</time>
      </trkpt>
      <trkpt lat="44.33949" lon="6.2316">
        <ele>1059.029541</ele>
        <time>2015-07-14T07:17:57Z</time>
      </trkpt>
      <trkpt lat="44.33945" lon="6.23181">
        <ele>1059.9907227</ele>
        <time>2015-07-14T07:18:14Z</time>
      </trkpt>
      <trkpt lat="44.33938" lon="6.23181">
        <ele>1059.5102539</ele>
        <time>2015-07-14T07:18:35Z</time>
      </trkpt>
      <trkpt lat="44.3394" lon="6.23179">
        <ele>1059.9907227</ele>
        <time>2015-07-14T07:19:02Z</time>
      </trkpt>
      <trkpt lat="44.33942" lon="6.23178">
        <ele>1058.5488281</ele>
        <time>2015-07-14T07:19:07Z</time>
      </trkpt>
      <trkpt lat="44.33942" lon="6.23177">
        <ele>1057.5876465</ele>
        <time>2015-07-14T07:19:44Z</time>
      </trkpt>
      <trkpt lat="44.33942" lon="6.23177">
        <ele>1059.029541</ele>
        <time>2015-07-14T07:19:47Z</time>
      </trkpt>
      <trkpt lat="44.33942" lon="6.23177">
        <ele>1058.5488281</ele>
        <time>2015-07-14T07:19:51Z</time>
      </trkpt>
      <trkpt lat="44.33942" lon="6.23177">
        <ele>1059.5102539</ele>
        <time>2015-07-14T07:19:56Z</time>
      </trkpt>
      <trkpt lat="44.33942" lon="6.23177">
        <ele>1058.5488281</ele>
        <time>2015-07-14T07:20:12Z</time>
      </trkpt>
      <trkpt lat="44.33942" lon="6.23177">
        <ele>1056.6262207</ele>
        <time>2015-07-14T07:20:19Z</time>
      </trkpt>
      <trkpt lat="44.33942" lon="6.23177">
        <ele>1059.9907227</ele>
        <time>2015-07-14T07:20:20Z</time>
      </trkpt>
      <trkpt lat="44.33942" lon="6.23177">
        <ele>1059.9907227</ele>
        <time>2015-07-14T07:20:21Z</time>
      </trkpt>
      <trkpt lat="44.33942" lon="6.23177">
        <ele>1060.4714355</ele>
        <time>2015-07-14T07:20:32Z</time>
      </trkpt>
      <trkpt lat="44.33945" lon="6.23178">
        <ele>1060.9521484</ele>
        <time>2015-07-14T07:20:46Z</time>
      </trkpt>
      <trkpt lat="44.33945" lon="6.23179">
        <ele>1060.9521484</ele>
        <time>2015-07-14T07:20:47Z</time>
      </trkpt>
      <trkpt lat="44.33949" lon="6.23182">
        <ele>1060.4714355</ele>
        <time>2015-07-14T07:20:57Z</time>
      </trkpt>
      <trkpt lat="44.33957" lon="6.23197">
        <ele>1061.9135742</ele>
        <time>2015-07-14T07:21:04Z</time>
      </trkpt>
      <trkpt lat="44.3399" lon="6.23252">
        <ele>1063.3554688</ele>
        <time>2015-07-14T07:21:30Z</time>
      </trkpt>
      <trkpt lat="44.34006" lon="6.23278">
        <ele>1064.7973633</ele>
        <time>2015-07-14T07:21:43Z</time>
      </trkpt>
      <trkpt lat="44.34026" lon="6.2332">
        <ele>1066.2392578</ele>
        <time>2015-07-14T07:22:01Z</time>
      </trkpt>
      <trkpt lat="44.34038" lon="6.23366">
        <ele>1066.2392578</ele>
        <time>2015-07-14T07:22:18Z</time>
      </trkpt>
      <trkpt lat="44.34049" lon="6.23414">
        <ele>1066.7199707</ele>
        <time>2015-07-14T07:22:35Z</time>
      </trkpt>
      <trkpt lat="44.34053" lon="6.2345">
        <ele>1067.6811523</ele>
        <time>2015-07-14T07:22:49Z</time>
      </trkpt>
      <trkpt lat="44.34049" lon="6.23481">
        <ele>1068.1621094</ele>
        <time>2015-07-14T07:23:02Z</time>
      </trkpt>
      <trkpt lat="44.34051" lon="6.23524">
        <ele>1070.0847168</ele>
        <time>2015-07-14T07:23:19Z</time>
      </trkpt>
      <trkpt lat="44.3405" lon="6.23527">
        <ele>1070.0847168</ele>
        <time>2015-07-14T07:23:20Z</time>
      </trkpt>
      <trkpt lat="44.34058" lon="6.2358">
        <ele>1071.5266113</ele>
        <time>2015-07-14T07:23:40Z</time>
      </trkpt>
      <trkpt lat="44.34075" lon="6.23632">
        <ele>1072.4880371</ele>
        <time>2015-07-14T07:24:01Z</time>
      </trkpt>
      <trkpt lat="44.3409" lon="6.23671">
        <ele>1073.9299316</ele>
        <time>2015-07-14T07:24:18Z</time>
      </trkpt>
      <trkpt lat="44.34113" lon="6.23711">
        <ele>1074.8913574</ele>
        <time>2015-07-14T07:24:36Z</time>
      </trkpt>
      <trkpt lat="44.34138" lon="6.23743">
        <ele>1075.3718262</ele>
        <time>2015-07-14T07:24:53Z</time>
      </trkpt>
      <trkpt lat="44.34162" lon="6.23776">
        <ele>1076.8139648</ele>
        <time>2015-07-14T07:25:09Z</time>
      </trkpt>
      <trkpt lat="44.3419" lon="6.23808">
        <ele>1077.7751465</ele>
        <time>2015-07-14T07:25:27Z</time>
      </trkpt>
      <trkpt lat="44.34191" lon="6.23809">
        <ele>1077.7751465</ele>
        <time>2015-07-14T07:25:28Z</time>
      </trkpt>
      <trkpt lat="44.34213" lon="6.23833">
        <ele>1078.7365723</ele>
        <time>2015-07-14T07:25:41Z</time>
      </trkpt>
      <trkpt lat="44.34229" lon="6.23872">
        <ele>1079.6977539</ele>
        <time>2015-07-14T07:25:55Z</time>
      </trkpt>
      <trkpt lat="44.3425" lon="6.23911">
        <ele>1080.1784668</ele>
        <time>2015-07-14T07:26:12Z</time>
      </trkpt>
      <trkpt lat="44.34272" lon="6.23963">
        <ele>1081.1398926</ele>
        <time>2015-07-14T07:26:31Z</time>
      </trkpt>
      <trkpt lat="44.34298" lon="6.2402">
        <ele>1082.1010742</ele>
        <time>2015-07-14T07:26:53Z</time>
      </trkpt>
      <trkpt lat="44.34327" lon="6.24058">
        <ele>1083.5429688</ele>
        <time>2015-07-14T07:27:11Z</time>
      </trkpt>
      <trkpt lat="44.34362" lon="6.2408">
        <ele>1084.5046387</ele>
        <time>2015-07-14T07:27:30Z</time>
      </trkpt>
      <trkpt lat="44.34364" lon="6.24081">
        <ele>1084.5046387</ele>
        <time>2015-07-14T07:27:31Z</time>
      </trkpt>
      <trkpt lat="44.34368" lon="6.24083">
        <ele>1084.5046387</ele>
        <time>2015-07-14T07:27:33Z</time>
      </trkpt>
      <trkpt lat="44.34398" lon="6.24102">
        <ele>1085.9465332</ele>
        <time>2015-07-14T07:27:49Z</time>
      </trkpt>
      <trkpt lat="44.34434" lon="6.24132">
        <ele>1086.9077148</ele>
        <time>2015-07-14T07:28:09Z</time>
      </trkpt>
      <trkpt lat="44.34471" lon="6.24173">
        <ele>1088.3498535</ele>
        <time>2015-07-14T07:28:34Z</time>
      </trkpt>
      <trkpt lat="44.34489" lon="6.2421">
        <ele>1089.791748</ele>
        <time>2015-07-14T07:28:52Z</time>
      </trkpt>
      <trkpt lat="44.34501" lon="6.24245">
        <ele>1091.2336426</ele>
        <time>2015-07-14T07:29:15Z</time>
      </trkpt>
      <trkpt lat="44.34501" lon="6.24246">
        <ele>1092.1950684</ele>
        <time>2015-07-14T07:29:23Z</time>
      </trkpt>
      <trkpt lat="44.34501" lon="6.24259">
        <ele>1092.1950684</ele>
        <time>2015-07-14T07:29:43Z</time>
      </trkpt>
      <trkpt lat="44.34502" lon="6.2426">
        <ele>1090.7529297</ele>
        <time>2015-07-14T07:30:00Z</time>
      </trkpt>
      <trkpt lat="44.34502" lon="6.24261">
        <ele>1092.6757813</ele>
        <time>2015-07-14T07:30:03Z</time>
      </trkpt>
      <trkpt lat="44.34502" lon="6.24265">
        <ele>1093.15625</ele>
        <time>2015-07-14T07:30:21Z</time>
      </trkpt>
      <trkpt lat="44.345" lon="6.24267">
        <ele>1093.15625</ele>
        <time>2015-07-14T07:30:31Z</time>
      </trkpt>
      <trkpt lat="44.345" lon="6.24273">
        <ele>1093.6369629</ele>
        <time>2015-07-14T07:30:35Z</time>
      </trkpt>
      <trkpt lat="44.34499" lon="6.24303">
        <ele>1097.0014648</ele>
        <time>2015-07-14T07:30:53Z</time>
      </trkpt>
      <trkpt lat="44.34499" lon="6.24317">
        <ele>1097.9628906</ele>
        <time>2015-07-14T07:31:03Z</time>
      </trkpt>
      <trkpt lat="44.34495" lon="6.24348">
        <ele>1101.8083496</ele>
        <time>2015-07-14T07:31:22Z</time>
      </trkpt>
      <trkpt lat="44.34499" lon="6.24377">
        <ele>1103.730957</ele>
        <time>2015-07-14T07:31:40Z</time>
      </trkpt>
      <trkpt lat="44.34502" lon="6.24383">
        <ele>1104.2116699</ele>
        <time>2015-07-14T07:31:54Z</time>
      </trkpt>
      <trkpt lat="44.34506" lon="6.24392">
        <ele>1104.6921387</ele>
        <time>2015-07-14T07:32:10Z</time>
      </trkpt>
      <trkpt lat="44.34504" lon="6.24399">
        <ele>1106.1340332</ele>
        <time>2015-07-14T07:32:26Z</time>
      </trkpt>
      <trkpt lat="44.34502" lon="6.24399">
        <ele>1105.1728516</ele>
        <time>2015-07-14T07:32:44Z</time>
      </trkpt>
      <trkpt lat="44.34503" lon="6.24399">
        <ele>1105.6535645</ele>
        <time>2015-07-14T07:35:11Z</time>
      </trkpt>
      <trkpt lat="44.34503" lon="6.24399">
        <ele>1106.6147461</ele>
        <time>2015-07-14T07:35:13Z</time>
      </trkpt>
      <trkpt lat="44.34503" lon="6.24399">
        <ele>1107.095459</ele>
        <time>2015-07-14T07:35:38Z</time>
      </trkpt>
      <trkpt lat="44.34502" lon="6.24401">
        <ele>1109.0180664</ele>
        <time>2015-07-14T07:38:32Z</time>
      </trkpt>
      <trkpt lat="44.34495" lon="6.24415">
        <ele>1110.4599609</ele>
        <time>2015-07-14T07:38:41Z</time>
      </trkpt>
      <trkpt lat="44.34492" lon="6.24431">
        <ele>1111.9020996</ele>
        <time>2015-07-14T07:38:50Z</time>
      </trkpt>
      <trkpt lat="44.34495" lon="6.24454">
        <ele>1113.3439941</ele>
        <time>2015-07-14T07:39:04Z</time>
      </trkpt>
      <trkpt lat="44.34509" lon="6.24469">
        <ele>1115.2666016</ele>
        <time>2015-07-14T07:39:18Z</time>
      </trkpt>
      <trkpt lat="44.3453" lon="6.24474">
        <ele>1118.1506348</ele>
        <time>2015-07-14T07:39:37Z</time>
      </trkpt>
      <trkpt lat="44.34544" lon="6.24476">
        <ele>1120.5539551</ele>
        <time>2015-07-14T07:39:52Z</time>
      </trkpt>
      <trkpt lat="44.34553" lon="6.24474">
        <ele>1121.5151367</ele>
        <time>2015-07-14T07:40:02Z</time>
      </trkpt>
      <trkpt lat="44.34564" lon="6.24479">
        <ele>1123.918457</ele>
        <time>2015-07-14T07:40:18Z</time>
      </trkpt>
      <trkpt lat="44.34563" lon="6.24495">
        <ele>1126.3217773</ele>
        <time>2015-07-14T07:40:32Z</time>
      </trkpt>
      <trkpt lat="44.34557" lon="6.24519">
        <ele>1128.7250977</ele>
        <time>2015-07-14T07:40:49Z</time>
      </trkpt>
      <trkpt lat="44.34557" lon="6.2452">
        <ele>1129.2055664</ele>
        <time>2015-07-14T07:40:50Z</time>
      </trkpt>
      <trkpt lat="44.34558" lon="6.24523">
        <ele>1128.7250977</ele>
        <time>2015-07-14T07:40:52Z</time>
      </trkpt>
      <trkpt lat="44.34571" lon="6.24539">
        <ele>1130.1669922</ele>
        <time>2015-07-14T07:41:05Z</time>
      </trkpt>
      <trkpt lat="44.34572" lon="6.24541">
        <ele>1130.6477051</ele>
        <time>2015-07-14T07:41:07Z</time>
      </trkpt>
      <trkpt lat="44.34575" lon="6.24542">
        <ele>1130.6477051</ele>
        <time>2015-07-14T07:41:09Z</time>
      </trkpt>
      <trkpt lat="44.34588" lon="6.24555">
        <ele>1132.5705566</ele>
        <time>2015-07-14T07:41:23Z</time>
      </trkpt>
      <trkpt lat="44.34599" lon="6.24564">
        <ele>1133.5317383</ele>
        <time>2015-07-14T07:41:35Z</time>
      </trkpt>
      <trkpt lat="44.34612" lon="6.24569">
        <ele>1134.973877</ele>
        <time>2015-07-14T07:41:48Z</time>
      </trkpt>
      <trkpt lat="44.34631" lon="6.2458">
        <ele>1137.3769531</ele>
        <time>2015-07-14T07:42:06Z</time>
      </trkpt>
      <trkpt lat="44.34649" lon="6.24589">
        <ele>1139.2995605</ele>
        <time>2015-07-14T07:42:23Z</time>
      </trkpt>
      <trkpt lat="44.34671" lon="6.24596">
        <ele>1141.222168</ele>
        <time>2015-07-14T07:42:44Z</time>
      </trkpt>
      <trkpt lat="44.3468" lon="6.24596">
        <ele>1142.1835938</ele>
        <time>2015-07-14T07:42:52Z</time>
      </trkpt>
      <trkpt lat="44.34697" lon="6.24597">
        <ele>1144.1062012</ele>
        <time>2015-07-14T07:43:07Z</time>
      </trkpt>
      <trkpt lat="44.34698" lon="6.24597">
        <ele>1144.1062012</ele>
        <time>2015-07-14T07:43:08Z</time>
      </trkpt>
      <trkpt lat="44.34702" lon="6.24598">
        <ele>1144.1062012</ele>
        <time>2015-07-14T07:43:11Z</time>
      </trkpt>
      <trkpt lat="44.34711" lon="6.24603">
        <ele>1145.0673828</ele>
        <time>2015-07-14T07:43:18Z</time>
      </trkpt>
      <trkpt lat="44.34726" lon="6.24622">
        <ele>1146.5095215</ele>
        <time>2015-07-14T07:43:37Z</time>
      </trkpt>
      <trkpt lat="44.34721" lon="6.24632">
        <ele>1146.9899902</ele>
        <time>2015-07-14T07:43:44Z</time>
      </trkpt>
      <trkpt lat="44.34721" lon="6.24641">
        <ele>1147.951416</ele>
        <time>2015-07-14T07:43:50Z</time>
      </trkpt>
      <trkpt lat="44.34745" lon="6.24668">
        <ele>1149.3935547</ele>
        <time>2015-07-14T07:44:13Z</time>
      </trkpt>
      <trkpt lat="44.34751" lon="6.24672">
        <ele>1150.3549805</ele>
        <time>2015-07-14T07:44:20Z</time>
      </trkpt>
      <trkpt lat="44.34757" lon="6.24675">
        <ele>1150.8354492</ele>
        <time>2015-07-14T07:44:26Z</time>
      </trkpt>
      <trkpt lat="44.34762" lon="6.24675">
        <ele>1151.3161621</ele>
        <time>2015-07-14T07:44:31Z</time>
      </trkpt>
      <trkpt lat="44.34776" lon="6.24689">
        <ele>1152.7580566</ele>
        <time>2015-07-14T07:44:44Z</time>
      </trkpt>
      <trkpt lat="44.34777" lon="6.2469">
        <ele>1152.7580566</ele>
        <time>2015-07-14T07:44:45Z</time>
      </trkpt>
      <trkpt lat="44.34797" lon="6.24713">
        <ele>1154.2001953</ele>
        <time>2015-07-14T07:45:04Z</time>
      </trkpt>
      <trkpt lat="44.34809" lon="6.24719">
        <ele>1156.1225586</ele>
        <time>2015-07-14T07:45:15Z</time>
      </trkpt>
      <trkpt lat="44.34812" lon="6.24724">
        <ele>1156.1225586</ele>
        <time>2015-07-14T07:45:19Z</time>
      </trkpt>
      <trkpt lat="44.3483" lon="6.24743">
        <ele>1157.5646973</ele>
        <time>2015-07-14T07:45:36Z</time>
      </trkpt>
      <trkpt lat="44.34834" lon="6.24746">
        <ele>1158.5258789</ele>
        <time>2015-07-14T07:45:41Z</time>
      </trkpt>
      <trkpt lat="44.34853" lon="6.24763">
        <ele>1160.4484863</ele>
        <time>2015-07-14T07:46:01Z</time>
      </trkpt>
      <trkpt lat="44.34866" lon="6.24772">
        <ele>1161.4099121</ele>
        <time>2015-07-14T07:46:13Z</time>
      </trkpt>
      <trkpt lat="44.3489" lon="6.24788">
        <ele>1163.8129883</ele>
        <time>2015-07-14T07:46:34Z</time>
      </trkpt>
      <trkpt lat="44.34897" lon="6.248">
        <ele>1164.7746582</ele>
        <time>2015-07-14T07:46:43Z</time>
      </trkpt>
      <trkpt lat="44.34899" lon="6.24805">
        <ele>1164.7746582</ele>
        <time>2015-07-14T07:46:47Z</time>
      </trkpt>
      <trkpt lat="44.34912" lon="6.24822">
        <ele>1165.736084</ele>
        <time>2015-07-14T07:47:01Z</time>
      </trkpt>
      <trkpt lat="44.34914" lon="6.24822">
        <ele>1166.2165527</ele>
        <time>2015-07-14T07:47:03Z</time>
      </trkpt>
      <trkpt lat="44.34926" lon="6.24834">
        <ele>1167.1779785</ele>
        <time>2015-07-14T07:47:17Z</time>
      </trkpt>
      <trkpt lat="44.34946" lon="6.24855">
        <ele>1169.5812988</ele>
        <time>2015-07-14T07:47:36Z</time>
      </trkpt>
      <trkpt lat="44.34952" lon="6.24886">
        <ele>1171.984375</ele>
        <time>2015-07-14T07:47:56Z</time>
      </trkpt>
      <trkpt lat="44.34969" lon="6.24907">
        <ele>1174.3876953</ele>
        <time>2015-07-14T07:48:14Z</time>
      </trkpt>
      <trkpt lat="44.34991" lon="6.24921">
        <ele>1177.2717285</ele>
        <time>2015-07-14T07:48:34Z</time>
      </trkpt>
      <trkpt lat="44.35007" lon="6.24946">
        <ele>1179.1940918</ele>
        <time>2015-07-14T07:48:53Z</time>
      </trkpt>
      <trkpt lat="44.35018" lon="6.24973">
        <ele>1180.6364746</ele>
        <time>2015-07-14T07:49:13Z</time>
      </trkpt>
      <trkpt lat="44.35028" lon="6.24978">
        <ele>1181.1171875</ele>
        <time>2015-07-14T07:49:20Z</time>
      </trkpt>
      <trkpt lat="44.3503" lon="6.24982">
        <ele>1181.1171875</ele>
        <time>2015-07-14T07:49:23Z</time>
      </trkpt>
      <trkpt lat="44.35053" lon="6.24989">
        <ele>1182.559082</ele>
        <time>2015-07-14T07:49:41Z</time>
      </trkpt>
      <trkpt lat="44.35082" lon="6.25003">
        <ele>1185.4428711</ele>
        <time>2015-07-14T07:50:06Z</time>
      </trkpt>
      <trkpt lat="44.35108" lon="6.24998">
        <ele>1186.8847656</ele>
        <time>2015-07-14T07:50:27Z</time>
      </trkpt>
      <trkpt lat="44.35137" lon="6.25001">
        <ele>1188.3269043</ele>
        <time>2015-07-14T07:50:51Z</time>
      </trkpt>
      <trkpt lat="44.35166" lon="6.25007">
        <ele>1190.2495117</ele>
        <time>2015-07-14T07:51:15Z</time>
      </trkpt>
      <trkpt lat="44.35185" lon="6.24993">
        <ele>1192.1721191</ele>
        <time>2015-07-14T07:51:34Z</time>
      </trkpt>
      <trkpt lat="44.35203" lon="6.24986">
        <ele>1193.1333008</ele>
        <time>2015-07-14T07:51:51Z</time>
      </trkpt>
      <trkpt lat="44.35229" lon="6.24983">
        <ele>1194.0947266</ele>
        <time>2015-07-14T07:52:11Z</time>
      </trkpt>
      <trkpt lat="44.3523" lon="6.24997">
        <ele>1195.0559082</ele>
        <time>2015-07-14T07:52:19Z</time>
      </trkpt>
      <trkpt lat="44.35216" lon="6.25039">
        <ele>1196.0175781</ele>
        <time>2015-07-14T07:52:44Z</time>
      </trkpt>
      <trkpt lat="44.3522" lon="6.25077">
        <ele>1196.0175781</ele>
        <time>2015-07-14T07:53:06Z</time>
      </trkpt>
      <trkpt lat="44.35233" lon="6.25109">
        <ele>1197.9401855</ele>
        <time>2015-07-14T07:53:26Z</time>
      </trkpt>
      <trkpt lat="44.35234" lon="6.25144">
        <ele>1201.3046875</ele>
        <time>2015-07-14T07:53:48Z</time>
      </trkpt>
      <trkpt lat="44.35232" lon="6.25168">
        <ele>1203.2272949</ele>
        <time>2015-07-14T07:54:04Z</time>
      </trkpt>
      <trkpt lat="44.35244" lon="6.25195">
        <ele>1207.0725098</ele>
        <time>2015-07-14T07:54:23Z</time>
      </trkpt>
      <trkpt lat="44.35271" lon="6.25217">
        <ele>1209.4758301</ele>
        <time>2015-07-14T07:54:51Z</time>
      </trkpt>
      <trkpt lat="44.35274" lon="6.25217">
        <ele>1209.9562988</ele>
        <time>2015-07-14T07:54:54Z</time>
      </trkpt>
      <trkpt lat="44.35301" lon="6.25224">
        <ele>1212.8405762</ele>
        <time>2015-07-14T07:55:18Z</time>
      </trkpt>
      <trkpt lat="44.35321" lon="6.2524">
        <ele>1215.7246094</ele>
        <time>2015-07-14T07:55:39Z</time>
      </trkpt>
      <trkpt lat="44.35332" lon="6.25255">
        <ele>1218.1276855</ele>
        <time>2015-07-14T07:55:55Z</time>
      </trkpt>
      <trkpt lat="44.35336" lon="6.25289">
        <ele>1220.5310059</ele>
        <time>2015-07-14T07:56:19Z</time>
      </trkpt>
      <trkpt lat="44.35337" lon="6.25301">
        <ele>1221.4921875</ele>
        <time>2015-07-14T07:56:27Z</time>
      </trkpt>
      <trkpt lat="44.35345" lon="6.25333">
        <ele>1223.8955078</ele>
        <time>2015-07-14T07:56:48Z</time>
      </trkpt>
      <trkpt lat="44.35357" lon="6.2536">
        <ele>1226.779541</ele>
        <time>2015-07-14T07:57:09Z</time>
      </trkpt>
      <trkpt lat="44.3536" lon="6.25365">
        <ele>1227.2602539</ele>
        <time>2015-07-14T07:57:13Z</time>
      </trkpt>
      <trkpt lat="44.35378" lon="6.25388">
        <ele>1230.1442871</ele>
        <time>2015-07-14T07:57:36Z</time>
      </trkpt>
      <trkpt lat="44.35386" lon="6.25395">
        <ele>1231.5861816</ele>
        <time>2015-07-14T07:57:45Z</time>
      </trkpt>
      <trkpt lat="44.35389" lon="6.25396">
        <ele>1231.5861816</ele>
        <time>2015-07-14T07:57:48Z</time>
      </trkpt>
      <trkpt lat="44.35407" lon="6.25415">
        <ele>1234.9509277</ele>
        <time>2015-07-14T07:58:10Z</time>
      </trkpt>
      <trkpt lat="44.35426" lon="6.25426">
        <ele>1237.8347168</ele>
        <time>2015-07-14T07:58:32Z</time>
      </trkpt>
      <trkpt lat="44.35447" lon="6.25441">
        <ele>1240.2380371</ele>
        <time>2015-07-14T07:58:53Z</time>
      </trkpt>
      <trkpt lat="44.35463" lon="6.25464">
        <ele>1243.6025391</ele>
        <time>2015-07-14T07:59:14Z</time>
      </trkpt>
      <trkpt lat="44.3548" lon="6.25497">
        <ele>1246.9672852</ele>
        <time>2015-07-14T07:59:42Z</time>
      </trkpt>
      <trkpt lat="44.35491" lon="6.25534">
        <ele>1249.3706055</ele>
        <time>2015-07-14T08:00:11Z</time>
      </trkpt>
      <trkpt lat="44.35493" lon="6.25564">
        <ele>1252.2543945</ele>
        <time>2015-07-14T08:00:30Z</time>
      </trkpt>
      <trkpt lat="44.355" lon="6.2558">
        <ele>1254.1772461</ele>
        <time>2015-07-14T08:00:42Z</time>
      </trkpt>
      <trkpt lat="44.35501" lon="6.25592">
        <ele>1255.6191406</ele>
        <time>2015-07-14T08:00:50Z</time>
      </trkpt>
      <trkpt lat="44.3552" lon="6.25609">
        <ele>1258.9836426</ele>
        <time>2015-07-14T08:01:12Z</time>
      </trkpt>
      <trkpt lat="44.35527" lon="6.25615">
        <ele>1258.9836426</ele>
        <time>2015-07-14T08:01:30Z</time>
      </trkpt>
      <trkpt lat="44.35527" lon="6.25615">
        <ele>1259.9448242</ele>
        <time>2015-07-14T08:01:58Z</time>
      </trkpt>
      <trkpt lat="44.3553" lon="6.25616">
        <ele>1260.4257813</ele>
        <time>2015-07-14T08:02:20Z</time>
      </trkpt>
      <trkpt lat="44.3553" lon="6.25618">
        <ele>1260.9064941</ele>
        <time>2015-07-14T08:02:51Z</time>
      </trkpt>
      <trkpt lat="44.35544" lon="6.25644">
        <ele>1263.3098145</ele>
        <time>2015-07-14T08:03:10Z</time>
      </trkpt>
      <trkpt lat="44.35548" lon="6.25676">
        <ele>1266.1936035</ele>
        <time>2015-07-14T08:03:30Z</time>
      </trkpt>
      <trkpt lat="44.35553" lon="6.25707">
        <ele>1269.0776367</ele>
        <time>2015-07-14T08:03:50Z</time>
      </trkpt>
      <trkpt lat="44.35569" lon="6.25736">
        <ele>1272.4421387</ele>
        <time>2015-07-14T08:04:11Z</time>
      </trkpt>
      <trkpt lat="44.35581" lon="6.25761">
        <ele>1275.3259277</ele>
        <time>2015-07-14T08:04:32Z</time>
      </trkpt>
      <trkpt lat="44.35595" lon="6.25788">
        <ele>1278.2102051</ele>
        <time>2015-07-14T08:04:53Z</time>
      </trkpt>
      <trkpt lat="44.35601" lon="6.25805">
        <ele>1280.1328125</ele>
        <time>2015-07-14T08:05:07Z</time>
      </trkpt>
      <trkpt lat="44.35603" lon="6.25809">
        <ele>1280.6135254</ele>
        <time>2015-07-14T08:05:10Z</time>
      </trkpt>
      <trkpt lat="44.35608" lon="6.25833">
        <ele>1283.0166016</ele>
        <time>2015-07-14T08:05:28Z</time>
      </trkpt>
      <trkpt lat="44.35619" lon="6.25858">
        <ele>1285.9006348</ele>
        <time>2015-07-14T08:05:48Z</time>
      </trkpt>
      <trkpt lat="44.35623" lon="6.25884">
        <ele>1289.2651367</ele>
        <time>2015-07-14T08:06:06Z</time>
      </trkpt>
      <trkpt lat="44.35616" lon="6.25906">
        <ele>1291.668457</ele>
        <time>2015-07-14T08:06:24Z</time>
      </trkpt>
      <trkpt lat="44.35604" lon="6.2592">
        <ele>1294.5524902</ele>
        <time>2015-07-14T08:06:39Z</time>
      </trkpt>
      <trkpt lat="44.35597" lon="6.25927">
        <ele>1295.513916</ele>
        <time>2015-07-14T08:06:55Z</time>
      </trkpt>
      <trkpt lat="44.35589" lon="6.25928">
        <ele>1296.9558105</ele>
        <time>2015-07-14T08:07:11Z</time>
      </trkpt>
      <trkpt lat="44.35584" lon="6.25927">
        <ele>1297.4365234</ele>
        <time>2015-07-14T08:07:33Z</time>
      </trkpt>
      <trkpt lat="44.35586" lon="6.25929">
        <ele>1297.9172363</ele>
        <time>2015-07-14T08:07:51Z</time>
      </trkpt>
      <trkpt lat="44.35586" lon="6.25931">
        <ele>1296.9558105</ele>
        <time>2015-07-14T08:08:04Z</time>
      </trkpt>
      <trkpt lat="44.35583" lon="6.25931">
        <ele>1296.4753418</ele>
        <time>2015-07-14T08:08:14Z</time>
      </trkpt>
      <trkpt lat="44.35585" lon="6.2593">
        <ele>1297.9172363</ele>
        <time>2015-07-14T08:08:38Z</time>
      </trkpt>
      <trkpt lat="44.35585" lon="6.25927">
        <ele>1297.4365234</ele>
        <time>2015-07-14T08:09:04Z</time>
      </trkpt>
      <trkpt lat="44.35584" lon="6.25924">
        <ele>1297.9172363</ele>
        <time>2015-07-14T08:10:03Z</time>
      </trkpt>
      <trkpt lat="44.35587" lon="6.25929">
        <ele>1297.9172363</ele>
        <time>2015-07-14T08:10:56Z</time>
      </trkpt>
      <trkpt lat="44.35572" lon="6.2592">
        <ele>1298.3977051</ele>
        <time>2015-07-14T08:11:37Z</time>
      </trkpt>
      <trkpt lat="44.35568" lon="6.25922">
        <ele>1298.878418</ele>
        <time>2015-07-14T08:12:21Z</time>
      </trkpt>
      <trkpt lat="44.35578" lon="6.25925">
        <ele>1300.3205566</ele>
        <time>2015-07-14T08:15:34Z</time>
      </trkpt>
      <trkpt lat="44.35578" lon="6.25927">
        <ele>1298.3977051</ele>
        <time>2015-07-14T08:17:21Z</time>
      </trkpt>
      <trkpt lat="44.35578" lon="6.25927">
        <ele>1302.2429199</ele>
        <time>2015-07-14T08:17:23Z</time>
      </trkpt>
      <trkpt lat="44.35578" lon="6.25926">
        <ele>1302.2429199</ele>
        <time>2015-07-14T08:17:24Z</time>
      </trkpt>
      <trkpt lat="44.35577" lon="6.25926">
        <ele>1302.7236328</ele>
        <time>2015-07-14T08:17:41Z</time>
      </trkpt>
      <trkpt lat="44.35573" lon="6.25925">
        <ele>1303.2043457</ele>
        <time>2015-07-14T08:17:46Z</time>
      </trkpt>
      <trkpt lat="44.35564" lon="6.25915">
        <ele>1304.6462402</ele>
        <time>2015-07-14T08:17:58Z</time>
      </trkpt>
      <trkpt lat="44.35557" lon="6.25904">
        <ele>1306.5688477</ele>
        <time>2015-07-14T08:18:11Z</time>
      </trkpt>
      <trkpt lat="44.35562" lon="6.25898">
        <ele>1306.0881348</ele>
        <time>2015-07-14T08:18:23Z</time>
      </trkpt>
      <trkpt lat="44.3556" lon="6.25894">
        <ele>1306.5688477</ele>
        <time>2015-07-14T08:18:47Z</time>
      </trkpt>
      <trkpt lat="44.35558" lon="6.25892">
        <ele>1307.5302734</ele>
        <time>2015-07-14T08:19:05Z</time>
      </trkpt>
      <trkpt lat="44.35552" lon="6.25894">
        <ele>1308.0112305</ele>
        <time>2015-07-14T08:19:08Z</time>
      </trkpt>
      <trkpt lat="44.35548" lon="6.25892">
        <ele>1308.4916992</ele>
        <time>2015-07-14T08:19:13Z</time>
      </trkpt>
      <trkpt lat="44.35543" lon="6.25884">
        <ele>1310.8950195</ele>
        <time>2015-07-14T08:19:25Z</time>
      </trkpt>
      <trkpt lat="44.35531" lon="6.2587">
        <ele>1314.2595215</ele>
        <time>2015-07-14T08:19:41Z</time>
      </trkpt>
      <trkpt lat="44.35521" lon="6.25863">
        <ele>1315.7016602</ele>
        <time>2015-07-14T08:19:51Z</time>
      </trkpt>
      <trkpt lat="44.35518" lon="6.25859">
        <ele>1316.6628418</ele>
        <time>2015-07-14T08:19:56Z</time>
      </trkpt>
      <trkpt lat="44.35513" lon="6.25854">
        <ele>1317.6240234</ele>
        <time>2015-07-14T08:20:02Z</time>
      </trkpt>
      <trkpt lat="44.35506" lon="6.2584">
        <ele>1319.546875</ele>
        <time>2015-07-14T08:20:12Z</time>
      </trkpt>
      <trkpt lat="44.35501" lon="6.25835">
        <ele>1320.0273438</ele>
        <time>2015-07-14T08:20:18Z</time>
      </trkpt>
      <trkpt lat="44.35493" lon="6.2585">
        <ele>1322.4306641</ele>
        <time>2015-07-14T08:20:32Z</time>
      </trkpt>
      <trkpt lat="44.35501" lon="6.25862">
        <ele>1322.4306641</ele>
        <time>2015-07-14T08:20:41Z</time>
      </trkpt>
      <trkpt lat="44.35514" lon="6.25871">
        <ele>1323.3920898</ele>
        <time>2015-07-14T08:20:51Z</time>
      </trkpt>
      <trkpt lat="44.35519" lon="6.2588">
        <ele>1323.8725586</ele>
        <time>2015-07-14T08:20:57Z</time>
      </trkpt>
      <trkpt lat="44.35522" lon="6.25884">
        <ele>1324.3535156</ele>
        <time>2015-07-14T08:21:00Z</time>
      </trkpt>
      <trkpt lat="44.35524" lon="6.25888">
        <ele>1324.3535156</ele>
        <time>2015-07-14T08:21:03Z</time>
      </trkpt>
      <trkpt lat="44.35528" lon="6.25894">
        <ele>1324.3535156</ele>
        <time>2015-07-14T08:21:07Z</time>
      </trkpt>
      <trkpt lat="44.35536" lon="6.25898">
        <ele>1324.8342285</ele>
        <time>2015-07-14T08:21:12Z</time>
      </trkpt>
      <trkpt lat="44.3554" lon="6.25902">
        <ele>1325.3146973</ele>
        <time>2015-07-14T08:21:16Z</time>
      </trkpt>
      <trkpt lat="44.35545" lon="6.25905">
        <ele>1325.3146973</ele>
        <time>2015-07-14T08:21:20Z</time>
      </trkpt>
      <trkpt lat="44.35551" lon="6.25909">
        <ele>1325.7954102</ele>
        <time>2015-07-14T08:21:25Z</time>
      </trkpt>
      <trkpt lat="44.35549" lon="6.25919">
        <ele>1326.276123</ele>
        <time>2015-07-14T08:21:29Z</time>
      </trkpt>
      <trkpt lat="44.35554" lon="6.25926">
        <ele>1327.2375488</ele>
        <time>2015-07-14T08:21:35Z</time>
      </trkpt>
      <trkpt lat="44.35557" lon="6.25945">
        <ele>1327.2375488</ele>
        <time>2015-07-14T08:21:45Z</time>
      </trkpt>
      <trkpt lat="44.35557" lon="6.25949">
        <ele>1328.1987305</ele>
        <time>2015-07-14T08:21:48Z</time>
      </trkpt>
      <trkpt lat="44.35558" lon="6.25953">
        <ele>1327.7180176</ele>
        <time>2015-07-14T08:21:50Z</time>
      </trkpt>
      <trkpt lat="44.35558" lon="6.2596">
        <ele>1328.1987305</ele>
        <time>2015-07-14T08:21:53Z</time>
      </trkpt>
      <trkpt lat="44.35559" lon="6.25966">
        <ele>1328.1987305</ele>
        <time>2015-07-14T08:21:57Z</time>
      </trkpt>
      <trkpt lat="44.35558" lon="6.25994">
        <ele>1329.1599121</ele>
        <time>2015-07-14T08:22:10Z</time>
      </trkpt>
      <trkpt lat="44.3556" lon="6.26005">
        <ele>1329.640625</ele>
        <time>2015-07-14T08:22:16Z</time>
      </trkpt>
      <trkpt lat="44.3556" lon="6.26012">
        <ele>1330.1213379</ele>
        <time>2015-07-14T08:22:20Z</time>
      </trkpt>
      <trkpt lat="44.35568" lon="6.26023">
        <ele>1331.0827637</ele>
        <time>2015-07-14T08:22:29Z</time>
      </trkpt>
      <trkpt lat="44.35573" lon="6.26026">
        <ele>1331.5632324</ele>
        <time>2015-07-14T08:22:33Z</time>
      </trkpt>
      <trkpt lat="44.35579" lon="6.26047">
        <ele>1333.005127</ele>
        <time>2015-07-14T08:22:47Z</time>
      </trkpt>
      <trkpt lat="44.35582" lon="6.26052">
        <ele>1333.4858398</ele>
        <time>2015-07-14T08:22:51Z</time>
      </trkpt>
      <trkpt lat="44.35576" lon="6.26066">
        <ele>1334.9279785</ele>
        <time>2015-07-14T08:22:56Z</time>
      </trkpt>
      <trkpt lat="44.35578" lon="6.26071">
        <ele>1335.4084473</ele>
        <time>2015-07-14T08:23:00Z</time>
      </trkpt>
      <trkpt lat="44.35586" lon="6.26085">
        <ele>1336.8503418</ele>
        <time>2015-07-14T08:23:11Z</time>
      </trkpt>
      <trkpt lat="44.35591" lon="6.26092">
        <ele>1337.8117676</ele>
        <time>2015-07-14T08:23:18Z</time>
      </trkpt>
      <trkpt lat="44.35594" lon="6.26106">
        <ele>1339.2536621</ele>
        <time>2015-07-14T08:23:28Z</time>
      </trkpt>
      <trkpt lat="44.35596" lon="6.26107">
        <ele>1339.734375</ele>
        <time>2015-07-14T08:23:30Z</time>
      </trkpt>
      <trkpt lat="44.35597" lon="6.2611">
        <ele>1339.734375</ele>
        <time>2015-07-14T08:23:32Z</time>
      </trkpt>
      <trkpt lat="44.35598" lon="6.26114">
        <ele>1340.215332</ele>
        <time>2015-07-14T08:23:35Z</time>
      </trkpt>
      <trkpt lat="44.35597" lon="6.26128">
        <ele>1341.1765137</ele>
        <time>2015-07-14T08:23:43Z</time>
      </trkpt>
      <trkpt lat="44.35607" lon="6.26114">
        <ele>1342.1379395</ele>
        <time>2015-07-14T08:23:59Z</time>
      </trkpt>
      <trkpt lat="44.3562" lon="6.26096">
        <ele>1342.1379395</ele>
        <time>2015-07-14T08:24:09Z</time>
      </trkpt>
      <trkpt lat="44.3564" lon="6.26064">
        <ele>1342.1379395</ele>
        <time>2015-07-14T08:24:25Z</time>
      </trkpt>
      <trkpt lat="44.35666" lon="6.26038">
        <ele>1342.6186523</ele>
        <time>2015-07-14T08:24:40Z</time>
      </trkpt>
      <trkpt lat="44.35688" lon="6.26007">
        <ele>1342.1379395</ele>
        <time>2015-07-14T08:24:53Z</time>
      </trkpt>
      <trkpt lat="44.357" lon="6.25958">
        <ele>1343.0991211</ele>
        <time>2015-07-14T08:25:12Z</time>
      </trkpt>
      <trkpt lat="44.35719" lon="6.25891">
        <ele>1344.0605469</ele>
        <time>2015-07-14T08:25:37Z</time>
      </trkpt>
      <trkpt lat="44.35733" lon="6.25842">
        <ele>1344.5410156</ele>
        <time>2015-07-14T08:25:55Z</time>
      </trkpt>
      <trkpt lat="44.35741" lon="6.25792">
        <ele>1346.4638672</ele>
        <time>2015-07-14T08:26:15Z</time>
      </trkpt>
      <trkpt lat="44.3574" lon="6.25749">
        <ele>1346.9443359</ele>
        <time>2015-07-14T08:26:33Z</time>
      </trkpt>
      <trkpt lat="44.35725" lon="6.25705">
        <ele>1347.9057617</ele>
        <time>2015-07-14T08:26:51Z</time>
      </trkpt>
      <trkpt lat="44.35726" lon="6.25659">
        <ele>1349.3476563</ele>
        <time>2015-07-14T08:27:08Z</time>
      </trkpt>
      <trkpt lat="44.35721" lon="6.25609">
        <ele>1350.309082</ele>
        <time>2015-07-14T08:27:28Z</time>
      </trkpt>
      <trkpt lat="44.35717" lon="6.25564">
        <ele>1351.7509766</ele>
        <time>2015-07-14T08:27:47Z</time>
      </trkpt>
      <trkpt lat="44.35709" lon="6.25518">
        <ele>1354.1542969</ele>
        <time>2015-07-14T08:28:09Z</time>
      </trkpt>
      <trkpt lat="44.3571" lon="6.25472">
        <ele>1355.5961914</ele>
        <time>2015-07-14T08:28:30Z</time>
      </trkpt>
      <trkpt lat="44.35714" lon="6.25428">
        <ele>1357.519043</ele>
        <time>2015-07-14T08:28:51Z</time>
      </trkpt>
      <trkpt lat="44.35702" lon="6.25402">
        <ele>1358.4802246</ele>
        <time>2015-07-14T08:29:05Z</time>
      </trkpt>
      <trkpt lat="44.35695" lon="6.25354">
        <ele>1360.402832</ele>
        <time>2015-07-14T08:29:27Z</time>
      </trkpt>
      <trkpt lat="44.35712" lon="6.25321">
        <ele>1361.3642578</ele>
        <time>2015-07-14T08:29:45Z</time>
      </trkpt>
      <trkpt lat="44.3573" lon="6.25285">
        <ele>1362.3254395</ele>
        <time>2015-07-14T08:30:04Z</time>
      </trkpt>
      <trkpt lat="44.35734" lon="6.2524">
        <ele>1364.2480469</ele>
        <time>2015-07-14T08:30:24Z</time>
      </trkpt>
      <trkpt lat="44.35746" lon="6.25196">
        <ele>1365.6901855</ele>
        <time>2015-07-14T08:30:43Z</time>
      </trkpt>
      <trkpt lat="44.35758" lon="6.25151">
        <ele>1366.6513672</ele>
        <time>2015-07-14T08:31:04Z</time>
      </trkpt>
      <trkpt lat="44.3576" lon="6.25145">
        <ele>1367.6125488</ele>
        <time>2015-07-14T08:31:07Z</time>
      </trkpt>
      <trkpt lat="44.35763" lon="6.25121">
        <ele>1368.0932617</ele>
        <time>2015-07-14T08:31:19Z</time>
      </trkpt>
      <trkpt lat="44.35785" lon="6.25071">
        <ele>1370.0158691</ele>
        <time>2015-07-14T08:31:44Z</time>
      </trkpt>
      <trkpt lat="44.35804" lon="6.25045">
        <ele>1370.496582</ele>
        <time>2015-07-14T08:31:59Z</time>
      </trkpt>
      <trkpt lat="44.35803" lon="6.25034">
        <ele>1370.9772949</ele>
        <time>2015-07-14T08:32:04Z</time>
      </trkpt>
      <trkpt lat="44.35804" lon="6.25025">
        <ele>1370.9772949</ele>
        <time>2015-07-14T08:32:08Z</time>
      </trkpt>
      <trkpt lat="44.35803" lon="6.25018">
        <ele>1371.4577637</ele>
        <time>2015-07-14T08:32:11Z</time>
      </trkpt>
      <trkpt lat="44.358" lon="6.2501">
        <ele>1372.4194336</ele>
        <time>2015-07-14T08:32:29Z</time>
      </trkpt>
      <trkpt lat="44.35791" lon="6.25003">
        <ele>1372.9001465</ele>
        <time>2015-07-14T08:33:02Z</time>
      </trkpt>
      <trkpt lat="44.35789" lon="6.24992">
        <ele>1372.9001465</ele>
        <time>2015-07-14T08:33:18Z</time>
      </trkpt>
      <trkpt lat="44.35789" lon="6.24978">
        <ele>1374.342041</ele>
        <time>2015-07-14T08:33:38Z</time>
      </trkpt>
      <trkpt lat="44.35787" lon="6.24975">
        <ele>1373.3808594</ele>
        <time>2015-07-14T08:33:51Z</time>
      </trkpt>
      <trkpt lat="44.35785" lon="6.24975">
        <ele>1374.8227539</ele>
        <time>2015-07-14T08:35:15Z</time>
      </trkpt>
      <trkpt lat="44.35789" lon="6.24973">
        <ele>1375.7839355</ele>
        <time>2015-07-14T08:35:25Z</time>
      </trkpt>
      <trkpt lat="44.35789" lon="6.24973">
        <ele>1376.2646484</ele>
        <time>2015-07-14T08:35:40Z</time>
      </trkpt>
      <trkpt lat="44.35789" lon="6.24974">
        <ele>1376.2646484</ele>
        <time>2015-07-14T08:35:49Z</time>
      </trkpt>
      <trkpt lat="44.35802" lon="6.24946">
        <ele>1377.706543</ele>
        <time>2015-07-14T08:36:13Z</time>
      </trkpt>
      <trkpt lat="44.35799" lon="6.24931">
        <ele>1378.6679688</ele>
        <time>2015-07-14T08:36:26Z</time>
      </trkpt>
      <trkpt lat="44.35797" lon="6.2489">
        <ele>1379.6291504</ele>
        <time>2015-07-14T08:36:43Z</time>
      </trkpt>
      <trkpt lat="44.35804" lon="6.24859">
        <ele>1381.0712891</ele>
        <time>2015-07-14T08:36:57Z</time>
      </trkpt>
      <trkpt lat="44.35794" lon="6.2483">
        <ele>1381.5517578</ele>
        <time>2015-07-14T08:37:11Z</time>
      </trkpt>
      <trkpt lat="44.35774" lon="6.24812">
        <ele>1382.5131836</ele>
        <time>2015-07-14T08:37:24Z</time>
      </trkpt>
      <trkpt lat="44.35759" lon="6.24784">
        <ele>1383.9550781</ele>
        <time>2015-07-14T08:37:40Z</time>
      </trkpt>
      <trkpt lat="44.35758" lon="6.24783">
        <ele>1383.4743652</ele>
        <time>2015-07-14T08:37:41Z</time>
      </trkpt>
      <trkpt lat="44.35729" lon="6.24781">
        <ele>1384.435791</ele>
        <time>2015-07-14T08:37:57Z</time>
      </trkpt>
      <trkpt lat="44.35698" lon="6.24795">
        <ele>1385.3969727</ele>
        <time>2015-07-14T08:38:15Z</time>
      </trkpt>
      <trkpt lat="44.35684" lon="6.2481">
        <ele>1387.3195801</ele>
        <time>2015-07-14T08:38:32Z</time>
      </trkpt>
      <trkpt lat="44.35667" lon="6.2477">
        <ele>1389.2424316</ele>
        <time>2015-07-14T08:38:50Z</time>
      </trkpt>
      <trkpt lat="44.35652" lon="6.24714">
        <ele>1389.7231445</ele>
        <time>2015-07-14T08:39:12Z</time>
      </trkpt>
      <trkpt lat="44.3562" lon="6.24701">
        <ele>1392.1264648</ele>
        <time>2015-07-14T08:39:30Z</time>
      </trkpt>
      <trkpt lat="44.35608" lon="6.24692">
        <ele>1393.0876465</ele>
        <time>2015-07-14T08:39:39Z</time>
      </trkpt>
      <trkpt lat="44.35607" lon="6.24683">
        <ele>1392.1264648</ele>
        <time>2015-07-14T08:39:43Z</time>
      </trkpt>
      <trkpt lat="44.35608" lon="6.24641">
        <ele>1392.6071777</ele>
        <time>2015-07-14T08:39:58Z</time>
      </trkpt>
      <trkpt lat="44.35589" lon="6.24611">
        <ele>1394.529541</ele>
        <time>2015-07-14T08:40:15Z</time>
      </trkpt>
      <trkpt lat="44.35553" lon="6.24614">
        <ele>1396.4523926</ele>
        <time>2015-07-14T08:40:38Z</time>
      </trkpt>
      <trkpt lat="44.35524" lon="6.24612">
        <ele>1398.8554688</ele>
        <time>2015-07-14T08:40:59Z</time>
      </trkpt>
      <trkpt lat="44.35517" lon="6.24573">
        <ele>1400.7780762</ele>
        <time>2015-07-14T08:41:20Z</time>
      </trkpt>
      <trkpt lat="44.35522" lon="6.24527">
        <ele>1402.2199707</ele>
        <time>2015-07-14T08:41:42Z</time>
      </trkpt>
      <trkpt lat="44.35529" lon="6.24493">
        <ele>1403.1813965</ele>
        <time>2015-07-14T08:41:58Z</time>
      </trkpt>
      <trkpt lat="44.3554" lon="6.24456">
        <ele>1404.6235352</ele>
        <time>2015-07-14T08:42:16Z</time>
      </trkpt>
      <trkpt lat="44.35568" lon="6.24437">
        <ele>1405.5849609</ele>
        <time>2015-07-14T08:42:35Z</time>
      </trkpt>
      <trkpt lat="44.35585" lon="6.24405">
        <ele>1407.0268555</ele>
        <time>2015-07-14T08:42:52Z</time>
      </trkpt>
      <trkpt lat="44.3561" lon="6.24406">
        <ele>1408.46875</ele>
        <time>2015-07-14T08:43:07Z</time>
      </trkpt>
      <trkpt lat="44.35642" lon="6.2441">
        <ele>1410.8720703</ele>
        <time>2015-07-14T08:43:30Z</time>
      </trkpt>
      <trkpt lat="44.35652" lon="6.2441">
        <ele>1410.8720703</ele>
        <time>2015-07-14T08:43:37Z</time>
      </trkpt>
      <trkpt lat="44.35666" lon="6.24377">
        <ele>1413.7558594</ele>
        <time>2015-07-14T08:43:57Z</time>
      </trkpt>
      <trkpt lat="44.35687" lon="6.24358">
        <ele>1415.6787109</ele>
        <time>2015-07-14T08:44:15Z</time>
      </trkpt>
      <trkpt lat="44.35714" lon="6.24339">
        <ele>1418.0817871</ele>
        <time>2015-07-14T08:44:38Z</time>
      </trkpt>
      <trkpt lat="44.3574" lon="6.24327">
        <ele>1420.4853516</ele>
        <time>2015-07-14T08:45:00Z</time>
      </trkpt>
      <trkpt lat="44.35755" lon="6.24302">
        <ele>1422.8886719</ele>
        <time>2015-07-14T08:45:20Z</time>
      </trkpt>
      <trkpt lat="44.35785" lon="6.24289">
        <ele>1425.291748</ele>
        <time>2015-07-14T08:45:44Z</time>
      </trkpt>
      <trkpt lat="44.35804" lon="6.24259">
        <ele>1427.2145996</ele>
        <time>2015-07-14T08:46:06Z</time>
      </trkpt>
      <trkpt lat="44.35827" lon="6.24236">
        <ele>1429.6176758</ele>
        <time>2015-07-14T08:46:29Z</time>
      </trkpt>
      <trkpt lat="44.35838" lon="6.24221">
        <ele>1430.5791016</ele>
        <time>2015-07-14T08:46:41Z</time>
      </trkpt>
      <trkpt lat="44.35844" lon="6.24201">
        <ele>1432.501709</ele>
        <time>2015-07-14T08:46:54Z</time>
      </trkpt>
      <trkpt lat="44.35845" lon="6.242">
        <ele>1432.9821777</ele>
        <time>2015-07-14T08:46:56Z</time>
      </trkpt>
      <trkpt lat="44.35845" lon="6.24196">
        <ele>1433.4628906</ele>
        <time>2015-07-14T08:46:58Z</time>
      </trkpt>
      <trkpt lat="44.35853" lon="6.24181">
        <ele>1433.9436035</ele>
        <time>2015-07-14T08:47:09Z</time>
      </trkpt>
      <trkpt lat="44.35857" lon="6.24171">
        <ele>1434.9050293</ele>
        <time>2015-07-14T08:47:16Z</time>
      </trkpt>
      <trkpt lat="44.35858" lon="6.24165">
        <ele>1435.8662109</ele>
        <time>2015-07-14T08:47:20Z</time>
      </trkpt>
      <trkpt lat="44.35863" lon="6.24146">
        <ele>1436.8276367</ele>
        <time>2015-07-14T08:47:34Z</time>
      </trkpt>
      <trkpt lat="44.35863" lon="6.24141">
        <ele>1437.3083496</ele>
        <time>2015-07-14T08:47:37Z</time>
      </trkpt>
      <trkpt lat="44.35868" lon="6.24125">
        <ele>1438.2697754</ele>
        <time>2015-07-14T08:47:46Z</time>
      </trkpt>
      <trkpt lat="44.35869" lon="6.24085">
        <ele>1441.1535645</ele>
        <time>2015-07-14T08:48:09Z</time>
      </trkpt>
      <trkpt lat="44.35872" lon="6.24073">
        <ele>1442.1149902</ele>
        <time>2015-07-14T08:48:16Z</time>
      </trkpt>
      <trkpt lat="44.35882" lon="6.24047">
        <ele>1443.5568848</ele>
        <time>2015-07-14T08:48:33Z</time>
      </trkpt>
      <trkpt lat="44.35877" lon="6.24028">
        <ele>1444.5180664</ele>
        <time>2015-07-14T08:48:45Z</time>
      </trkpt>
      <trkpt lat="44.35888" lon="6.24003">
        <ele>1445.4794922</ele>
        <time>2015-07-14T08:49:00Z</time>
      </trkpt>
      <trkpt lat="44.35891" lon="6.23962">
        <ele>1446.440918</ele>
        <time>2015-07-14T08:49:21Z</time>
      </trkpt>
      <trkpt lat="44.35896" lon="6.23919">
        <ele>1448.8439941</ele>
        <time>2015-07-14T08:49:46Z</time>
      </trkpt>
      <trkpt lat="44.35893" lon="6.23882">
        <ele>1451.2473145</ele>
        <time>2015-07-14T08:50:06Z</time>
      </trkpt>
      <trkpt lat="44.35894" lon="6.23862">
        <ele>1452.6894531</ele>
        <time>2015-07-14T08:50:18Z</time>
      </trkpt>
      <trkpt lat="44.35896" lon="6.23826">
        <ele>1454.6120605</ele>
        <time>2015-07-14T08:50:40Z</time>
      </trkpt>
      <trkpt lat="44.35893" lon="6.23821">
        <ele>1455.0927734</ele>
        <time>2015-07-14T08:50:44Z</time>
      </trkpt>
      <trkpt lat="44.35874" lon="6.23821">
        <ele>1457.0153809</ele>
        <time>2015-07-14T08:50:59Z</time>
      </trkpt>
      <trkpt lat="44.35861" lon="6.23813">
        <ele>1457.9768066</ele>
        <time>2015-07-14T08:51:08Z</time>
      </trkpt>
      <trkpt lat="44.35838" lon="6.23814">
        <ele>1459.8991699</ele>
        <time>2015-07-14T08:51:24Z</time>
      </trkpt>
      <trkpt lat="44.35833" lon="6.23818">
        <ele>1459.4187012</ele>
        <time>2015-07-14T08:51:27Z</time>
      </trkpt>
      <trkpt lat="44.35833" lon="6.2383">
        <ele>1461.3413086</ele>
        <time>2015-07-14T08:51:34Z</time>
      </trkpt>
      <trkpt lat="44.35817" lon="6.23852">
        <ele>1462.7832031</ele>
        <time>2015-07-14T08:51:50Z</time>
      </trkpt>
      <trkpt lat="44.35803" lon="6.23868">
        <ele>1464.2250977</ele>
        <time>2015-07-14T08:52:03Z</time>
      </trkpt>
      <trkpt lat="44.35802" lon="6.23874">
        <ele>1464.7058105</ele>
        <time>2015-07-14T08:52:07Z</time>
      </trkpt>
      <trkpt lat="44.35806" lon="6.239">
        <ele>1467.1091309</ele>
        <time>2015-07-14T08:52:26Z</time>
      </trkpt>
      <trkpt lat="44.35777" lon="6.239">
        <ele>1470.473877</ele>
        <time>2015-07-14T08:52:51Z</time>
      </trkpt>
      <trkpt lat="44.35761" lon="6.23898">
        <ele>1471.4350586</ele>
        <time>2015-07-14T08:53:03Z</time>
      </trkpt>
      <trkpt lat="44.35742" lon="6.23888">
        <ele>1474.3190918</ele>
        <time>2015-07-14T08:53:21Z</time>
      </trkpt>
      <trkpt lat="44.35724" lon="6.23857">
        <ele>1476.2416992</ele>
        <time>2015-07-14T08:53:45Z</time>
      </trkpt>
      <trkpt lat="44.35701" lon="6.23843">
        <ele>1479.1254883</ele>
        <time>2015-07-14T08:54:06Z</time>
      </trkpt>
      <trkpt lat="44.35692" lon="6.23841">
        <ele>1480.0869141</ele>
        <time>2015-07-14T08:54:14Z</time>
      </trkpt>
      <trkpt lat="44.35685" lon="6.23843">
        <ele>1481.0483398</ele>
        <time>2015-07-14T08:54:32Z</time>
      </trkpt>
      <trkpt lat="44.35685" lon="6.23843">
        <ele>1480.567627</ele>
        <time>2015-07-14T08:55:23Z</time>
      </trkpt>
      <trkpt lat="44.35689" lon="6.23844">
        <ele>1480.0869141</ele>
        <time>2015-07-14T08:56:06Z</time>
      </trkpt>
      <trkpt lat="44.35686" lon="6.23842">
        <ele>1481.0483398</ele>
        <time>2015-07-14T08:56:58Z</time>
      </trkpt>
      <trkpt lat="44.35673" lon="6.23829">
        <ele>1482.4902344</ele>
        <time>2015-07-14T08:57:09Z</time>
      </trkpt>
      <trkpt lat="44.35657" lon="6.23804">
        <ele>1485.3742676</ele>
        <time>2015-07-14T08:57:32Z</time>
      </trkpt>
      <trkpt lat="44.3565" lon="6.23782">
        <ele>1488.2583008</ele>
        <time>2015-07-14T08:57:48Z</time>
      </trkpt>
      <trkpt lat="44.35631" lon="6.23759">
        <ele>1490.661377</ele>
        <time>2015-07-14T08:58:11Z</time>
      </trkpt>
      <trkpt lat="44.35614" lon="6.23728">
        <ele>1493.0646973</ele>
        <time>2015-07-14T08:58:34Z</time>
      </trkpt>
      <trkpt lat="44.35602" lon="6.23714">
        <ele>1494.9873047</ele>
        <time>2015-07-14T08:58:49Z</time>
      </trkpt>
      <trkpt lat="44.35584" lon="6.237">
        <ele>1496.9099121</ele>
        <time>2015-07-14T08:59:11Z</time>
      </trkpt>
      <trkpt lat="44.35568" lon="6.23694">
        <ele>1499.3132324</ele>
        <time>2015-07-14T08:59:28Z</time>
      </trkpt>
      <trkpt lat="44.3555" lon="6.23686">
        <ele>1501.7167969</ele>
        <time>2015-07-14T08:59:45Z</time>
      </trkpt>
      <trkpt lat="44.35555" lon="6.23663">
        <ele>1503.6394043</ele>
        <time>2015-07-14T09:00:04Z</time>
      </trkpt>
      <trkpt lat="44.35581" lon="6.23653">
        <ele>1506.5231934</ele>
        <time>2015-07-14T09:00:28Z</time>
      </trkpt>
      <trkpt lat="44.35603" lon="6.2363">
        <ele>1508.4458008</ele>
        <time>2015-07-14T09:00:53Z</time>
      </trkpt>
      <trkpt lat="44.35599" lon="6.23595">
        <ele>1510.3684082</ele>
        <time>2015-07-14T09:01:16Z</time>
      </trkpt>
      <trkpt lat="44.35589" lon="6.23558">
        <ele>1513.7329102</ele>
        <time>2015-07-14T09:01:40Z</time>
      </trkpt>
      <trkpt lat="44.35572" lon="6.23535">
        <ele>1515.6557617</ele>
        <time>2015-07-14T09:02:00Z</time>
      </trkpt>
      <trkpt lat="44.35566" lon="6.23512">
        <ele>1517.0979004</ele>
        <time>2015-07-14T09:02:17Z</time>
      </trkpt>
      <trkpt lat="44.35555" lon="6.2348">
        <ele>1519.5012207</ele>
        <time>2015-07-14T09:02:40Z</time>
      </trkpt>
      <trkpt lat="44.35553" lon="6.23481">
        <ele>1519.5012207</ele>
        <time>2015-07-14T09:02:41Z</time>
      </trkpt>
      <trkpt lat="44.35524" lon="6.23504">
        <ele>1521.9042969</ele>
        <time>2015-07-14T09:03:05Z</time>
      </trkpt>
      <trkpt lat="44.35504" lon="6.23494">
        <ele>1523.8269043</ele>
        <time>2015-07-14T09:03:24Z</time>
      </trkpt>
      <trkpt lat="44.35484" lon="6.23465">
        <ele>1526.7109375</ele>
        <time>2015-07-14T09:03:50Z</time>
      </trkpt>
      <trkpt lat="44.35479" lon="6.23422">
        <ele>1530.0754395</ele>
        <time>2015-07-14T09:04:18Z</time>
      </trkpt>
      <trkpt lat="44.35483" lon="6.23387">
        <ele>1531.517334</ele>
        <time>2015-07-14T09:04:40Z</time>
      </trkpt>
      <trkpt lat="44.35489" lon="6.23346">
        <ele>1534.8823242</ele>
        <time>2015-07-14T09:05:05Z</time>
      </trkpt>
      <trkpt lat="44.35511" lon="6.23328">
        <ele>1536.8046875</ele>
        <time>2015-07-14T09:05:28Z</time>
      </trkpt>
      <trkpt lat="44.35533" lon="6.23313">
        <ele>1539.2080078</ele>
        <time>2015-07-14T09:05:48Z</time>
      </trkpt>
      <trkpt lat="44.35534" lon="6.23312">
        <ele>1539.2080078</ele>
        <time>2015-07-14T09:06:01Z</time>
      </trkpt>
      <trkpt lat="44.35536" lon="6.23312">
        <ele>1539.2080078</ele>
        <time>2015-07-14T09:06:26Z</time>
      </trkpt>
      <trkpt lat="44.35542" lon="6.23318">
        <ele>1539.2080078</ele>
        <time>2015-07-14T09:06:43Z</time>
      </trkpt>
      <trkpt lat="44.35543" lon="6.23319">
        <ele>1539.6887207</ele>
        <time>2015-07-14T09:07:07Z</time>
      </trkpt>
      <trkpt lat="44.35544" lon="6.23316">
        <ele>1539.6887207</ele>
        <time>2015-07-14T09:07:21Z</time>
      </trkpt>
      <trkpt lat="44.35545" lon="6.23315">
        <ele>1539.6887207</ele>
        <time>2015-07-14T09:07:55Z</time>
      </trkpt>
      <trkpt lat="44.35545" lon="6.23317">
        <ele>1539.2080078</ele>
        <time>2015-07-14T09:09:54Z</time>
      </trkpt>
      <trkpt lat="44.35545" lon="6.23319">
        <ele>1539.6887207</ele>
        <time>2015-07-14T09:10:35Z</time>
      </trkpt>
      <trkpt lat="44.35536" lon="6.23339">
        <ele>1540.6499023</ele>
        <time>2015-07-14T09:10:46Z</time>
      </trkpt>
      <trkpt lat="44.35531" lon="6.23346">
        <ele>1541.6113281</ele>
        <time>2015-07-14T09:10:52Z</time>
      </trkpt>
      <trkpt lat="44.35525" lon="6.23359">
        <ele>1543.0532227</ele>
        <time>2015-07-14T09:11:02Z</time>
      </trkpt>
      <trkpt lat="44.35533" lon="6.23403">
        <ele>1545.456543</ele>
        <time>2015-07-14T09:11:32Z</time>
      </trkpt>
      <trkpt lat="44.35533" lon="6.23411">
        <ele>1546.8984375</ele>
        <time>2015-07-14T09:11:36Z</time>
      </trkpt>
      <trkpt lat="44.35546" lon="6.23418">
        <ele>1548.8212891</ele>
        <time>2015-07-14T09:11:54Z</time>
      </trkpt>
      <trkpt lat="44.3556" lon="6.23408">
        <ele>1550.7438965</ele>
        <time>2015-07-14T09:12:09Z</time>
      </trkpt>
      <trkpt lat="44.35581" lon="6.23402">
        <ele>1552.6665039</ele>
        <time>2015-07-14T09:12:29Z</time>
      </trkpt>
      <trkpt lat="44.35598" lon="6.23419">
        <ele>1554.5891113</ele>
        <time>2015-07-14T09:12:49Z</time>
      </trkpt>
      <trkpt lat="44.35613" lon="6.23448">
        <ele>1556.9924316</ele>
        <time>2015-07-14T09:13:10Z</time>
      </trkpt>
      <trkpt lat="44.35628" lon="6.23463">
        <ele>1557.9538574</ele>
        <time>2015-07-14T09:13:26Z</time>
      </trkpt>
      <trkpt lat="44.35642" lon="6.23477">
        <ele>1559.395752</ele>
        <time>2015-07-14T09:13:42Z</time>
      </trkpt>
      <trkpt lat="44.35669" lon="6.23471">
        <ele>1562.279541</ele>
        <time>2015-07-14T09:14:07Z</time>
      </trkpt>
      <trkpt lat="44.35689" lon="6.23472">
        <ele>1563.7214355</ele>
        <time>2015-07-14T09:14:24Z</time>
      </trkpt>
      <trkpt lat="44.35699" lon="6.23471">
        <ele>1565.1638184</ele>
        <time>2015-07-14T09:14:36Z</time>
      </trkpt>
      <trkpt lat="44.35726" lon="6.2347">
        <ele>1568.0476074</ele>
        <time>2015-07-14T09:15:00Z</time>
      </trkpt>
      <trkpt lat="44.35737" lon="6.23474">
        <ele>1569.4897461</ele>
        <time>2015-07-14T09:15:12Z</time>
      </trkpt>
      <trkpt lat="44.35758" lon="6.23473">
        <ele>1571.8928223</ele>
        <time>2015-07-14T09:15:30Z</time>
      </trkpt>
      <trkpt lat="44.3578" lon="6.23464">
        <ele>1574.2961426</ele>
        <time>2015-07-14T09:15:51Z</time>
      </trkpt>
      <trkpt lat="44.35786" lon="6.2346">
        <ele>1574.7768555</ele>
        <time>2015-07-14T09:15:56Z</time>
      </trkpt>
      <trkpt lat="44.35789" lon="6.23455">
        <ele>1575.7380371</ele>
        <time>2015-07-14T09:16:00Z</time>
      </trkpt>
      <trkpt lat="44.35809" lon="6.23441">
        <ele>1577.1801758</ele>
        <time>2015-07-14T09:16:17Z</time>
      </trkpt>
      <trkpt lat="44.35832" lon="6.23457">
        <ele>1580.064209</ele>
        <time>2015-07-14T09:16:37Z</time>
      </trkpt>
      <trkpt lat="44.35843" lon="6.23463">
        <ele>1581.0256348</ele>
        <time>2015-07-14T09:16:49Z</time>
      </trkpt>
      <trkpt lat="44.35882" lon="6.23479">
        <ele>1584.3901367</ele>
        <time>2015-07-14T09:17:23Z</time>
      </trkpt>
      <trkpt lat="44.35905" lon="6.2348">
        <ele>1586.3127441</ele>
        <time>2015-07-14T09:17:43Z</time>
      </trkpt>
      <trkpt lat="44.35906" lon="6.2348">
        <ele>1586.3127441</ele>
        <time>2015-07-14T09:17:44Z</time>
      </trkpt>
      <trkpt lat="44.35912" lon="6.23476">
        <ele>1586.7932129</ele>
        <time>2015-07-14T09:17:50Z</time>
      </trkpt>
      <trkpt lat="44.35922" lon="6.23476">
        <ele>1587.2739258</ele>
        <time>2015-07-14T09:17:56Z</time>
      </trkpt>
      <trkpt lat="44.35935" lon="6.23491">
        <ele>1588.7160645</ele>
        <time>2015-07-14T09:18:12Z</time>
      </trkpt>
      <trkpt lat="44.35942" lon="6.23532">
        <ele>1592.0805664</ele>
        <time>2015-07-14T09:18:37Z</time>
      </trkpt>
      <trkpt lat="44.35954" lon="6.23566">
        <ele>1594.4836426</ele>
        <time>2015-07-14T09:19:00Z</time>
      </trkpt>
      <trkpt lat="44.35972" lon="6.2359">
        <ele>1597.3679199</ele>
        <time>2015-07-14T09:19:23Z</time>
      </trkpt>
      <trkpt lat="44.35991" lon="6.23608">
        <ele>1599.7712402</ele>
        <time>2015-07-14T09:19:41Z</time>
      </trkpt>
      <trkpt lat="44.35997" lon="6.2361">
        <ele>1600.2519531</ele>
        <time>2015-07-14T09:19:46Z</time>
      </trkpt>
      <trkpt lat="44.36018" lon="6.23644">
        <ele>1603.6164551</ele>
        <time>2015-07-14T09:20:12Z</time>
      </trkpt>
      <trkpt lat="44.36024" lon="6.23649">
        <ele>1603.6164551</ele>
        <time>2015-07-14T09:20:29Z</time>
      </trkpt>
      <trkpt lat="44.36025" lon="6.23651">
        <ele>1604.097168</ele>
        <time>2015-07-14T09:21:24Z</time>
      </trkpt>
      <trkpt lat="44.36025" lon="6.23651">
        <ele>1604.097168</ele>
        <time>2015-07-14T09:22:04Z</time>
      </trkpt>
      <trkpt lat="44.3603" lon="6.23654">
        <ele>1604.5776367</ele>
        <time>2015-07-14T09:22:21Z</time>
      </trkpt>
      <trkpt lat="44.36037" lon="6.23651">
        <ele>1604.5776367</ele>
        <time>2015-07-14T09:22:40Z</time>
      </trkpt>
      <trkpt lat="44.36046" lon="6.23648">
        <ele>1606.5002441</ele>
        <time>2015-07-14T09:22:54Z</time>
      </trkpt>
      <trkpt lat="44.36085" lon="6.23641">
        <ele>1608.9035645</ele>
        <time>2015-07-14T09:23:21Z</time>
      </trkpt>
      <trkpt lat="44.36118" lon="6.23643">
        <ele>1611.3068848</ele>
        <time>2015-07-14T09:23:46Z</time>
      </trkpt>
      <trkpt lat="44.36133" lon="6.23643">
        <ele>1612.7490234</ele>
        <time>2015-07-14T09:23:59Z</time>
      </trkpt>
      <trkpt lat="44.36134" lon="6.23672">
        <ele>1615.6330566</ele>
        <time>2015-07-14T09:24:15Z</time>
      </trkpt>
      <trkpt lat="44.36137" lon="6.23706">
        <ele>1618.0361328</ele>
        <time>2015-07-14T09:24:33Z</time>
      </trkpt>
      <trkpt lat="44.36153" lon="6.23733">
        <ele>1619.9587402</ele>
        <time>2015-07-14T09:24:56Z</time>
      </trkpt>
      <trkpt lat="44.3618" lon="6.23737">
        <ele>1621.4006348</ele>
        <time>2015-07-14T09:25:16Z</time>
      </trkpt>
      <trkpt lat="44.36211" lon="6.23739">
        <ele>1624.284668</ele>
        <time>2015-07-14T09:25:39Z</time>
      </trkpt>
      <trkpt lat="44.36247" lon="6.23736">
        <ele>1625.2458496</ele>
        <time>2015-07-14T09:26:01Z</time>
      </trkpt>
      <trkpt lat="44.36281" lon="6.23733">
        <ele>1626.6879883</ele>
        <time>2015-07-14T09:26:21Z</time>
      </trkpt>
      <trkpt lat="44.36278" lon="6.23734">
        <ele>1626.6879883</ele>
        <time>2015-07-14T09:26:37Z</time>
      </trkpt>
      <trkpt lat="44.36276" lon="6.23732">
        <ele>1626.6879883</ele>
        <time>2015-07-14T09:26:53Z</time>
      </trkpt>
      <trkpt lat="44.36278" lon="6.23735">
        <ele>1627.1687012</ele>
        <time>2015-07-14T09:27:11Z</time>
      </trkpt>
      <trkpt lat="44.36279" lon="6.23733">
        <ele>1627.6491699</ele>
        <time>2015-07-14T09:27:40Z</time>
      </trkpt>
      <trkpt lat="44.36279" lon="6.23728">
        <ele>1627.6491699</ele>
        <time>2015-07-14T09:27:51Z</time>
      </trkpt>
      <trkpt lat="44.363" lon="6.23725">
        <ele>1628.6108398</ele>
        <time>2015-07-14T09:28:03Z</time>
      </trkpt>
      <trkpt lat="44.36309" lon="6.23725">
        <ele>1628.130127</ele>
        <time>2015-07-14T09:28:07Z</time>
      </trkpt>
      <trkpt lat="44.36343" lon="6.23736">
        <ele>1629.0913086</ele>
        <time>2015-07-14T09:28:24Z</time>
      </trkpt>
      <trkpt lat="44.36362" lon="6.23735">
        <ele>1627.1687012</ele>
        <time>2015-07-14T09:28:34Z</time>
      </trkpt>
      <trkpt lat="44.36363" lon="6.23734">
        <ele>1627.6491699</ele>
        <time>2015-07-14T09:28:46Z</time>
      </trkpt>
      <trkpt lat="44.36365" lon="6.23735">
        <ele>1627.1687012</ele>
        <time>2015-07-14T09:29:15Z</time>
      </trkpt>
      <trkpt lat="44.36368" lon="6.23722">
        <ele>1627.6491699</ele>
        <time>2015-07-14T09:29:40Z</time>
      </trkpt>
      <trkpt lat="44.36389" lon="6.23662">
        <ele>1625.7265625</ele>
        <time>2015-07-14T09:29:53Z</time>
      </trkpt>
      <trkpt lat="44.36401" lon="6.23617">
        <ele>1624.7653809</ele>
        <time>2015-07-14T09:30:02Z</time>
      </trkpt>
      <trkpt lat="44.36402" lon="6.23586">
        <ele>1623.3234863</ele>
        <time>2015-07-14T09:30:06Z</time>
      </trkpt>
      <trkpt lat="44.36401" lon="6.2355">
        <ele>1620.920166</ele>
        <time>2015-07-14T09:30:11Z</time>
      </trkpt>
      <trkpt lat="44.36402" lon="6.23529">
        <ele>1619.4782715</ele>
        <time>2015-07-14T09:30:14Z</time>
      </trkpt>
      <trkpt lat="44.36411" lon="6.23491">
        <ele>1617.5554199</ele>
        <time>2015-07-14T09:30:20Z</time>
      </trkpt>
      <trkpt lat="44.36429" lon="6.23436">
        <ele>1616.1135254</ele>
        <time>2015-07-14T09:30:32Z</time>
      </trkpt>
      <trkpt lat="44.36431" lon="6.23426">
        <ele>1616.1135254</ele>
        <time>2015-07-14T09:30:34Z</time>
      </trkpt>
      <trkpt lat="44.36437" lon="6.23405">
        <ele>1615.6330566</ele>
        <time>2015-07-14T09:30:38Z</time>
      </trkpt>
      <trkpt lat="44.36456" lon="6.23368">
        <ele>1615.1523438</ele>
        <time>2015-07-14T09:30:50Z</time>
      </trkpt>
      <trkpt lat="44.3648" lon="6.23375">
        <ele>1612.2683105</ele>
        <time>2015-07-14T09:31:01Z</time>
      </trkpt>
      <trkpt lat="44.36501" lon="6.23379">
        <ele>1608.9035645</ele>
        <time>2015-07-14T09:31:09Z</time>
      </trkpt>
      <trkpt lat="44.36519" lon="6.23379">
        <ele>1606.5002441</ele>
        <time>2015-07-14T09:31:16Z</time>
      </trkpt>
      <trkpt lat="44.36534" lon="6.23386">
        <ele>1603.1357422</ele>
        <time>2015-07-14T09:31:22Z</time>
      </trkpt>
      <trkpt lat="44.36558" lon="6.23385">
        <ele>1600.2519531</ele>
        <time>2015-07-14T09:31:33Z</time>
      </trkpt>
      <trkpt lat="44.36565" lon="6.23384">
        <ele>1598.8098145</ele>
        <time>2015-07-14T09:31:36Z</time>
      </trkpt>
      <trkpt lat="44.36588" lon="6.23386">
        <ele>1595.4450684</ele>
        <time>2015-07-14T09:31:42Z</time>
      </trkpt>
      <trkpt lat="44.36599" lon="6.23392">
        <ele>1594.0031738</ele>
        <time>2015-07-14T09:31:46Z</time>
      </trkpt>
      <trkpt lat="44.36602" lon="6.23393">
        <ele>1593.041748</ele>
        <time>2015-07-14T09:31:47Z</time>
      </trkpt>
      <trkpt lat="44.36618" lon="6.23402">
        <ele>1589.6772461</ele>
        <time>2015-07-14T09:31:54Z</time>
      </trkpt>
      <trkpt lat="44.36638" lon="6.23419">
        <ele>1587.2739258</ele>
        <time>2015-07-14T09:32:07Z</time>
      </trkpt>
      <trkpt lat="44.36659" lon="6.23438">
        <ele>1583.4287109</ele>
        <time>2015-07-14T09:32:17Z</time>
      </trkpt>
      <trkpt lat="44.36662" lon="6.23439">
        <ele>1583.4287109</ele>
        <time>2015-07-14T09:32:18Z</time>
      </trkpt>
      <trkpt lat="44.36674" lon="6.23445">
        <ele>1580.5449219</ele>
        <time>2015-07-14T09:32:23Z</time>
      </trkpt>
      <trkpt lat="44.36688" lon="6.2345">
        <ele>1577.1801758</ele>
        <time>2015-07-14T09:32:28Z</time>
      </trkpt>
      <trkpt lat="44.36694" lon="6.23452">
        <ele>1575.7380371</ele>
        <time>2015-07-14T09:32:30Z</time>
      </trkpt>
      <trkpt lat="44.36705" lon="6.23455">
        <ele>1572.854248</ele>
        <time>2015-07-14T09:32:35Z</time>
      </trkpt>
      <trkpt lat="44.36707" lon="6.23455">
        <ele>1571.8928223</ele>
        <time>2015-07-14T09:32:37Z</time>
      </trkpt>
      <trkpt lat="44.36714" lon="6.23456">
        <ele>1570.9316406</ele>
        <time>2015-07-14T09:32:49Z</time>
      </trkpt>
      <trkpt lat="44.36716" lon="6.23456">
        <ele>1570.4509277</ele>
        <time>2015-07-14T09:32:51Z</time>
      </trkpt>
      <trkpt lat="44.36729" lon="6.23465">
        <ele>1568.5283203</ele>
        <time>2015-07-14T09:33:00Z</time>
      </trkpt>
      <trkpt lat="44.36738" lon="6.23477">
        <ele>1567.5668945</ele>
        <time>2015-07-14T09:33:06Z</time>
      </trkpt>
      <trkpt lat="44.36751" lon="6.23501">
        <ele>1565.1638184</ele>
        <time>2015-07-14T09:33:14Z</time>
      </trkpt>
      <trkpt lat="44.36755" lon="6.23506">
        <ele>1564.6831055</ele>
        <time>2015-07-14T09:33:16Z</time>
      </trkpt>
      <trkpt lat="44.36757" lon="6.23522">
        <ele>1563.7214355</ele>
        <time>2015-07-14T09:33:20Z</time>
      </trkpt>
      <trkpt lat="44.36768" lon="6.23582">
        <ele>1560.8376465</ele>
        <time>2015-07-14T09:33:32Z</time>
      </trkpt>
      <trkpt lat="44.36782" lon="6.23591">
        <ele>1557.4731445</ele>
        <time>2015-07-14T09:33:38Z</time>
      </trkpt>
      <trkpt lat="44.36789" lon="6.23586">
        <ele>1555.5505371</ele>
        <time>2015-07-14T09:33:50Z</time>
      </trkpt>
      <trkpt lat="44.368" lon="6.23575">
        <ele>1554.1086426</ele>
        <time>2015-07-14T09:34:04Z</time>
      </trkpt>
      <trkpt lat="44.36817" lon="6.23554">
        <ele>1552.185791</ele>
        <time>2015-07-14T09:34:14Z</time>
      </trkpt>
      <trkpt lat="44.36832" lon="6.23532">
        <ele>1549.302002</ele>
        <time>2015-07-14T09:34:22Z</time>
      </trkpt>
      <trkpt lat="44.36842" lon="6.23523">
        <ele>1547.3791504</ele>
        <time>2015-07-14T09:34:26Z</time>
      </trkpt>
      <trkpt lat="44.36851" lon="6.23518">
        <ele>1545.9372559</ele>
        <time>2015-07-14T09:34:38Z</time>
      </trkpt>
      <trkpt lat="44.36857" lon="6.23507">
        <ele>1544.0146484</ele>
        <time>2015-07-14T09:34:55Z</time>
      </trkpt>
      <trkpt lat="44.36859" lon="6.23503">
        <ele>1544.0146484</ele>
        <time>2015-07-14T09:34:58Z</time>
      </trkpt>
      <trkpt lat="44.36864" lon="6.23493">
        <ele>1542.5727539</ele>
        <time>2015-07-14T09:35:03Z</time>
      </trkpt>
      <trkpt lat="44.36865" lon="6.23487">
        <ele>1541.6113281</ele>
        <time>2015-07-14T09:35:06Z</time>
      </trkpt>
      <trkpt lat="44.36871" lon="6.23465">
        <ele>1538.2468262</ele>
        <time>2015-07-14T09:35:15Z</time>
      </trkpt>
      <trkpt lat="44.36877" lon="6.23434">
        <ele>1535.362793</ele>
        <time>2015-07-14T09:35:26Z</time>
      </trkpt>
      <trkpt lat="44.36876" lon="6.23422">
        <ele>1534.4016113</ele>
        <time>2015-07-14T09:35:38Z</time>
      </trkpt>
      <trkpt lat="44.36879" lon="6.2342">
        <ele>1533.9208984</ele>
        <time>2015-07-14T09:35:50Z</time>
      </trkpt>
      <trkpt lat="44.3688" lon="6.23421">
        <ele>1533.9208984</ele>
        <time>2015-07-14T09:35:51Z</time>
      </trkpt>
      <trkpt lat="44.36897" lon="6.23428">
        <ele>1531.0368652</ele>
        <time>2015-07-14T09:36:03Z</time>
      </trkpt>
      <trkpt lat="44.36912" lon="6.23433">
        <ele>1528.152832</ele>
        <time>2015-07-14T09:36:10Z</time>
      </trkpt>
      <trkpt lat="44.36932" lon="6.23441">
        <ele>1524.3076172</ele>
        <time>2015-07-14T09:36:16Z</time>
      </trkpt>
      <trkpt lat="44.36935" lon="6.23443">
        <ele>1524.3076172</ele>
        <time>2015-07-14T09:36:17Z</time>
      </trkpt>
      <trkpt lat="44.36959" lon="6.23451">
        <ele>1521.423584</ele>
        <time>2015-07-14T09:36:24Z</time>
      </trkpt>
      <trkpt lat="44.36982" lon="6.23444">
        <ele>1518.059082</ele>
        <time>2015-07-14T09:36:30Z</time>
      </trkpt>
      <trkpt lat="44.36985" lon="6.23444">
        <ele>1518.059082</ele>
        <time>2015-07-14T09:36:31Z</time>
      </trkpt>
      <trkpt lat="44.37023" lon="6.23445">
        <ele>1514.6943359</ele>
        <time>2015-07-14T09:36:43Z</time>
      </trkpt>
      <trkpt lat="44.37034" lon="6.23442">
        <ele>1513.2524414</ele>
        <time>2015-07-14T09:36:47Z</time>
      </trkpt>
      <trkpt lat="44.37062" lon="6.23451">
        <ele>1509.8876953</ele>
        <time>2015-07-14T09:36:57Z</time>
      </trkpt>
      <trkpt lat="44.37065" lon="6.23452">
        <ele>1509.8876953</ele>
        <time>2015-07-14T09:36:58Z</time>
      </trkpt>
      <trkpt lat="44.37076" lon="6.23452">
        <ele>1507.965332</ele>
        <time>2015-07-14T09:37:01Z</time>
      </trkpt>
      <trkpt lat="44.37092" lon="6.23453">
        <ele>1506.0424805</ele>
        <time>2015-07-14T09:37:05Z</time>
      </trkpt>
      <trkpt lat="44.37128" lon="6.23448">
        <ele>1502.1972656</ele>
        <time>2015-07-14T09:37:16Z</time>
      </trkpt>
      <trkpt lat="44.37151" lon="6.23443">
        <ele>1499.7939453</ele>
        <time>2015-07-14T09:37:23Z</time>
      </trkpt>
      <trkpt lat="44.37172" lon="6.23438">
        <ele>1497.390625</ele>
        <time>2015-07-14T09:37:28Z</time>
      </trkpt>
      <trkpt lat="44.37195" lon="6.23428">
        <ele>1494.5065918</ele>
        <time>2015-07-14T09:37:34Z</time>
      </trkpt>
      <trkpt lat="44.37206" lon="6.23426">
        <ele>1492.1035156</ele>
        <time>2015-07-14T09:37:38Z</time>
      </trkpt>
      <trkpt lat="44.37223" lon="6.23431">
        <ele>1488.7390137</ele>
        <time>2015-07-14T09:37:46Z</time>
      </trkpt>
      <trkpt lat="44.37232" lon="6.23432">
        <ele>1487.296875</ele>
        <time>2015-07-14T09:37:49Z</time>
      </trkpt>
      <trkpt lat="44.3724" lon="6.23435">
        <ele>1485.3742676</ele>
        <time>2015-07-14T09:37:52Z</time>
      </trkpt>
      <trkpt lat="44.37244" lon="6.23436">
        <ele>1483.9321289</ele>
        <time>2015-07-14T09:37:54Z</time>
      </trkpt>
      <trkpt lat="44.37273" lon="6.2344">
        <ele>1480.567627</ele>
        <time>2015-07-14T09:38:02Z</time>
      </trkpt>
      <trkpt lat="44.37308" lon="6.23444">
        <ele>1477.203125</ele>
        <time>2015-07-14T09:38:09Z</time>
      </trkpt>
      <trkpt lat="44.37324" lon="6.23453">
        <ele>1475.2802734</ele>
        <time>2015-07-14T09:38:13Z</time>
      </trkpt>
      <trkpt lat="44.37329" lon="6.23457">
        <ele>1473.8383789</ele>
        <time>2015-07-14T09:38:15Z</time>
      </trkpt>
      <trkpt lat="44.37343" lon="6.23469">
        <ele>1471.4350586</ele>
        <time>2015-07-14T09:38:19Z</time>
      </trkpt>
      <trkpt lat="44.3735" lon="6.23477">
        <ele>1469.0319824</ele>
        <time>2015-07-14T09:38:22Z</time>
      </trkpt>
      <trkpt lat="44.37379" lon="6.23509">
        <ele>1465.1865234</ele>
        <time>2015-07-14T09:38:35Z</time>
      </trkpt>
      <trkpt lat="44.37401" lon="6.23521">
        <ele>1462.7832031</ele>
        <time>2015-07-14T09:38:43Z</time>
      </trkpt>
      <trkpt lat="44.37419" lon="6.2353">
        <ele>1459.8991699</ele>
        <time>2015-07-14T09:38:53Z</time>
      </trkpt>
      <trkpt lat="44.37437" lon="6.23535">
        <ele>1457.4960938</ele>
        <time>2015-07-14T09:38:59Z</time>
      </trkpt>
      <trkpt lat="44.37456" lon="6.23538">
        <ele>1453.6508789</ele>
        <time>2015-07-14T09:39:05Z</time>
      </trkpt>
      <trkpt lat="44.37458" lon="6.23537">
        <ele>1453.6508789</ele>
        <time>2015-07-14T09:39:06Z</time>
      </trkpt>
      <trkpt lat="44.37477" lon="6.23535">
        <ele>1450.7666016</ele>
        <time>2015-07-14T09:39:14Z</time>
      </trkpt>
      <trkpt lat="44.3749" lon="6.23535">
        <ele>1450.2861328</ele>
        <time>2015-07-14T09:39:17Z</time>
      </trkpt>
      <trkpt lat="44.37503" lon="6.23537">
        <ele>1447.8828125</ele>
        <time>2015-07-14T09:39:20Z</time>
      </trkpt>
      <trkpt lat="44.37529" lon="6.23544">
        <ele>1444.9987793</ele>
        <time>2015-07-14T09:39:30Z</time>
      </trkpt>
      <trkpt lat="44.37533" lon="6.23547">
        <ele>1444.5180664</ele>
        <time>2015-07-14T09:39:39Z</time>
      </trkpt>
      <trkpt lat="44.37559" lon="6.23556">
        <ele>1441.1535645</ele>
        <time>2015-07-14T09:39:49Z</time>
      </trkpt>
      <trkpt lat="44.37562" lon="6.23558">
        <ele>1441.1535645</ele>
        <time>2015-07-14T09:39:50Z</time>
      </trkpt>
      <trkpt lat="44.37571" lon="6.23566">
        <ele>1439.7116699</ele>
        <time>2015-07-14T09:39:53Z</time>
      </trkpt>
      <trkpt lat="44.37589" lon="6.23573">
        <ele>1438.2697754</ele>
        <time>2015-07-14T09:39:58Z</time>
      </trkpt>
      <trkpt lat="44.37622" lon="6.23585">
        <ele>1434.9050293</ele>
        <time>2015-07-14T09:40:09Z</time>
      </trkpt>
      <trkpt lat="44.37653" lon="6.23578">
        <ele>1431.5402832</ele>
        <time>2015-07-14T09:40:18Z</time>
      </trkpt>
      <trkpt lat="44.37683" lon="6.23556">
        <ele>1428.1757813</ele>
        <time>2015-07-14T09:40:28Z</time>
      </trkpt>
      <trkpt lat="44.37693" lon="6.23556">
        <ele>1426.7338867</ele>
        <time>2015-07-14T09:40:31Z</time>
      </trkpt>
      <trkpt lat="44.37705" lon="6.23559">
        <ele>1425.291748</ele>
        <time>2015-07-14T09:40:34Z</time>
      </trkpt>
      <trkpt lat="44.37716" lon="6.23563">
        <ele>1422.8886719</ele>
        <time>2015-07-14T09:40:37Z</time>
      </trkpt>
      <trkpt lat="44.37719" lon="6.23565">
        <ele>1421.9272461</ele>
        <time>2015-07-14T09:40:55Z</time>
      </trkpt>
      <trkpt lat="44.3772" lon="6.23565">
        <ele>1421.4465332</ele>
        <time>2015-07-14T09:41:00Z</time>
      </trkpt>
      <trkpt lat="44.37747" lon="6.23572">
        <ele>1419.0432129</ele>
        <time>2015-07-14T09:41:11Z</time>
      </trkpt>
      <trkpt lat="44.37762" lon="6.23577">
        <ele>1416.6398926</ele>
        <time>2015-07-14T09:41:17Z</time>
      </trkpt>
      <trkpt lat="44.37793" lon="6.23585">
        <ele>1413.7558594</ele>
        <time>2015-07-14T09:41:31Z</time>
      </trkpt>
      <trkpt lat="44.37809" lon="6.23578">
        <ele>1410.3913574</ele>
        <time>2015-07-14T09:41:40Z</time>
      </trkpt>
      <trkpt lat="44.37811" lon="6.23577">
        <ele>1410.3913574</ele>
        <time>2015-07-14T09:41:41Z</time>
      </trkpt>
      <trkpt lat="44.37824" lon="6.23571">
        <ele>1407.5075684</ele>
        <time>2015-07-14T09:41:47Z</time>
      </trkpt>
      <trkpt lat="44.37827" lon="6.2357">
        <ele>1407.5075684</ele>
        <time>2015-07-14T09:41:48Z</time>
      </trkpt>
      <trkpt lat="44.37841" lon="6.23571">
        <ele>1405.104248</ele>
        <time>2015-07-14T09:41:55Z</time>
      </trkpt>
      <trkpt lat="44.37848" lon="6.23569">
        <ele>1402.2199707</ele>
        <time>2015-07-14T09:42:07Z</time>
      </trkpt>
      <trkpt lat="44.37864" lon="6.23566">
        <ele>1400.2976074</ele>
        <time>2015-07-14T09:42:22Z</time>
      </trkpt>
      <trkpt lat="44.37875" lon="6.23552">
        <ele>1399.3361816</ele>
        <time>2015-07-14T09:42:30Z</time>
      </trkpt>
      <trkpt lat="44.37877" lon="6.23544">
        <ele>1398.3747559</ele>
        <time>2015-07-14T09:42:34Z</time>
      </trkpt>
      <trkpt lat="44.37886" lon="6.23513">
        <ele>1396.4523926</ele>
        <time>2015-07-14T09:42:48Z</time>
      </trkpt>
      <trkpt lat="44.37906" lon="6.23489">
        <ele>1394.529541</ele>
        <time>2015-07-14T09:43:00Z</time>
      </trkpt>
      <trkpt lat="44.37929" lon="6.23482">
        <ele>1394.0490723</ele>
        <time>2015-07-14T09:43:13Z</time>
      </trkpt>
      <trkpt lat="44.37968" lon="6.23473">
        <ele>1390.6843262</ele>
        <time>2015-07-14T09:43:29Z</time>
      </trkpt>
      <trkpt lat="44.37986" lon="6.23458">
        <ele>1387.800293</ele>
        <time>2015-07-14T09:43:40Z</time>
      </trkpt>
      <trkpt lat="44.37998" lon="6.23447">
        <ele>1384.435791</ele>
        <time>2015-07-14T09:43:49Z</time>
      </trkpt>
      <trkpt lat="44.38005" lon="6.23438">
        <ele>1382.9936523</ele>
        <time>2015-07-14T09:43:56Z</time>
      </trkpt>
      <trkpt lat="44.38029" lon="6.23434">
        <ele>1380.1098633</ele>
        <time>2015-07-14T09:44:08Z</time>
      </trkpt>
      <trkpt lat="44.3804" lon="6.23436">
        <ele>1377.2260742</ele>
        <time>2015-07-14T09:44:14Z</time>
      </trkpt>
      <trkpt lat="44.38064" lon="6.23436">
        <ele>1375.3032227</ele>
        <time>2015-07-14T09:44:25Z</time>
      </trkpt>
      <trkpt lat="44.38078" lon="6.23437">
        <ele>1373.8613281</ele>
        <time>2015-07-14T09:44:35Z</time>
      </trkpt>
      <trkpt lat="44.38079" lon="6.23437">
        <ele>1373.8613281</ele>
        <time>2015-07-14T09:44:38Z</time>
      </trkpt>
      <trkpt lat="44.38092" lon="6.23449">
        <ele>1373.8613281</ele>
        <time>2015-07-14T09:44:52Z</time>
      </trkpt>
      <trkpt lat="44.3812" lon="6.23471">
        <ele>1374.342041</ele>
        <time>2015-07-14T09:45:04Z</time>
      </trkpt>
      <trkpt lat="44.38164" lon="6.23517">
        <ele>1372.9001465</ele>
        <time>2015-07-14T09:45:20Z</time>
      </trkpt>
      <trkpt lat="44.38201" lon="6.23568">
        <ele>1373.8613281</ele>
        <time>2015-07-14T09:45:37Z</time>
      </trkpt>
      <trkpt lat="44.38228" lon="6.23589">
        <ele>1370.9772949</ele>
        <time>2015-07-14T09:45:48Z</time>
      </trkpt>
      <trkpt lat="44.38268" lon="6.23608">
        <ele>1368.5739746</ele>
        <time>2015-07-14T09:46:00Z</time>
      </trkpt>
      <trkpt lat="44.38312" lon="6.23655">
        <ele>1368.5739746</ele>
        <time>2015-07-14T09:46:16Z</time>
      </trkpt>
      <trkpt lat="44.38351" lon="6.23707">
        <ele>1367.1320801</ele>
        <time>2015-07-14T09:46:32Z</time>
      </trkpt>
      <trkpt lat="44.38383" lon="6.23729">
        <ele>1365.2094727</ele>
        <time>2015-07-14T09:46:47Z</time>
      </trkpt>
      <trkpt lat="44.3839" lon="6.23722">
        <ele>1366.1706543</ele>
        <time>2015-07-14T09:47:00Z</time>
      </trkpt>
      <trkpt lat="44.38392" lon="6.23716">
        <ele>1366.6513672</ele>
        <time>2015-07-14T09:47:19Z</time>
      </trkpt>
      <trkpt lat="44.38395" lon="6.23708">
        <ele>1368.5739746</ele>
        <time>2015-07-14T09:47:37Z</time>
      </trkpt>
      <trkpt lat="44.38387" lon="6.23723">
        <ele>1365.2094727</ele>
        <time>2015-07-14T09:47:59Z</time>
      </trkpt>
      <trkpt lat="44.38377" lon="6.23724">
        <ele>1364.7287598</ele>
        <time>2015-07-14T09:48:13Z</time>
      </trkpt>
      <trkpt lat="44.38375" lon="6.23722">
        <ele>1363.767334</ele>
        <time>2015-07-14T09:48:16Z</time>
      </trkpt>
      <trkpt lat="44.38378" lon="6.23733">
        <ele>1362.8061523</ele>
        <time>2015-07-14T09:48:31Z</time>
      </trkpt>
      <trkpt lat="44.38381" lon="6.23736">
        <ele>1362.3254395</ele>
        <time>2015-07-14T09:48:41Z</time>
      </trkpt>
      <trkpt lat="44.38382" lon="6.23737">
        <ele>1362.3254395</ele>
        <time>2015-07-14T09:48:42Z</time>
      </trkpt>
      <trkpt lat="44.38408" lon="6.2375">
        <ele>1360.402832</ele>
        <time>2015-07-14T09:48:59Z</time>
      </trkpt>
      <trkpt lat="44.3844" lon="6.23748">
        <ele>1357.9997559</ele>
        <time>2015-07-14T09:49:15Z</time>
      </trkpt>
      <trkpt lat="44.38458" lon="6.23727">
        <ele>1355.5961914</ele>
        <time>2015-07-14T09:49:22Z</time>
      </trkpt>
      <trkpt lat="44.38477" lon="6.23699">
        <ele>1352.7121582</ele>
        <time>2015-07-14T09:49:30Z</time>
      </trkpt>
      <trkpt lat="44.38479" lon="6.23696">
        <ele>1352.7121582</ele>
        <time>2015-07-14T09:49:31Z</time>
      </trkpt>
      <trkpt lat="44.38495" lon="6.23685">
        <ele>1349.3476563</ele>
        <time>2015-07-14T09:49:37Z</time>
      </trkpt>
      <trkpt lat="44.38499" lon="6.23683">
        <ele>1348.8669434</ele>
        <time>2015-07-14T09:49:39Z</time>
      </trkpt>
      <trkpt lat="44.3851" lon="6.23686">
        <ele>1346.4638672</ele>
        <time>2015-07-14T09:49:45Z</time>
      </trkpt>
      <trkpt lat="44.3854" lon="6.23684">
        <ele>1342.6186523</ele>
        <time>2015-07-14T09:49:53Z</time>
      </trkpt>
      <trkpt lat="44.38543" lon="6.23682">
        <ele>1342.6186523</ele>
        <time>2015-07-14T09:49:54Z</time>
      </trkpt>
      <trkpt lat="44.38548" lon="6.2368">
        <ele>1341.1765137</ele>
        <time>2015-07-14T09:49:56Z</time>
      </trkpt>
      <trkpt lat="44.38553" lon="6.23675">
        <ele>1339.2536621</ele>
        <time>2015-07-14T09:49:59Z</time>
      </trkpt>
      <trkpt lat="44.38576" lon="6.23657">
        <ele>1335.4084473</ele>
        <time>2015-07-14T09:50:07Z</time>
      </trkpt>
      <trkpt lat="44.38586" lon="6.23644">
        <ele>1333.4858398</ele>
        <time>2015-07-14T09:50:12Z</time>
      </trkpt>
      <trkpt lat="44.38601" lon="6.23635">
        <ele>1330.1213379</ele>
        <time>2015-07-14T09:50:18Z</time>
      </trkpt>
      <trkpt lat="44.38611" lon="6.23633">
        <ele>1327.7180176</ele>
        <time>2015-07-14T09:50:22Z</time>
      </trkpt>
      <trkpt lat="44.38628" lon="6.23628">
        <ele>1323.8725586</ele>
        <time>2015-07-14T09:50:28Z</time>
      </trkpt>
      <trkpt lat="44.38631" lon="6.23627">
        <ele>1323.8725586</ele>
        <time>2015-07-14T09:50:29Z</time>
      </trkpt>
      <trkpt lat="44.38646" lon="6.23626">
        <ele>1320.5080566</ele>
        <time>2015-07-14T09:50:41Z</time>
      </trkpt>
      <trkpt lat="44.38649" lon="6.23631">
        <ele>1319.546875</ele>
        <time>2015-07-14T09:50:59Z</time>
      </trkpt>
      <trkpt lat="44.3865" lon="6.23631">
        <ele>1319.0661621</ele>
        <time>2015-07-14T09:51:01Z</time>
      </trkpt>
      <trkpt lat="44.38669" lon="6.23651">
        <ele>1316.1821289</ele>
        <time>2015-07-14T09:51:11Z</time>
      </trkpt>
      <trkpt lat="44.38674" lon="6.23655">
        <ele>1315.7016602</ele>
        <time>2015-07-14T09:51:13Z</time>
      </trkpt>
      <trkpt lat="44.38692" lon="6.23658">
        <ele>1312.3369141</ele>
        <time>2015-07-14T09:51:19Z</time>
      </trkpt>
      <trkpt lat="44.38705" lon="6.23645">
        <ele>1310.8950195</ele>
        <time>2015-07-14T09:51:25Z</time>
      </trkpt>
      <trkpt lat="44.38741" lon="6.23614">
        <ele>1308.9724121</ele>
        <time>2015-07-14T09:51:38Z</time>
      </trkpt>
      <trkpt lat="44.38746" lon="6.23608">
        <ele>1308.4916992</ele>
        <time>2015-07-14T09:51:41Z</time>
      </trkpt>
      <trkpt lat="44.38764" lon="6.23585">
        <ele>1305.607666</ele>
        <time>2015-07-14T09:51:52Z</time>
      </trkpt>
      <trkpt lat="44.38796" lon="6.23558">
        <ele>1302.7236328</ele>
        <time>2015-07-14T09:52:06Z</time>
      </trkpt>
      <trkpt lat="44.38805" lon="6.23551">
        <ele>1301.2817383</ele>
        <time>2015-07-14T09:52:11Z</time>
      </trkpt>
      <trkpt lat="44.38807" lon="6.23549">
        <ele>1300.8010254</ele>
        <time>2015-07-14T09:52:13Z</time>
      </trkpt>
      <trkpt lat="44.38813" lon="6.23547">
        <ele>1299.3591309</ele>
        <time>2015-07-14T09:52:18Z</time>
      </trkpt>
      <trkpt lat="44.38827" lon="6.23539">
        <ele>1298.3977051</ele>
        <time>2015-07-14T09:52:37Z</time>
      </trkpt>
      <trkpt lat="44.38836" lon="6.23531">
        <ele>1296.9558105</ele>
        <time>2015-07-14T09:52:41Z</time>
      </trkpt>
      <trkpt lat="44.38854" lon="6.23516">
        <ele>1293.5913086</ele>
        <time>2015-07-14T09:52:51Z</time>
      </trkpt>
      <trkpt lat="44.38883" lon="6.23501">
        <ele>1290.2265625</ele>
        <time>2015-07-14T09:53:03Z</time>
      </trkpt>
      <trkpt lat="44.38891" lon="6.23478">
        <ele>1287.8232422</ele>
        <time>2015-07-14T09:53:11Z</time>
      </trkpt>
      <trkpt lat="44.38888" lon="6.2346">
        <ele>1284.4587402</ele>
        <time>2015-07-14T09:53:18Z</time>
      </trkpt>
      <trkpt lat="44.38886" lon="6.23457">
        <ele>1283.9780273</ele>
        <time>2015-07-14T09:53:36Z</time>
      </trkpt>
      <trkpt lat="44.38896" lon="6.23435">
        <ele>1281.0942383</ele>
        <time>2015-07-14T09:53:46Z</time>
      </trkpt>
      <trkpt lat="44.38902" lon="6.23433">
        <ele>1279.6520996</ele>
        <time>2015-07-14T09:53:52Z</time>
      </trkpt>
      <trkpt lat="44.38908" lon="6.23431">
        <ele>1278.690918</ele>
        <time>2015-07-14T09:54:06Z</time>
      </trkpt>
      <trkpt lat="44.38923" lon="6.23421">
        <ele>1275.3259277</ele>
        <time>2015-07-14T09:54:15Z</time>
      </trkpt>
      <trkpt lat="44.38924" lon="6.2342">
        <ele>1275.3259277</ele>
        <time>2015-07-14T09:54:16Z</time>
      </trkpt>
      <trkpt lat="44.38932" lon="6.23412">
        <ele>1272.9228516</ele>
        <time>2015-07-14T09:54:23Z</time>
      </trkpt>
      <trkpt lat="44.38942" lon="6.23403">
        <ele>1271.9614258</ele>
        <time>2015-07-14T09:54:36Z</time>
      </trkpt>
      <trkpt lat="44.38956" lon="6.23392">
        <ele>1270.0388184</ele>
        <time>2015-07-14T09:54:46Z</time>
      </trkpt>
      <trkpt lat="44.38976" lon="6.23373">
        <ele>1268.1162109</ele>
        <time>2015-07-14T09:55:00Z</time>
      </trkpt>
      <trkpt lat="44.38998" lon="6.23354">
        <ele>1266.1936035</ele>
        <time>2015-07-14T09:55:11Z</time>
      </trkpt>
      <trkpt lat="44.39017" lon="6.23333">
        <ele>1264.751709</ele>
        <time>2015-07-14T09:55:20Z</time>
      </trkpt>
      <trkpt lat="44.39048" lon="6.23323">
        <ele>1262.8291016</ele>
        <time>2015-07-14T09:55:28Z</time>
      </trkpt>
      <trkpt lat="44.3907" lon="6.23324">
        <ele>1261.387207</ele>
        <time>2015-07-14T09:55:34Z</time>
      </trkpt>
      <trkpt lat="44.39128" lon="6.23339">
        <ele>1260.4257813</ele>
        <time>2015-07-14T09:55:48Z</time>
      </trkpt>
      <trkpt lat="44.39141" lon="6.23335">
        <ele>1258.5029297</ele>
        <time>2015-07-14T09:55:51Z</time>
      </trkpt>
      <trkpt lat="44.39154" lon="6.23328">
        <ele>1257.0610352</ele>
        <time>2015-07-14T09:55:55Z</time>
      </trkpt>
      <trkpt lat="44.39177" lon="6.2332">
        <ele>1254.6577148</ele>
        <time>2015-07-14T09:56:00Z</time>
      </trkpt>
      <trkpt lat="44.39189" lon="6.23317">
        <ele>1252.7351074</ele>
        <time>2015-07-14T09:56:03Z</time>
      </trkpt>
      <trkpt lat="44.39203" lon="6.23309">
        <ele>1251.2932129</ele>
        <time>2015-07-14T09:56:07Z</time>
      </trkpt>
      <trkpt lat="44.39223" lon="6.23306">
        <ele>1248.4091797</ele>
        <time>2015-07-14T09:56:15Z</time>
      </trkpt>
      <trkpt lat="44.39241" lon="6.23302">
        <ele>1245.0446777</ele>
        <time>2015-07-14T09:56:24Z</time>
      </trkpt>
      <trkpt lat="44.39264" lon="6.23301">
        <ele>1242.1606445</ele>
        <time>2015-07-14T09:56:33Z</time>
      </trkpt>
      <trkpt lat="44.39285" lon="6.23293">
        <ele>1239.2766113</ele>
        <time>2015-07-14T09:56:45Z</time>
      </trkpt>
      <trkpt lat="44.393" lon="6.23287">
        <ele>1236.873291</ele>
        <time>2015-07-14T09:56:51Z</time>
      </trkpt>
      <trkpt lat="44.39325" lon="6.23277">
        <ele>1233.5087891</ele>
        <time>2015-07-14T09:57:01Z</time>
      </trkpt>
      <trkpt lat="44.39333" lon="6.23275">
        <ele>1232.5476074</ele>
        <time>2015-07-14T09:57:03Z</time>
      </trkpt>
      <trkpt lat="44.39341" lon="6.23273">
        <ele>1231.5861816</ele>
        <time>2015-07-14T09:57:05Z</time>
      </trkpt>
      <trkpt lat="44.39361" lon="6.2327">
        <ele>1228.7023926</ele>
        <time>2015-07-14T09:57:11Z</time>
      </trkpt>
      <trkpt lat="44.39362" lon="6.23271">
        <ele>1228.7023926</ele>
        <time>2015-07-14T09:57:12Z</time>
      </trkpt>
      <trkpt lat="44.39365" lon="6.23271">
        <ele>1227.7407227</ele>
        <time>2015-07-14T09:57:18Z</time>
      </trkpt>
      <trkpt lat="44.39392" lon="6.23259">
        <ele>1225.3374023</ele>
        <time>2015-07-14T09:57:30Z</time>
      </trkpt>
      <trkpt lat="44.3942" lon="6.2324">
        <ele>1221.4921875</ele>
        <time>2015-07-14T09:57:43Z</time>
      </trkpt>
      <trkpt lat="44.39424" lon="6.23225">
        <ele>1220.050293</ele>
        <time>2015-07-14T09:57:49Z</time>
      </trkpt>
      <trkpt lat="44.39443" lon="6.23195">
        <ele>1215.7246094</ele>
        <time>2015-07-14T09:57:59Z</time>
      </trkpt>
      <trkpt lat="44.39445" lon="6.23194">
        <ele>1215.7246094</ele>
        <time>2015-07-14T09:58:00Z</time>
      </trkpt>
      <trkpt lat="44.39452" lon="6.23192">
        <ele>1213.8017578</ele>
        <time>2015-07-14T09:58:03Z</time>
      </trkpt>
      <trkpt lat="44.39459" lon="6.23201">
        <ele>1212.3598633</ele>
        <time>2015-07-14T09:58:08Z</time>
      </trkpt>
      <trkpt lat="44.39476" lon="6.23232">
        <ele>1208.9951172</ele>
        <time>2015-07-14T09:58:18Z</time>
      </trkpt>
      <trkpt lat="44.39486" lon="6.2325">
        <ele>1206.111084</ele>
        <time>2015-07-14T09:58:26Z</time>
      </trkpt>
      <trkpt lat="44.39502" lon="6.23248">
        <ele>1205.1499023</ele>
        <time>2015-07-14T09:58:33Z</time>
      </trkpt>
      <trkpt lat="44.39552" lon="6.23212">
        <ele>1204.1887207</ele>
        <time>2015-07-14T09:58:44Z</time>
      </trkpt>
      <trkpt lat="44.3959" lon="6.2319">
        <ele>1204.1887207</ele>
        <time>2015-07-14T09:58:57Z</time>
      </trkpt>
      <trkpt lat="44.39634" lon="6.23187">
        <ele>1204.6691895</ele>
        <time>2015-07-14T09:59:11Z</time>
      </trkpt>
      <trkpt lat="44.39663" lon="6.23185">
        <ele>1206.5917969</ele>
        <time>2015-07-14T09:59:26Z</time>
      </trkpt>
      <trkpt lat="44.39697" lon="6.23167">
        <ele>1205.1499023</ele>
        <time>2015-07-14T09:59:37Z</time>
      </trkpt>
      <trkpt lat="44.39714" lon="6.2316">
        <ele>1205.1499023</ele>
        <time>2015-07-14T09:59:42Z</time>
      </trkpt>
      <trkpt lat="44.39754" lon="6.23124">
        <ele>1202.746582</ele>
        <time>2015-07-14T09:59:55Z</time>
      </trkpt>
      <trkpt lat="44.39776" lon="6.23102">
        <ele>1200.3435059</ele>
        <time>2015-07-14T10:00:05Z</time>
      </trkpt>
      <trkpt lat="44.39797" lon="6.23097">
        <ele>1196.9787598</ele>
        <time>2015-07-14T10:00:15Z</time>
      </trkpt>
      <trkpt lat="44.39805" lon="6.23099">
        <ele>1196.0175781</ele>
        <time>2015-07-14T10:00:17Z</time>
      </trkpt>
      <trkpt lat="44.39809" lon="6.23099">
        <ele>1195.5366211</ele>
        <time>2015-07-14T10:00:18Z</time>
      </trkpt>
      <trkpt lat="44.39841" lon="6.23089">
        <ele>1192.652832</ele>
        <time>2015-07-14T10:00:24Z</time>
      </trkpt>
      <trkpt lat="44.39853" lon="6.23086">
        <ele>1191.6914063</ele>
        <time>2015-07-14T10:00:27Z</time>
      </trkpt>
      <trkpt lat="44.39902" lon="6.23046">
        <ele>1189.2880859</ele>
        <time>2015-07-14T10:00:40Z</time>
      </trkpt>
      <trkpt lat="44.39923" lon="6.23032">
        <ele>1185.923584</ele>
        <time>2015-07-14T10:00:48Z</time>
      </trkpt>
      <trkpt lat="44.39931" lon="6.23028">
        <ele>1185.4428711</ele>
        <time>2015-07-14T10:00:50Z</time>
      </trkpt>
      <trkpt lat="44.39941" lon="6.23021">
        <ele>1184.4816895</ele>
        <time>2015-07-14T10:00:52Z</time>
      </trkpt>
      <trkpt lat="44.3998" lon="6.22985">
        <ele>1180.1557617</ele>
        <time>2015-07-14T10:01:00Z</time>
      </trkpt>
      <trkpt lat="44.39984" lon="6.22982">
        <ele>1180.1557617</ele>
        <time>2015-07-14T10:01:01Z</time>
      </trkpt>
      <trkpt lat="44.40002" lon="6.22967">
        <ele>1177.2717285</ele>
        <time>2015-07-14T10:01:07Z</time>
      </trkpt>
      <trkpt lat="44.40014" lon="6.22961">
        <ele>1176.7910156</ele>
        <time>2015-07-14T10:01:10Z</time>
      </trkpt>
      <trkpt lat="44.40032" lon="6.22945">
        <ele>1174.8684082</ele>
        <time>2015-07-14T10:01:15Z</time>
      </trkpt>
      <trkpt lat="44.40043" lon="6.22938">
        <ele>1173.4265137</ele>
        <time>2015-07-14T10:01:18Z</time>
      </trkpt>
      <trkpt lat="44.40058" lon="6.22928">
        <ele>1171.5036621</ele>
        <time>2015-07-14T10:01:22Z</time>
      </trkpt>
      <trkpt lat="44.40065" lon="6.22923">
        <ele>1171.0231934</ele>
        <time>2015-07-14T10:01:24Z</time>
      </trkpt>
      <trkpt lat="44.40077" lon="6.22908">
        <ele>1168.619873</ele>
        <time>2015-07-14T10:01:28Z</time>
      </trkpt>
      <trkpt lat="44.40082" lon="6.22882">
        <ele>1165.2553711</ele>
        <time>2015-07-14T10:01:35Z</time>
      </trkpt>
      <trkpt lat="44.40082" lon="6.22879">
        <ele>1165.2553711</ele>
        <time>2015-07-14T10:01:36Z</time>
      </trkpt>
      <trkpt lat="44.40076" lon="6.22857">
        <ele>1162.8518066</ele>
        <time>2015-07-14T10:01:42Z</time>
      </trkpt>
      <trkpt lat="44.40075" lon="6.22847">
        <ele>1160.4484863</ele>
        <time>2015-07-14T10:01:45Z</time>
      </trkpt>
      <trkpt lat="44.40079" lon="6.22834">
        <ele>1158.5258789</ele>
        <time>2015-07-14T10:01:49Z</time>
      </trkpt>
      <trkpt lat="44.40083" lon="6.22824">
        <ele>1157.0839844</ele>
        <time>2015-07-14T10:01:52Z</time>
      </trkpt>
      <trkpt lat="44.40097" lon="6.22803">
        <ele>1153.2387695</ele>
        <time>2015-07-14T10:01:58Z</time>
      </trkpt>
      <trkpt lat="44.40099" lon="6.22799">
        <ele>1153.2387695</ele>
        <time>2015-07-14T10:01:59Z</time>
      </trkpt>
      <trkpt lat="44.40102" lon="6.2278">
        <ele>1150.3549805</ele>
        <time>2015-07-14T10:02:03Z</time>
      </trkpt>
      <trkpt lat="44.40103" lon="6.22769">
        <ele>1147.951416</ele>
        <time>2015-07-14T10:02:06Z</time>
      </trkpt>
      <trkpt lat="44.40102" lon="6.22752">
        <ele>1145.5480957</ele>
        <time>2015-07-14T10:02:10Z</time>
      </trkpt>
      <trkpt lat="44.40104" lon="6.22735">
        <ele>1143.6254883</ele>
        <time>2015-07-14T10:02:13Z</time>
      </trkpt>
      <trkpt lat="44.40105" lon="6.22727">
        <ele>1142.1835938</ele>
        <time>2015-07-14T10:02:15Z</time>
      </trkpt>
      <trkpt lat="44.40111" lon="6.22717">
        <ele>1139.7802734</ele>
        <time>2015-07-14T10:02:20Z</time>
      </trkpt>
      <trkpt lat="44.40124" lon="6.22699">
        <ele>1137.3769531</ele>
        <time>2015-07-14T10:02:27Z</time>
      </trkpt>
      <trkpt lat="44.40131" lon="6.22691">
        <ele>1135.9350586</ele>
        <time>2015-07-14T10:02:29Z</time>
      </trkpt>
      <trkpt lat="44.40138" lon="6.22683">
        <ele>1134.973877</ele>
        <time>2015-07-14T10:02:31Z</time>
      </trkpt>
      <trkpt lat="44.4015" lon="6.22662">
        <ele>1131.128418</ele>
        <time>2015-07-14T10:02:37Z</time>
      </trkpt>
      <trkpt lat="44.40157" lon="6.22636">
        <ele>1127.2832031</ele>
        <time>2015-07-14T10:02:42Z</time>
      </trkpt>
      <trkpt lat="44.40159" lon="6.22631">
        <ele>1127.2832031</ele>
        <time>2015-07-14T10:02:43Z</time>
      </trkpt>
      <trkpt lat="44.40162" lon="6.22621">
        <ele>1125.8410645</ele>
        <time>2015-07-14T10:02:45Z</time>
      </trkpt>
      <trkpt lat="44.40164" lon="6.226">
        <ele>1122.4765625</ele>
        <time>2015-07-14T10:02:49Z</time>
      </trkpt>
      <trkpt lat="44.4017" lon="6.22588">
        <ele>1120.5539551</ele>
        <time>2015-07-14T10:02:52Z</time>
      </trkpt>
      <trkpt lat="44.40176" lon="6.22572">
        <ele>1117.6699219</ele>
        <time>2015-07-14T10:02:57Z</time>
      </trkpt>
      <trkpt lat="44.40176" lon="6.22553">
        <ele>1114.3051758</ele>
        <time>2015-07-14T10:03:05Z</time>
      </trkpt>
      <trkpt lat="44.40174" lon="6.22549">
        <ele>1113.8244629</ele>
        <time>2015-07-14T10:03:07Z</time>
      </trkpt>
      <trkpt lat="44.40163" lon="6.22548">
        <ele>1113.3439941</ele>
        <time>2015-07-14T10:03:11Z</time>
      </trkpt>
      <trkpt lat="44.40147" lon="6.22554">
        <ele>1113.3439941</ele>
        <time>2015-07-14T10:03:15Z</time>
      </trkpt>
      <trkpt lat="44.40134" lon="6.22561">
        <ele>1112.8632813</ele>
        <time>2015-07-14T10:03:18Z</time>
      </trkpt>
      <trkpt lat="44.40116" lon="6.2257">
        <ele>1112.8632813</ele>
        <time>2015-07-14T10:03:22Z</time>
      </trkpt>
      <trkpt lat="44.40074" lon="6.2259">
        <ele>1111.9020996</ele>
        <time>2015-07-14T10:03:30Z</time>
      </trkpt>
      <trkpt lat="44.40044" lon="6.22592">
        <ele>1111.4213867</ele>
        <time>2015-07-14T10:03:35Z</time>
      </trkpt>
      <trkpt lat="44.39971" lon="6.22563">
        <ele>1109.0180664</ele>
        <time>2015-07-14T10:03:48Z</time>
      </trkpt>
      <trkpt lat="44.39925" lon="6.22542">
        <ele>1108.5373535</ele>
        <time>2015-07-14T10:03:56Z</time>
      </trkpt>
      <trkpt lat="44.39897" lon="6.22522">
        <ele>1108.5373535</ele>
        <time>2015-07-14T10:04:01Z</time>
      </trkpt>
      <trkpt lat="44.39882" lon="6.22507">
        <ele>1108.0568848</ele>
        <time>2015-07-14T10:04:04Z</time>
      </trkpt>
      <trkpt lat="44.39848" lon="6.22523">
        <ele>1106.6147461</ele>
        <time>2015-07-14T10:04:11Z</time>
      </trkpt>
      <trkpt lat="44.39846" lon="6.22531">
        <ele>1106.1340332</ele>
        <time>2015-07-14T10:04:12Z</time>
      </trkpt>
      <trkpt lat="44.3984" lon="6.22547">
        <ele>1106.6147461</ele>
        <time>2015-07-14T10:04:14Z</time>
      </trkpt>
      <trkpt lat="44.3982" lon="6.22558">
        <ele>1106.1340332</ele>
        <time>2015-07-14T10:04:18Z</time>
      </trkpt>
      <trkpt lat="44.39795" lon="6.22555">
        <ele>1105.6535645</ele>
        <time>2015-07-14T10:04:22Z</time>
      </trkpt>
      <trkpt lat="44.39777" lon="6.22559">
        <ele>1105.6535645</ele>
        <time>2015-07-14T10:04:25Z</time>
      </trkpt>
      <trkpt lat="44.39757" lon="6.22525">
        <ele>1103.730957</ele>
        <time>2015-07-14T10:04:31Z</time>
      </trkpt>
      <trkpt lat="44.39762" lon="6.22449">
        <ele>1102.2888184</ele>
        <time>2015-07-14T10:04:39Z</time>
      </trkpt>
      <trkpt lat="44.39787" lon="6.22395">
        <ele>1100.8469238</ele>
        <time>2015-07-14T10:04:45Z</time>
      </trkpt>
      <trkpt lat="44.39806" lon="6.22352">
        <ele>1100.8469238</ele>
        <time>2015-07-14T10:04:50Z</time>
      </trkpt>
      <trkpt lat="44.39806" lon="6.22299">
        <ele>1098.9240723</ele>
        <time>2015-07-14T10:04:55Z</time>
      </trkpt>
      <trkpt lat="44.398" lon="6.22193">
        <ele>1097.9628906</ele>
        <time>2015-07-14T10:05:06Z</time>
      </trkpt>
      <trkpt lat="44.39791" lon="6.2216">
        <ele>1097.0014648</ele>
        <time>2015-07-14T10:05:10Z</time>
      </trkpt>
      <trkpt lat="44.3974" lon="6.22041">
        <ele>1093.6369629</ele>
        <time>2015-07-14T10:05:24Z</time>
      </trkpt>
      <trkpt lat="44.39737" lon="6.22031">
        <ele>1093.6369629</ele>
        <time>2015-07-14T10:05:25Z</time>
      </trkpt>
      <trkpt lat="44.39696" lon="6.21932">
        <ele>1090.2724609</ele>
        <time>2015-07-14T10:05:35Z</time>
      </trkpt>
      <trkpt lat="44.3966" lon="6.21847">
        <ele>1088.3498535</ele>
        <time>2015-07-14T10:05:43Z</time>
      </trkpt>
      <trkpt lat="44.39641" lon="6.21826">
        <ele>1086.9077148</ele>
        <time>2015-07-14T10:05:46Z</time>
      </trkpt>
      <trkpt lat="44.39594" lon="6.2182">
        <ele>1084.5046387</ele>
        <time>2015-07-14T10:05:52Z</time>
      </trkpt>
      <trkpt lat="44.39573" lon="6.21828">
        <ele>1083.0622559</ele>
        <time>2015-07-14T10:05:55Z</time>
      </trkpt>
      <trkpt lat="44.3956" lon="6.2183">
        <ele>1081.1398926</ele>
        <time>2015-07-14T10:05:57Z</time>
      </trkpt>
      <trkpt lat="44.39544" lon="6.21821">
        <ele>1080.6591797</ele>
        <time>2015-07-14T10:06:00Z</time>
      </trkpt>
      <trkpt lat="44.39534" lon="6.21811">
        <ele>1079.6977539</ele>
        <time>2015-07-14T10:06:02Z</time>
      </trkpt>
      <trkpt lat="44.39498" lon="6.21794">
        <ele>1077.7751465</ele>
        <time>2015-07-14T10:06:08Z</time>
      </trkpt>
      <trkpt lat="44.3948" lon="6.21764">
        <ele>1076.8139648</ele>
        <time>2015-07-14T10:06:13Z</time>
      </trkpt>
      <trkpt lat="44.39497" lon="6.21729">
        <ele>1076.333252</ele>
        <time>2015-07-14T10:06:20Z</time>
      </trkpt>
      <trkpt lat="44.39502" lon="6.21729">
        <ele>1076.8139648</ele>
        <time>2015-07-14T10:06:21Z</time>
      </trkpt>
      <trkpt lat="44.39519" lon="6.21731">
        <ele>1076.333252</ele>
        <time>2015-07-14T10:06:25Z</time>
      </trkpt>
      <trkpt lat="44.39574" lon="6.21744">
        <ele>1076.8139648</ele>
        <time>2015-07-14T10:06:39Z</time>
      </trkpt>
      <trkpt lat="44.39587" lon="6.21739">
        <ele>1077.2946777</ele>
        <time>2015-07-14T10:06:42Z</time>
      </trkpt>
      <trkpt lat="44.39635" lon="6.21695">
        <ele>1076.333252</ele>
        <time>2015-07-14T10:06:54Z</time>
      </trkpt>
      <trkpt lat="44.39646" lon="6.21672">
        <ele>1076.333252</ele>
        <time>2015-07-14T10:06:58Z</time>
      </trkpt>
      <trkpt lat="44.39653" lon="6.21647">
        <ele>1076.333252</ele>
        <time>2015-07-14T10:07:02Z</time>
      </trkpt>
      <trkpt lat="44.39646" lon="6.21538">
        <ele>1074.8913574</ele>
        <time>2015-07-14T10:07:18Z</time>
      </trkpt>
      <trkpt lat="44.3962" lon="6.21395">
        <ele>1074.8913574</ele>
        <time>2015-07-14T10:07:41Z</time>
      </trkpt>
      <trkpt lat="44.39619" lon="6.2139">
        <ele>1074.8913574</ele>
        <time>2015-07-14T10:07:42Z</time>
      </trkpt>
      <trkpt lat="44.39608" lon="6.21358">
        <ele>1074.4106445</ele>
        <time>2015-07-14T10:07:48Z</time>
      </trkpt>
      <trkpt lat="44.39575" lon="6.2131">
        <ele>1073.9299316</ele>
        <time>2015-07-14T10:07:59Z</time>
      </trkpt>
      <trkpt lat="44.39563" lon="6.21261">
        <ele>1073.9299316</ele>
        <time>2015-07-14T10:08:07Z</time>
      </trkpt>
      <trkpt lat="44.39562" lon="6.21248">
        <ele>1073.4494629</ele>
        <time>2015-07-14T10:08:09Z</time>
      </trkpt>
      <trkpt lat="44.39565" lon="6.21229">
        <ele>1073.4494629</ele>
        <time>2015-07-14T10:08:12Z</time>
      </trkpt>
      <trkpt lat="44.39568" lon="6.21212">
        <ele>1073.9299316</ele>
        <time>2015-07-14T10:08:15Z</time>
      </trkpt>
      <trkpt lat="44.39558" lon="6.21172">
        <ele>1073.4494629</ele>
        <time>2015-07-14T10:08:22Z</time>
      </trkpt>
      <trkpt lat="44.39543" lon="6.21142">
        <ele>1072.96875</ele>
        <time>2015-07-14T10:08:27Z</time>
      </trkpt>
      <trkpt lat="44.39519" lon="6.2109">
        <ele>1072.4880371</ele>
        <time>2015-07-14T10:08:36Z</time>
      </trkpt>
      <trkpt lat="44.39485" lon="6.21048">
        <ele>1071.0461426</ele>
        <time>2015-07-14T10:08:44Z</time>
      </trkpt>
      <trkpt lat="44.39419" lon="6.2101">
        <ele>1071.0461426</ele>
        <time>2015-07-14T10:08:58Z</time>
      </trkpt>
      <trkpt lat="44.39415" lon="6.21008">
        <ele>1071.5266113</ele>
        <time>2015-07-14T10:08:59Z</time>
      </trkpt>
      <trkpt lat="44.39402" lon="6.20998">
        <ele>1071.5266113</ele>
        <time>2015-07-14T10:09:02Z</time>
      </trkpt>
      <trkpt lat="44.39389" lon="6.20976">
        <ele>1071.5266113</ele>
        <time>2015-07-14T10:09:07Z</time>
      </trkpt>
      <trkpt lat="44.39373" lon="6.20957">
        <ele>1072.0073242</ele>
        <time>2015-07-14T10:09:12Z</time>
      </trkpt>
      <trkpt lat="44.39359" lon="6.2095">
        <ele>1072.0073242</ele>
        <time>2015-07-14T10:09:15Z</time>
      </trkpt>
      <trkpt lat="44.39341" lon="6.20927">
        <ele>1072.0073242</ele>
        <time>2015-07-14T10:09:20Z</time>
      </trkpt>
      <trkpt lat="44.39333" lon="6.20902">
        <ele>1071.5266113</ele>
        <time>2015-07-14T10:09:24Z</time>
      </trkpt>
      <trkpt lat="44.39319" lon="6.20884">
        <ele>1071.0461426</ele>
        <time>2015-07-14T10:09:28Z</time>
      </trkpt>
      <trkpt lat="44.39296" lon="6.20872">
        <ele>1071.5266113</ele>
        <time>2015-07-14T10:09:34Z</time>
      </trkpt>
      <trkpt lat="44.39294" lon="6.20831">
        <ele>1072.0073242</ele>
        <time>2015-07-14T10:09:42Z</time>
      </trkpt>
      <trkpt lat="44.39322" lon="6.20821">
        <ele>1071.5266113</ele>
        <time>2015-07-14T10:09:48Z</time>
      </trkpt>
      <trkpt lat="44.39378" lon="6.20847">
        <ele>1072.4880371</ele>
        <time>2015-07-14T10:10:03Z</time>
      </trkpt>
      <trkpt lat="44.39413" lon="6.2086">
        <ele>1072.96875</ele>
        <time>2015-07-14T10:10:13Z</time>
      </trkpt>
      <trkpt lat="44.39434" lon="6.20821">
        <ele>1072.96875</ele>
        <time>2015-07-14T10:10:22Z</time>
      </trkpt>
      <trkpt lat="44.39458" lon="6.20729">
        <ele>1072.4880371</ele>
        <time>2015-07-14T10:10:38Z</time>
      </trkpt>
      <trkpt lat="44.39476" lon="6.20668">
        <ele>1072.96875</ele>
        <time>2015-07-14T10:10:49Z</time>
      </trkpt>
      <trkpt lat="44.39504" lon="6.2061">
        <ele>1073.4494629</ele>
        <time>2015-07-14T10:11:01Z</time>
      </trkpt>
      <trkpt lat="44.39538" lon="6.20567">
        <ele>1073.4494629</ele>
        <time>2015-07-14T10:11:12Z</time>
      </trkpt>
      <trkpt lat="44.3956" lon="6.20549">
        <ele>1072.96875</ele>
        <time>2015-07-14T10:11:18Z</time>
      </trkpt>
      <trkpt lat="44.39654" lon="6.20496">
        <ele>1073.4494629</ele>
        <time>2015-07-14T10:11:43Z</time>
      </trkpt>
      <trkpt lat="44.39659" lon="6.20453">
        <ele>1073.9299316</ele>
        <time>2015-07-14T10:11:50Z</time>
      </trkpt>
      <trkpt lat="44.39649" lon="6.20385">
        <ele>1073.4494629</ele>
        <time>2015-07-14T10:12:02Z</time>
      </trkpt>
      <trkpt lat="44.39672" lon="6.20312">
        <ele>1073.9299316</ele>
        <time>2015-07-14T10:12:17Z</time>
      </trkpt>
      <trkpt lat="44.3969" lon="6.2027">
        <ele>1073.9299316</ele>
        <time>2015-07-14T10:12:26Z</time>
      </trkpt>
      <trkpt lat="44.3975" lon="6.20209">
        <ele>1073.4494629</ele>
        <time>2015-07-14T10:12:43Z</time>
      </trkpt>
      <trkpt lat="44.39786" lon="6.20162">
        <ele>1074.4106445</ele>
        <time>2015-07-14T10:12:55Z</time>
      </trkpt>
      <trkpt lat="44.39827" lon="6.19768">
        <ele>1074.8913574</ele>
        <time>2015-07-14T10:14:05Z</time>
      </trkpt>
      <trkpt lat="44.3983" lon="6.19633">
        <ele>1075.3718262</ele>
        <time>2015-07-14T10:14:28Z</time>
      </trkpt>
      <trkpt lat="44.3983" lon="6.19615">
        <ele>1075.8525391</ele>
        <time>2015-07-14T10:14:31Z</time>
      </trkpt>
      <trkpt lat="44.3984" lon="6.19519">
        <ele>1075.8525391</ele>
        <time>2015-07-14T10:14:49Z</time>
      </trkpt>
      <trkpt lat="44.39834" lon="6.19443">
        <ele>1076.333252</ele>
        <time>2015-07-14T10:15:04Z</time>
      </trkpt>
      <trkpt lat="44.39834" lon="6.19355">
        <ele>1077.2946777</ele>
        <time>2015-07-14T10:15:22Z</time>
      </trkpt>
      <trkpt lat="44.39848" lon="6.19273">
        <ele>1077.7751465</ele>
        <time>2015-07-14T10:15:40Z</time>
      </trkpt>
      <trkpt lat="44.3984" lon="6.19212">
        <ele>1078.2558594</ele>
        <time>2015-07-14T10:15:53Z</time>
      </trkpt>
      <trkpt lat="44.39793" lon="6.1914">
        <ele>1078.2558594</ele>
        <time>2015-07-14T10:16:11Z</time>
      </trkpt>
      <trkpt lat="44.39744" lon="6.19067">
        <ele>1077.7751465</ele>
        <time>2015-07-14T10:16:30Z</time>
      </trkpt>
      <trkpt lat="44.3972" lon="6.19049">
        <ele>1077.7751465</ele>
        <time>2015-07-14T10:16:38Z</time>
      </trkpt>
      <trkpt lat="44.39698" lon="6.19043">
        <ele>1077.2946777</ele>
        <time>2015-07-14T10:16:43Z</time>
      </trkpt>
      <trkpt lat="44.39671" lon="6.1902">
        <ele>1076.333252</ele>
        <time>2015-07-14T10:16:48Z</time>
      </trkpt>
      <trkpt lat="44.39645" lon="6.18979">
        <ele>1075.3718262</ele>
        <time>2015-07-14T10:16:53Z</time>
      </trkpt>
      <trkpt lat="44.39636" lon="6.18947">
        <ele>1073.4494629</ele>
        <time>2015-07-14T10:16:56Z</time>
      </trkpt>
      <trkpt lat="44.39638" lon="6.18936">
        <ele>1072.96875</ele>
        <time>2015-07-14T10:16:57Z</time>
      </trkpt>
      <trkpt lat="44.39673" lon="6.18809">
        <ele>1070.0847168</ele>
        <time>2015-07-14T10:17:08Z</time>
      </trkpt>
      <trkpt lat="44.3968" lon="6.18787">
        <ele>1069.1235352</ele>
        <time>2015-07-14T10:17:10Z</time>
      </trkpt>
      <trkpt lat="44.39689" lon="6.18765">
        <ele>1067.2006836</ele>
        <time>2015-07-14T10:17:12Z</time>
      </trkpt>
      <trkpt lat="44.39708" lon="6.18728">
        <ele>1064.7973633</ele>
        <time>2015-07-14T10:17:16Z</time>
      </trkpt>
      <trkpt lat="44.39711" lon="6.18658">
        <ele>1062.8747559</ele>
        <time>2015-07-14T10:17:23Z</time>
      </trkpt>
      <trkpt lat="44.39694" lon="6.18611">
        <ele>1059.5102539</ele>
        <time>2015-07-14T10:17:27Z</time>
      </trkpt>
      <trkpt lat="44.39688" lon="6.18572">
        <ele>1057.5876465</ele>
        <time>2015-07-14T10:17:30Z</time>
      </trkpt>
      <trkpt lat="44.39685" lon="6.18535">
        <ele>1055.1843262</ele>
        <time>2015-07-14T10:17:33Z</time>
      </trkpt>
      <trkpt lat="44.39684" lon="6.18517">
        <ele>1052.7810059</ele>
        <time>2015-07-14T10:17:35Z</time>
      </trkpt>
      <trkpt lat="44.39662" lon="6.1848">
        <ele>1049.4162598</ele>
        <time>2015-07-14T10:17:40Z</time>
      </trkpt>
      <trkpt lat="44.39627" lon="6.18462">
        <ele>1047.9743652</ele>
        <time>2015-07-14T10:17:44Z</time>
      </trkpt>
      <trkpt lat="44.39561" lon="6.18433">
        <ele>1046.5324707</ele>
        <time>2015-07-14T10:17:52Z</time>
      </trkpt>
      <trkpt lat="44.39527" lon="6.18384">
        <ele>1045.090332</ele>
        <time>2015-07-14T10:17:58Z</time>
      </trkpt>
      <trkpt lat="44.39513" lon="6.18346">
        <ele>1045.090332</ele>
        <time>2015-07-14T10:18:02Z</time>
      </trkpt>
      <trkpt lat="44.39516" lon="6.18289">
        <ele>1045.090332</ele>
        <time>2015-07-14T10:18:09Z</time>
      </trkpt>
      <trkpt lat="44.39523" lon="6.18276">
        <ele>1045.090332</ele>
        <time>2015-07-14T10:18:11Z</time>
      </trkpt>
      <trkpt lat="44.39537" lon="6.18262">
        <ele>1044.6096191</ele>
        <time>2015-07-14T10:18:14Z</time>
      </trkpt>
      <trkpt lat="44.39571" lon="6.18232">
        <ele>1043.6484375</ele>
        <time>2015-07-14T10:18:21Z</time>
      </trkpt>
      <trkpt lat="44.39585" lon="6.18198">
        <ele>1042.6872559</ele>
        <time>2015-07-14T10:18:26Z</time>
      </trkpt>
      <trkpt lat="44.39594" lon="6.18117">
        <ele>1041.7258301</ele>
        <time>2015-07-14T10:18:36Z</time>
      </trkpt>
      <trkpt lat="44.39584" lon="6.18067">
        <ele>1041.2451172</ele>
        <time>2015-07-14T10:18:42Z</time>
      </trkpt>
      <trkpt lat="44.39525" lon="6.17926">
        <ele>1038.842041</ele>
        <time>2015-07-14T10:19:01Z</time>
      </trkpt>
      <trkpt lat="44.39513" lon="6.17897">
        <ele>1038.3613281</ele>
        <time>2015-07-14T10:19:05Z</time>
      </trkpt>
      <trkpt lat="44.39499" lon="6.17861">
        <ele>1037.8806152</ele>
        <time>2015-07-14T10:19:10Z</time>
      </trkpt>
      <trkpt lat="44.39494" lon="6.17845">
        <ele>1037.8806152</ele>
        <time>2015-07-14T10:19:12Z</time>
      </trkpt>
      <trkpt lat="44.39475" lon="6.17722">
        <ele>1035.4770508</ele>
        <time>2015-07-14T10:19:26Z</time>
      </trkpt>
      <trkpt lat="44.39466" lon="6.17663">
        <ele>1034.996582</ele>
        <time>2015-07-14T10:19:33Z</time>
      </trkpt>
      <trkpt lat="44.39437" lon="6.17589">
        <ele>1034.0351563</ele>
        <time>2015-07-14T10:19:43Z</time>
      </trkpt>
      <trkpt lat="44.39419" lon="6.17569">
        <ele>1032.5932617</ele>
        <time>2015-07-14T10:19:47Z</time>
      </trkpt>
      <trkpt lat="44.39391" lon="6.17553">
        <ele>1032.5932617</ele>
        <time>2015-07-14T10:19:52Z</time>
      </trkpt>
      <trkpt lat="44.39365" lon="6.17509">
        <ele>1031.6318359</ele>
        <time>2015-07-14T10:19:59Z</time>
      </trkpt>
      <trkpt lat="44.39372" lon="6.17493">
        <ele>1031.1513672</ele>
        <time>2015-07-14T10:20:01Z</time>
      </trkpt>
      <trkpt lat="44.39388" lon="6.17472">
        <ele>1031.6318359</ele>
        <time>2015-07-14T10:20:04Z</time>
      </trkpt>
      <trkpt lat="44.39399" lon="6.1746">
        <ele>1030.6706543</ele>
        <time>2015-07-14T10:20:06Z</time>
      </trkpt>
      <trkpt lat="44.39411" lon="6.1745">
        <ele>1029.7092285</ele>
        <time>2015-07-14T10:20:08Z</time>
      </trkpt>
      <trkpt lat="44.39417" lon="6.17446">
        <ele>1030.1899414</ele>
        <time>2015-07-14T10:20:09Z</time>
      </trkpt>
      <trkpt lat="44.39505" lon="6.17385">
        <ele>1026.8254395</ele>
        <time>2015-07-14T10:20:23Z</time>
      </trkpt>
      <trkpt lat="44.39522" lon="6.17369">
        <ele>1026.3447266</ele>
        <time>2015-07-14T10:20:26Z</time>
      </trkpt>
      <trkpt lat="44.39558" lon="6.17341">
        <ele>1022.9802246</ele>
        <time>2015-07-14T10:20:33Z</time>
      </trkpt>
      <trkpt lat="44.39574" lon="6.17328">
        <ele>1020.5769043</ele>
        <time>2015-07-14T10:20:36Z</time>
      </trkpt>
      <trkpt lat="44.39585" lon="6.17322">
        <ele>1019.1347656</ele>
        <time>2015-07-14T10:20:38Z</time>
      </trkpt>
      <trkpt lat="44.3959" lon="6.1732">
        <ele>1017.692627</ele>
        <time>2015-07-14T10:20:39Z</time>
      </trkpt>
      <trkpt lat="44.39612" lon="6.1733">
        <ele>1015.2895508</ele>
        <time>2015-07-14T10:20:44Z</time>
      </trkpt>
      <trkpt lat="44.39623" lon="6.17349">
        <ele>1014.8088379</ele>
        <time>2015-07-14T10:20:47Z</time>
      </trkpt>
      <trkpt lat="44.39661" lon="6.17355">
        <ele>1012.4055176</ele>
        <time>2015-07-14T10:20:55Z</time>
      </trkpt>
      <trkpt lat="44.39666" lon="6.17343">
        <ele>1012.8862305</ele>
        <time>2015-07-14T10:20:57Z</time>
      </trkpt>
      <trkpt lat="44.39702" lon="6.17295">
        <ele>1014.328125</ele>
        <time>2015-07-14T10:21:12Z</time>
      </trkpt>
      <trkpt lat="44.39735" lon="6.17255">
        <ele>1016.7314453</ele>
        <time>2015-07-14T10:21:31Z</time>
      </trkpt>
      <trkpt lat="44.39757" lon="6.17202">
        <ele>1019.6154785</ele>
        <time>2015-07-14T10:21:52Z</time>
      </trkpt>
      <trkpt lat="44.39776" lon="6.17155">
        <ele>1022.0187988</ele>
        <time>2015-07-14T10:22:13Z</time>
      </trkpt>
      <trkpt lat="44.39792" lon="6.17126">
        <ele>1023.9414063</ele>
        <time>2015-07-14T10:22:33Z</time>
      </trkpt>
      <trkpt lat="44.39794" lon="6.17127">
        <ele>1024.4221191</ele>
        <time>2015-07-14T10:22:52Z</time>
      </trkpt>
      <trkpt lat="44.39797" lon="6.17127">
        <ele>1023.9414063</ele>
        <time>2015-07-14T10:23:07Z</time>
      </trkpt>
      <trkpt lat="44.39806" lon="6.17133">
        <ele>1025.3833008</ele>
        <time>2015-07-14T10:23:19Z</time>
      </trkpt>
      <trkpt lat="44.39809" lon="6.17144">
        <ele>1025.3833008</ele>
        <time>2015-07-14T10:23:35Z</time>
      </trkpt>
      <trkpt lat="44.39804" lon="6.1715">
        <ele>1024.902832</ele>
        <time>2015-07-14T10:24:12Z</time>
      </trkpt>
      <trkpt lat="44.39798" lon="6.17144">
        <ele>1024.4221191</ele>
        <time>2015-07-14T10:24:51Z</time>
      </trkpt>
      <trkpt lat="44.398" lon="6.17145">
        <ele>1023.4609375</ele>
        <time>2015-07-14T10:24:55Z</time>
      </trkpt>
      <trkpt lat="44.39805" lon="6.1715">
        <ele>1023.4609375</ele>
        <time>2015-07-14T10:25:53Z</time>
      </trkpt>
      <trkpt lat="44.39804" lon="6.17147">
        <ele>1023.4609375</ele>
        <time>2015-07-14T10:26:12Z</time>
      </trkpt>
      <trkpt lat="44.39809" lon="6.17142">
        <ele>1022.0187988</ele>
        <time>2015-07-14T10:26:44Z</time>
      </trkpt>
      <trkpt lat="44.39798" lon="6.17131">
        <ele>1021.5380859</ele>
        <time>2015-07-14T10:27:50Z</time>
      </trkpt>
      <trkpt lat="44.39801" lon="6.17135">
        <ele>1018.1733398</ele>
        <time>2015-07-14T10:37:06Z</time>
      </trkpt>
      <trkpt lat="44.39802" lon="6.17136">
        <ele>1019.6154785</ele>
        <time>2015-07-14T10:39:28Z</time>
      </trkpt>
      <trkpt lat="44.39803" lon="6.17137">
        <ele>1019.6154785</ele>
        <time>2015-07-14T10:39:41Z</time>
      </trkpt>
    </trkseg>
  </trk>
</gpx>